<?xml version="1.0" encoding="UTF-8" standalone="no" ?>
<gpx xmlns="http://www.topografix.com/GPX/1/1" xmlns:gpxtpx="http://www.garmin.com/xmlschemas/TrackPointExtension/v1" creator="OruxMaps v.7.4.22" version="1.1" xmlns:xsi="http://www.w3.org/2001/XMLSchema-instance" xsi:schemaLocation="http://www.topografix.com/GPX/1/1 http://www.topografix.com/GPX/1/1/gpx.xsd">
<metadata>
<name><![CDATA[2020-12-06 09:28]]></name>
<link href="https://www.oruxmaps.com">
<text>OruxMaps</text>
</link>
<time>2020-12-06T08:28:58Z</time><bounds maxlat="48.9350879" maxlon="2.8783340" minlat="48.8731682" minlon="2.7917507"/>
</metadata>
<wpt lat="48.8731682" lon="2.8436109">
<ele>89.20</ele>
<time>2020-12-06T08:29:00Z</time>
<name><![CDATA[0000047]]></name>
<sym>Waypoint</sym>
<type>Point de départ</type>
<extensions>
<om:oruxmapsextensions xmlns:om="http://www.oruxmaps.com/oruxmapsextensions/1/0">
<om:ext type="ICON" subtype="0">38</om:ext>
</om:oruxmapsextensions>
</extensions>
</wpt>
<wpt lat="48.8731682" lon="2.8436109">
<ele>89.20</ele>
<time>2020-12-06T08:29:00Z</time>
<name><![CDATA[0000047]]></name>
<sym>Waypoint</sym>
<type>Point de départ</type>
<extensions>
<om:oruxmapsextensions xmlns:om="http://www.oruxmaps.com/oruxmapsextensions/1/0">
<om:ext type="ICON" subtype="0">38</om:ext>
</om:oruxmapsextensions>
</extensions>
</wpt>
<wpt lat="48.8732597" lon="2.8436343">
<ele>87.80</ele>
<time>2020-12-06T12:09:54Z</time>
<name><![CDATA[0000049]]></name>
<desc><![CDATA[<p><br /><h3>Nom: Segment: 1</h3><br />Heure de départ: 09:29 6 déc. 2020<br/>Heure d'arrivée: 12:29 6 déc. 2020<br/>Distance: 28,6km (03:00)<br/>Temps déplacement: 01:38<br/>Vitesse moyenne: 9,47 km/h<br/>Vitesse moyenne mouv.: 12,47 km/h<br/>Vitesse Max.: 29,23 km/h<br/>Altitude minimale: 39 m<br/>Altitude maximale: 143 m<br/>Vitesse de montée: 311,7 m/h<br/>Vitesse de descente: -353,4 m/h<br/>Gain d'altitude: 483 m<br/>Perte d'altitude: -483 m<br/>Temps de montée: 01:33<br/>Temps de descente: 01:22<br/></p>]]></desc>
<sym>Waypoint</sym>
<type>Point d'arrivée</type>
<extensions>
<om:oruxmapsextensions xmlns:om="http://www.oruxmaps.com/oruxmapsextensions/1/0">
<om:ext type="ICON" subtype="0">15</om:ext>
</om:oruxmapsextensions>
</extensions>
</wpt>
<trk>
<name><![CDATA[2020-12-06 09:28]]></name>
<desc><![CDATA[<p>Heure de départ: 09:29 6 déc. 2020<br/>Heure d'arrivée: 12:29 6 déc. 2020<br/>Distance: 28,6 km (03:00)<br/>Temps déplacement: 01:38<br/>Vitesse moyenne: 9,47 km/h<br/>Vitesse moyenne mouv.: 17,45 km/h<br/>Vitesse Max.: 29,23 km/h<br/>Altitude minimale: 39 m<br/>Altitude maximale: 143 m<br/>Vitesse de montée: 244,6 m/h<br/>Vitesse de descente: -305,8 m/h<br/>Gain d'altitude: 400 m<br/>Perte d'altitude: -402 m<br/>Temps de montée: 01:38<br/>Temps de descente: 01:18<br/></p><hr align="center" width="480" style="height: 2px; width: 517px"/>]]></desc>
<type>Indéfini</type>
<extensions>
<om:oruxmapsextensions xmlns:om="http://www.oruxmaps.com/oruxmapsextensions/1/0">
<om:ext type="TYPE" subtype="0">0</om:ext>
<om:ext type="DIFFICULTY">0</om:ext>
</om:oruxmapsextensions>
</extensions>
<trkseg>
<trkpt lat="48.8731682" lon="2.8436109">
<ele>89.20</ele>
<time>2020-12-06T08:29:02Z</time>
</trkpt>
<trkpt lat="48.8733408" lon="2.8436883">
<ele>90.71</ele>
<time>2020-12-06T08:31:59Z</time>
</trkpt>
<trkpt lat="48.8734857" lon="2.8434867">
<ele>88.58</ele>
<time>2020-12-06T08:33:04Z</time>
</trkpt>
<trkpt lat="48.8735871" lon="2.8432138">
<ele>86.15</ele>
<time>2020-12-06T08:33:09Z</time>
</trkpt>
<trkpt lat="48.8737003" lon="2.8429147">
<ele>84.64</ele>
<time>2020-12-06T08:33:13Z</time>
</trkpt>
<trkpt lat="48.8738010" lon="2.8426175">
<ele>83.98</ele>
<time>2020-12-06T08:33:17Z</time>
</trkpt>
<trkpt lat="48.8739130" lon="2.8423141">
<ele>83.04</ele>
<time>2020-12-06T08:33:21Z</time>
</trkpt>
<trkpt lat="48.8741324" lon="2.8423406">
<ele>80.24</ele>
<time>2020-12-06T08:33:30Z</time>
</trkpt>
<trkpt lat="48.8743055" lon="2.8424211">
<ele>79.45</ele>
<time>2020-12-06T08:33:33Z</time>
</trkpt>
<trkpt lat="48.8744866" lon="2.8425391">
<ele>76.93</ele>
<time>2020-12-06T08:33:37Z</time>
</trkpt>
<trkpt lat="48.8746867" lon="2.8426507">
<ele>74.03</ele>
<time>2020-12-06T08:33:40Z</time>
</trkpt>
<trkpt lat="48.8748804" lon="2.8427643">
<ele>70.62</ele>
<time>2020-12-06T08:33:44Z</time>
</trkpt>
<trkpt lat="48.8750569" lon="2.8428265">
<ele>66.06</ele>
<time>2020-12-06T08:33:48Z</time>
</trkpt>
<trkpt lat="48.8752551" lon="2.8428964">
<ele>63.56</ele>
<time>2020-12-06T08:33:52Z</time>
</trkpt>
<trkpt lat="48.8754523" lon="2.8430632">
<ele>59.77</ele>
<time>2020-12-06T08:33:56Z</time>
</trkpt>
<trkpt lat="48.8756105" lon="2.8431951">
<ele>58.17</ele>
<time>2020-12-06T08:33:59Z</time>
</trkpt>
<trkpt lat="48.8758176" lon="2.8433683">
<ele>57.98</ele>
<time>2020-12-06T08:34:03Z</time>
</trkpt>
<trkpt lat="48.8760183" lon="2.8434920">
<ele>57.41</ele>
<time>2020-12-06T08:34:07Z</time>
</trkpt>
<trkpt lat="48.8761994" lon="2.8436048">
<ele>57.02</ele>
<time>2020-12-06T08:34:11Z</time>
</trkpt>
<trkpt lat="48.8763912" lon="2.8437285">
<ele>56.11</ele>
<time>2020-12-06T08:34:15Z</time>
</trkpt>
<trkpt lat="48.8765794" lon="2.8438492">
<ele>55.35</ele>
<time>2020-12-06T08:34:19Z</time>
</trkpt>
<trkpt lat="48.8767544" lon="2.8439708">
<ele>54.69</ele>
<time>2020-12-06T08:34:23Z</time>
</trkpt>
<trkpt lat="48.8769269" lon="2.8440859">
<ele>54.46</ele>
<time>2020-12-06T08:34:27Z</time>
</trkpt>
<trkpt lat="48.8771020" lon="2.8442052">
<ele>54.47</ele>
<time>2020-12-06T08:34:31Z</time>
</trkpt>
<trkpt lat="48.8772746" lon="2.8443215">
<ele>54.68</ele>
<time>2020-12-06T08:34:35Z</time>
</trkpt>
<trkpt lat="48.8774463" lon="2.8444471">
<ele>54.60</ele>
<time>2020-12-06T08:34:39Z</time>
</trkpt>
<trkpt lat="48.8776208" lon="2.8445766">
<ele>54.43</ele>
<time>2020-12-06T08:34:43Z</time>
</trkpt>
<trkpt lat="48.8778233" lon="2.8447135">
<ele>53.94</ele>
<time>2020-12-06T08:34:47Z</time>
</trkpt>
<trkpt lat="48.8780052" lon="2.8448387">
<ele>53.87</ele>
<time>2020-12-06T08:34:51Z</time>
</trkpt>
<trkpt lat="48.8781680" lon="2.8449626">
<ele>53.85</ele>
<time>2020-12-06T08:34:55Z</time>
</trkpt>
<trkpt lat="48.8783354" lon="2.8451017">
<ele>53.84</ele>
<time>2020-12-06T08:35:00Z</time>
</trkpt>
<trkpt lat="48.8785481" lon="2.8451938">
<ele>52.78</ele>
<time>2020-12-06T08:35:05Z</time>
</trkpt>
<trkpt lat="48.8786912" lon="2.8453916">
<ele>52.54</ele>
<time>2020-12-06T08:35:09Z</time>
</trkpt>
<trkpt lat="48.8788501" lon="2.8455536">
<ele>52.76</ele>
<time>2020-12-06T08:35:13Z</time>
</trkpt>
<trkpt lat="48.8790307" lon="2.8457086">
<ele>53.11</ele>
<time>2020-12-06T08:35:17Z</time>
</trkpt>
<trkpt lat="48.8792373" lon="2.8458697">
<ele>52.57</ele>
<time>2020-12-06T08:35:21Z</time>
</trkpt>
<trkpt lat="48.8794338" lon="2.8460134">
<ele>52.58</ele>
<time>2020-12-06T08:35:25Z</time>
</trkpt>
<trkpt lat="48.8796281" lon="2.8461662">
<ele>51.29</ele>
<time>2020-12-06T08:35:29Z</time>
</trkpt>
<trkpt lat="48.8797924" lon="2.8463006">
<ele>50.73</ele>
<time>2020-12-06T08:35:33Z</time>
</trkpt>
<trkpt lat="48.8799699" lon="2.8464361">
<ele>50.83</ele>
<time>2020-12-06T08:35:37Z</time>
</trkpt>
<trkpt lat="48.8801421" lon="2.8465647">
<ele>51.11</ele>
<time>2020-12-06T08:35:41Z</time>
</trkpt>
<trkpt lat="48.8803326" lon="2.8467155">
<ele>50.49</ele>
<time>2020-12-06T08:35:46Z</time>
</trkpt>
<trkpt lat="48.8805046" lon="2.8468605">
<ele>50.45</ele>
<time>2020-12-06T08:35:51Z</time>
</trkpt>
<trkpt lat="48.8806808" lon="2.8469861">
<ele>50.63</ele>
<time>2020-12-06T08:35:56Z</time>
</trkpt>
<trkpt lat="48.8808565" lon="2.8471147">
<ele>49.56</ele>
<time>2020-12-06T08:36:01Z</time>
</trkpt>
<trkpt lat="48.8810513" lon="2.8472601">
<ele>48.58</ele>
<time>2020-12-06T08:36:06Z</time>
</trkpt>
<trkpt lat="48.8812254" lon="2.8474048">
<ele>48.84</ele>
<time>2020-12-06T08:36:11Z</time>
</trkpt>
<trkpt lat="48.8814287" lon="2.8475081">
<ele>48.58</ele>
<time>2020-12-06T08:36:16Z</time>
</trkpt>
<trkpt lat="48.8816211" lon="2.8475681">
<ele>47.43</ele>
<time>2020-12-06T08:36:21Z</time>
</trkpt>
<trkpt lat="48.8818021" lon="2.8476290">
<ele>46.59</ele>
<time>2020-12-06T08:36:26Z</time>
</trkpt>
<trkpt lat="48.8819996" lon="2.8477120">
<ele>47.00</ele>
<time>2020-12-06T08:36:31Z</time>
</trkpt>
<trkpt lat="48.8821675" lon="2.8478128">
<ele>46.66</ele>
<time>2020-12-06T08:36:35Z</time>
</trkpt>
<trkpt lat="48.8823703" lon="2.8479561">
<ele>47.76</ele>
<time>2020-12-06T08:36:40Z</time>
</trkpt>
<trkpt lat="48.8825400" lon="2.8480550">
<ele>47.00</ele>
<time>2020-12-06T08:36:44Z</time>
</trkpt>
<trkpt lat="48.8827054" lon="2.8481901">
<ele>46.94</ele>
<time>2020-12-06T08:36:48Z</time>
</trkpt>
<trkpt lat="48.8829046" lon="2.8483259">
<ele>46.85</ele>
<time>2020-12-06T08:36:53Z</time>
</trkpt>
<trkpt lat="48.8830692" lon="2.8484958">
<ele>48.26</ele>
<time>2020-12-06T08:36:58Z</time>
</trkpt>
<trkpt lat="48.8832169" lon="2.8486781">
<ele>48.32</ele>
<time>2020-12-06T08:37:02Z</time>
</trkpt>
<trkpt lat="48.8833765" lon="2.8488708">
<ele>48.53</ele>
<time>2020-12-06T08:37:06Z</time>
</trkpt>
<trkpt lat="48.8835581" lon="2.8490354">
<ele>48.73</ele>
<time>2020-12-06T08:37:10Z</time>
</trkpt>
<trkpt lat="48.8837391" lon="2.8491697">
<ele>47.91</ele>
<time>2020-12-06T08:37:14Z</time>
</trkpt>
<trkpt lat="48.8839020" lon="2.8493122">
<ele>47.32</ele>
<time>2020-12-06T08:37:18Z</time>
</trkpt>
<trkpt lat="48.8840124" lon="2.8496043">
<ele>47.38</ele>
<time>2020-12-06T08:37:23Z</time>
</trkpt>
<trkpt lat="48.8839961" lon="2.8498810">
<ele>47.27</ele>
<time>2020-12-06T08:37:27Z</time>
</trkpt>
<trkpt lat="48.8839554" lon="2.8501621">
<ele>45.29</ele>
<time>2020-12-06T08:37:31Z</time>
</trkpt>
<trkpt lat="48.8839824" lon="2.8504920">
<ele>44.74</ele>
<time>2020-12-06T08:37:36Z</time>
</trkpt>
<trkpt lat="48.8841179" lon="2.8507074">
<ele>44.61</ele>
<time>2020-12-06T08:37:40Z</time>
</trkpt>
<trkpt lat="48.8842744" lon="2.8508959">
<ele>43.88</ele>
<time>2020-12-06T08:37:44Z</time>
</trkpt>
<trkpt lat="48.8844299" lon="2.8510574">
<ele>42.18</ele>
<time>2020-12-06T08:37:48Z</time>
</trkpt>
<trkpt lat="48.8845960" lon="2.8512346">
<ele>41.81</ele>
<time>2020-12-06T08:37:53Z</time>
</trkpt>
<trkpt lat="48.8845588" lon="2.8515296">
<ele>42.74</ele>
<time>2020-12-06T08:37:59Z</time>
</trkpt>
<trkpt lat="48.8844818" lon="2.8518152">
<ele>42.97</ele>
<time>2020-12-06T08:38:04Z</time>
</trkpt>
<trkpt lat="48.8843932" lon="2.8520612">
<ele>44.03</ele>
<time>2020-12-06T08:38:08Z</time>
</trkpt>
<trkpt lat="48.8843217" lon="2.8523229">
<ele>44.47</ele>
<time>2020-12-06T08:38:12Z</time>
</trkpt>
<trkpt lat="48.8842423" lon="2.8526076">
<ele>44.85</ele>
<time>2020-12-06T08:38:16Z</time>
</trkpt>
<trkpt lat="48.8841535" lon="2.8528551">
<ele>44.77</ele>
<time>2020-12-06T08:38:20Z</time>
</trkpt>
<trkpt lat="48.8840051" lon="2.8530915">
<ele>45.10</ele>
<time>2020-12-06T08:38:25Z</time>
</trkpt>
<trkpt lat="48.8838455" lon="2.8532855">
<ele>45.88</ele>
<time>2020-12-06T08:38:30Z</time>
</trkpt>
<trkpt lat="48.8836877" lon="2.8534999">
<ele>48.48</ele>
<time>2020-12-06T08:38:36Z</time>
</trkpt>
<trkpt lat="48.8837371" lon="2.8538004">
<ele>46.90</ele>
<time>2020-12-06T08:38:44Z</time>
</trkpt>
<trkpt lat="48.8838251" lon="2.8540462">
<ele>45.75</ele>
<time>2020-12-06T08:38:49Z</time>
</trkpt>
<trkpt lat="48.8839171" lon="2.8543065">
<ele>45.09</ele>
<time>2020-12-06T08:38:54Z</time>
</trkpt>
<trkpt lat="48.8840039" lon="2.8545935">
<ele>43.97</ele>
<time>2020-12-06T08:39:00Z</time>
</trkpt>
<trkpt lat="48.8841801" lon="2.8544799">
<ele>44.89</ele>
<time>2020-12-06T08:39:08Z</time>
</trkpt>
<trkpt lat="48.8843714" lon="2.8543135">
<ele>45.16</ele>
<time>2020-12-06T08:39:13Z</time>
</trkpt>
<trkpt lat="48.8845504" lon="2.8542750">
<ele>45.35</ele>
<time>2020-12-06T08:39:17Z</time>
</trkpt>
<trkpt lat="48.8847562" lon="2.8542570">
<ele>45.96</ele>
<time>2020-12-06T08:39:22Z</time>
</trkpt>
<trkpt lat="48.8849710" lon="2.8542213">
<ele>45.08</ele>
<time>2020-12-06T08:39:27Z</time>
</trkpt>
<trkpt lat="48.8851817" lon="2.8542143">
<ele>45.81</ele>
<time>2020-12-06T08:39:32Z</time>
</trkpt>
<trkpt lat="48.8853871" lon="2.8541957">
<ele>47.32</ele>
<time>2020-12-06T08:39:37Z</time>
</trkpt>
<trkpt lat="48.8855732" lon="2.8541422">
<ele>46.24</ele>
<time>2020-12-06T08:39:42Z</time>
</trkpt>
<trkpt lat="48.8857586" lon="2.8542312">
<ele>44.34</ele>
<time>2020-12-06T08:39:47Z</time>
</trkpt>
<trkpt lat="48.8858821" lon="2.8544706">
<ele>44.66</ele>
<time>2020-12-06T08:39:53Z</time>
</trkpt>
<trkpt lat="48.8860467" lon="2.8545888">
<ele>44.25</ele>
<time>2020-12-06T08:40:01Z</time>
</trkpt>
<trkpt lat="48.8862469" lon="2.8546305">
<ele>45.85</ele>
<time>2020-12-06T08:40:08Z</time>
</trkpt>
<trkpt lat="48.8864484" lon="2.8546833">
<ele>47.20</ele>
<time>2020-12-06T08:40:15Z</time>
</trkpt>
<trkpt lat="48.8866412" lon="2.8547559">
<ele>47.50</ele>
<time>2020-12-06T08:40:23Z</time>
</trkpt>
<trkpt lat="48.8868405" lon="2.8548232">
<ele>48.16</ele>
<time>2020-12-06T08:40:31Z</time>
</trkpt>
<trkpt lat="48.8870325" lon="2.8549000">
<ele>51.92</ele>
<time>2020-12-06T08:40:40Z</time>
</trkpt>
<trkpt lat="48.8872178" lon="2.8549718">
<ele>53.02</ele>
<time>2020-12-06T08:40:49Z</time>
</trkpt>
<trkpt lat="48.8873949" lon="2.8550751">
<ele>55.36</ele>
<time>2020-12-06T08:40:58Z</time>
</trkpt>
<trkpt lat="48.8875800" lon="2.8551870">
<ele>55.16</ele>
<time>2020-12-06T08:41:08Z</time>
</trkpt>
<trkpt lat="48.8877476" lon="2.8553086">
<ele>56.39</ele>
<time>2020-12-06T08:41:17Z</time>
</trkpt>
<trkpt lat="48.8879208" lon="2.8554047">
<ele>58.58</ele>
<time>2020-12-06T08:41:25Z</time>
</trkpt>
<trkpt lat="48.8881122" lon="2.8554682">
<ele>60.84</ele>
<time>2020-12-06T08:41:34Z</time>
</trkpt>
<trkpt lat="48.8882922" lon="2.8555510">
<ele>62.36</ele>
<time>2020-12-06T08:41:44Z</time>
</trkpt>
<trkpt lat="48.8884854" lon="2.8556019">
<ele>65.65</ele>
<time>2020-12-06T08:41:54Z</time>
</trkpt>
<trkpt lat="48.8886704" lon="2.8556537">
<ele>66.77</ele>
<time>2020-12-06T08:42:03Z</time>
</trkpt>
<trkpt lat="48.8888632" lon="2.8557126">
<ele>67.62</ele>
<time>2020-12-06T08:42:13Z</time>
</trkpt>
<trkpt lat="48.8890604" lon="2.8557438">
<ele>69.16</ele>
<time>2020-12-06T08:42:23Z</time>
</trkpt>
<trkpt lat="48.8892523" lon="2.8557997">
<ele>72.45</ele>
<time>2020-12-06T08:42:36Z</time>
</trkpt>
<trkpt lat="48.8894493" lon="2.8558122">
<ele>74.58</ele>
<time>2020-12-06T08:42:46Z</time>
</trkpt>
<trkpt lat="48.8896369" lon="2.8558410">
<ele>75.25</ele>
<time>2020-12-06T08:42:56Z</time>
</trkpt>
<trkpt lat="48.8898260" lon="2.8558686">
<ele>76.32</ele>
<time>2020-12-06T08:43:07Z</time>
</trkpt>
<trkpt lat="48.8900055" lon="2.8558997">
<ele>78.08</ele>
<time>2020-12-06T08:43:18Z</time>
</trkpt>
<trkpt lat="48.8901953" lon="2.8559315">
<ele>77.71</ele>
<time>2020-12-06T08:43:31Z</time>
</trkpt>
<trkpt lat="48.8903769" lon="2.8559580">
<ele>79.78</ele>
<time>2020-12-06T08:43:42Z</time>
</trkpt>
<trkpt lat="48.8905679" lon="2.8559919">
<ele>82.32</ele>
<time>2020-12-06T08:43:55Z</time>
</trkpt>
<trkpt lat="48.8907572" lon="2.8560267">
<ele>86.49</ele>
<time>2020-12-06T08:44:09Z</time>
</trkpt>
<trkpt lat="48.8909417" lon="2.8560501">
<ele>88.61</ele>
<time>2020-12-06T08:44:22Z</time>
</trkpt>
<trkpt lat="48.8911293" lon="2.8560287">
<ele>90.19</ele>
<time>2020-12-06T08:44:35Z</time>
</trkpt>
<trkpt lat="48.8913178" lon="2.8560085">
<ele>91.35</ele>
<time>2020-12-06T08:44:49Z</time>
</trkpt>
<trkpt lat="48.8915066" lon="2.8559876">
<ele>94.05</ele>
<time>2020-12-06T08:45:02Z</time>
</trkpt>
<trkpt lat="48.8916961" lon="2.8559741">
<ele>98.11</ele>
<time>2020-12-06T08:45:17Z</time>
</trkpt>
<trkpt lat="48.8918783" lon="2.8559586">
<ele>97.86</ele>
<time>2020-12-06T08:45:29Z</time>
</trkpt>
<trkpt lat="48.8920711" lon="2.8559283">
<ele>99.53</ele>
<time>2020-12-06T08:45:42Z</time>
</trkpt>
<trkpt lat="48.8922569" lon="2.8559097">
<ele>101.14</ele>
<time>2020-12-06T08:45:54Z</time>
</trkpt>
<trkpt lat="48.8924436" lon="2.8559006">
<ele>104.24</ele>
<time>2020-12-06T08:46:09Z</time>
</trkpt>
<trkpt lat="48.8926368" lon="2.8558592">
<ele>106.26</ele>
<time>2020-12-06T08:46:21Z</time>
</trkpt>
<trkpt lat="48.8928181" lon="2.8558185">
<ele>106.80</ele>
<time>2020-12-06T08:46:32Z</time>
</trkpt>
<trkpt lat="48.8930011" lon="2.8557831">
<ele>108.02</ele>
<time>2020-12-06T08:46:44Z</time>
</trkpt>
<trkpt lat="48.8931816" lon="2.8557238">
<ele>110.44</ele>
<time>2020-12-06T08:46:54Z</time>
</trkpt>
<trkpt lat="48.8933796" lon="2.8556914">
<ele>111.29</ele>
<time>2020-12-06T08:47:05Z</time>
</trkpt>
<trkpt lat="48.8935728" lon="2.8556560">
<ele>112.36</ele>
<time>2020-12-06T08:47:16Z</time>
</trkpt>
<trkpt lat="48.8935415" lon="2.8553719">
<ele>112.15</ele>
<time>2020-12-06T08:47:28Z</time>
</trkpt>
<trkpt lat="48.8934944" lon="2.8550948">
<ele>112.09</ele>
<time>2020-12-06T08:47:36Z</time>
</trkpt>
<trkpt lat="48.8934265" lon="2.8548361">
<ele>114.04</ele>
<time>2020-12-06T08:47:44Z</time>
</trkpt>
<trkpt lat="48.8933817" lon="2.8545369">
<ele>115.35</ele>
<time>2020-12-06T08:47:53Z</time>
</trkpt>
<trkpt lat="48.8933252" lon="2.8542739">
<ele>111.43</ele>
<time>2020-12-06T08:48:01Z</time>
</trkpt>
<trkpt lat="48.8932852" lon="2.8540014">
<ele>113.47</ele>
<time>2020-12-06T08:48:08Z</time>
</trkpt>
<trkpt lat="48.8932313" lon="2.8537277">
<ele>114.47</ele>
<time>2020-12-06T08:48:15Z</time>
</trkpt>
<trkpt lat="48.8931902" lon="2.8534466">
<ele>115.63</ele>
<time>2020-12-06T08:48:22Z</time>
</trkpt>
<trkpt lat="48.8931501" lon="2.8531760">
<ele>114.18</ele>
<time>2020-12-06T08:48:29Z</time>
</trkpt>
<trkpt lat="48.8931122" lon="2.8528862">
<ele>115.24</ele>
<time>2020-12-06T08:48:36Z</time>
</trkpt>
<trkpt lat="48.8930733" lon="2.8526151">
<ele>114.51</ele>
<time>2020-12-06T08:48:43Z</time>
</trkpt>
<trkpt lat="48.8930374" lon="2.8523427">
<ele>113.61</ele>
<time>2020-12-06T08:48:52Z</time>
</trkpt>
<trkpt lat="48.8930110" lon="2.8520498">
<ele>115.05</ele>
<time>2020-12-06T08:49:03Z</time>
</trkpt>
<trkpt lat="48.8929873" lon="2.8517652">
<ele>115.02</ele>
<time>2020-12-06T08:49:12Z</time>
</trkpt>
<trkpt lat="48.8929538" lon="2.8514634">
<ele>115.52</ele>
<time>2020-12-06T08:49:20Z</time>
</trkpt>
<trkpt lat="48.8929149" lon="2.8511574">
<ele>117.44</ele>
<time>2020-12-06T08:49:28Z</time>
</trkpt>
<trkpt lat="48.8929032" lon="2.8508802">
<ele>115.83</ele>
<time>2020-12-06T08:49:36Z</time>
</trkpt>
<trkpt lat="48.8928860" lon="2.8505794">
<ele>115.31</ele>
<time>2020-12-06T08:49:43Z</time>
</trkpt>
<trkpt lat="48.8928702" lon="2.8502818">
<ele>114.25</ele>
<time>2020-12-06T08:49:51Z</time>
</trkpt>
<trkpt lat="48.8927035" lon="2.8501554">
<ele>113.58</ele>
<time>2020-12-06T08:50:00Z</time>
</trkpt>
<trkpt lat="48.8925122" lon="2.8501057">
<ele>116.84</ele>
<time>2020-12-06T08:50:08Z</time>
</trkpt>
<trkpt lat="48.8923390" lon="2.8499440">
<ele>115.90</ele>
<time>2020-12-06T08:50:15Z</time>
</trkpt>
<trkpt lat="48.8923215" lon="2.8496589">
<ele>114.13</ele>
<time>2020-12-06T08:50:22Z</time>
</trkpt>
<trkpt lat="48.8923547" lon="2.8493548">
<ele>114.05</ele>
<time>2020-12-06T08:50:29Z</time>
</trkpt>
<trkpt lat="48.8923754" lon="2.8490738">
<ele>117.01</ele>
<time>2020-12-06T08:50:36Z</time>
</trkpt>
<trkpt lat="48.8924155" lon="2.8487737">
<ele>117.25</ele>
<time>2020-12-06T08:50:44Z</time>
</trkpt>
<trkpt lat="48.8924630" lon="2.8484757">
<ele>121.24</ele>
<time>2020-12-06T08:50:53Z</time>
</trkpt>
<trkpt lat="48.8925351" lon="2.8481917">
<ele>121.87</ele>
<time>2020-12-06T08:51:01Z</time>
</trkpt>
<trkpt lat="48.8926214" lon="2.8479272">
<ele>119.65</ele>
<time>2020-12-06T08:51:07Z</time>
</trkpt>
<trkpt lat="48.8927650" lon="2.8476782">
<ele>114.63</ele>
<time>2020-12-06T08:51:11Z</time>
</trkpt>
<trkpt lat="48.8928568" lon="2.8473967">
<ele>114.46</ele>
<time>2020-12-06T08:51:16Z</time>
</trkpt>
<trkpt lat="48.8928979" lon="2.8470810">
<ele>113.52</ele>
<time>2020-12-06T08:51:22Z</time>
</trkpt>
<trkpt lat="48.8930098" lon="2.8468604">
<ele>111.62</ele>
<time>2020-12-06T08:51:30Z</time>
</trkpt>
<trkpt lat="48.8931413" lon="2.8470833">
<ele>110.52</ele>
<time>2020-12-06T08:51:38Z</time>
</trkpt>
<trkpt lat="48.8932196" lon="2.8473545">
<ele>108.52</ele>
<time>2020-12-06T08:51:45Z</time>
</trkpt>
<trkpt lat="48.8933428" lon="2.8475584">
<ele>110.89</ele>
<time>2020-12-06T08:51:53Z</time>
</trkpt>
<trkpt lat="48.8934948" lon="2.8477288">
<ele>110.07</ele>
<time>2020-12-06T08:52:02Z</time>
</trkpt>
<trkpt lat="48.8936734" lon="2.8478592">
<ele>106.85</ele>
<time>2020-12-06T08:52:09Z</time>
</trkpt>
<trkpt lat="48.8938423" lon="2.8480021">
<ele>107.02</ele>
<time>2020-12-06T08:52:16Z</time>
</trkpt>
<trkpt lat="48.8940102" lon="2.8481574">
<ele>103.27</ele>
<time>2020-12-06T08:52:23Z</time>
</trkpt>
<trkpt lat="48.8941656" lon="2.8483515">
<ele>102.57</ele>
<time>2020-12-06T08:52:30Z</time>
</trkpt>
<trkpt lat="48.8943403" lon="2.8485249">
<ele>101.29</ele>
<time>2020-12-06T08:52:36Z</time>
</trkpt>
<trkpt lat="48.8945390" lon="2.8486167">
<ele>102.80</ele>
<time>2020-12-06T08:52:42Z</time>
</trkpt>
<trkpt lat="48.8947205" lon="2.8487338">
<ele>102.76</ele>
<time>2020-12-06T08:52:48Z</time>
</trkpt>
<trkpt lat="48.8948866" lon="2.8488731">
<ele>101.25</ele>
<time>2020-12-06T08:52:56Z</time>
</trkpt>
<trkpt lat="48.8950699" lon="2.8488669">
<ele>103.54</ele>
<time>2020-12-06T08:53:06Z</time>
</trkpt>
<trkpt lat="48.8952177" lon="2.8487093">
<ele>105.46</ele>
<time>2020-12-06T08:53:14Z</time>
</trkpt>
<trkpt lat="48.8951424" lon="2.8484327">
<ele>104.93</ele>
<time>2020-12-06T08:53:21Z</time>
</trkpt>
<trkpt lat="48.8950775" lon="2.8481437">
<ele>102.21</ele>
<time>2020-12-06T08:53:28Z</time>
</trkpt>
<trkpt lat="48.8950331" lon="2.8478694">
<ele>101.40</ele>
<time>2020-12-06T08:53:33Z</time>
</trkpt>
<trkpt lat="48.8949646" lon="2.8475980">
<ele>100.93</ele>
<time>2020-12-06T08:53:40Z</time>
</trkpt>
<trkpt lat="48.8948996" lon="2.8473069">
<ele>101.59</ele>
<time>2020-12-06T08:53:46Z</time>
</trkpt>
<trkpt lat="48.8948350" lon="2.8469907">
<ele>101.09</ele>
<time>2020-12-06T08:53:52Z</time>
</trkpt>
<trkpt lat="48.8947628" lon="2.8467097">
<ele>99.79</ele>
<time>2020-12-06T08:53:58Z</time>
</trkpt>
<trkpt lat="48.8947002" lon="2.8464511">
<ele>98.12</ele>
<time>2020-12-06T08:54:03Z</time>
</trkpt>
<trkpt lat="48.8946209" lon="2.8461568">
<ele>97.88</ele>
<time>2020-12-06T08:54:09Z</time>
</trkpt>
<trkpt lat="48.8945564" lon="2.8458929">
<ele>95.05</ele>
<time>2020-12-06T08:54:14Z</time>
</trkpt>
<trkpt lat="48.8945056" lon="2.8456262">
<ele>91.28</ele>
<time>2020-12-06T08:54:20Z</time>
</trkpt>
<trkpt lat="48.8944393" lon="2.8453572">
<ele>89.29</ele>
<time>2020-12-06T08:54:28Z</time>
</trkpt>
<trkpt lat="48.8943897" lon="2.8450734">
<ele>89.39</ele>
<time>2020-12-06T08:54:33Z</time>
</trkpt>
<trkpt lat="48.8943263" lon="2.8448140">
<ele>88.05</ele>
<time>2020-12-06T08:54:38Z</time>
</trkpt>
<trkpt lat="48.8942647" lon="2.8445248">
<ele>85.74</ele>
<time>2020-12-06T08:54:44Z</time>
</trkpt>
<trkpt lat="48.8941966" lon="2.8442535">
<ele>82.65</ele>
<time>2020-12-06T08:54:49Z</time>
</trkpt>
<trkpt lat="48.8941328" lon="2.8439779">
<ele>80.95</ele>
<time>2020-12-06T08:54:55Z</time>
</trkpt>
<trkpt lat="48.8943176" lon="2.8439922">
<ele>83.28</ele>
<time>2020-12-06T08:55:09Z</time>
</trkpt>
<trkpt lat="48.8944812" lon="2.8441306">
<ele>82.55</ele>
<time>2020-12-06T08:55:15Z</time>
</trkpt>
<trkpt lat="48.8946656" lon="2.8443007">
<ele>81.74</ele>
<time>2020-12-06T08:55:21Z</time>
</trkpt>
<trkpt lat="48.8948182" lon="2.8444605">
<ele>83.66</ele>
<time>2020-12-06T08:55:27Z</time>
</trkpt>
<trkpt lat="48.8949853" lon="2.8446001">
<ele>85.48</ele>
<time>2020-12-06T08:55:33Z</time>
</trkpt>
<trkpt lat="48.8951400" lon="2.8447565">
<ele>86.66</ele>
<time>2020-12-06T08:55:39Z</time>
</trkpt>
<trkpt lat="48.8953280" lon="2.8446231">
<ele>86.93</ele>
<time>2020-12-06T08:55:46Z</time>
</trkpt>
<trkpt lat="48.8955356" lon="2.8446216">
<ele>87.06</ele>
<time>2020-12-06T08:55:52Z</time>
</trkpt>
<trkpt lat="48.8956919" lon="2.8447693">
<ele>86.29</ele>
<time>2020-12-06T08:55:58Z</time>
</trkpt>
<trkpt lat="48.8958487" lon="2.8449058">
<ele>85.40</ele>
<time>2020-12-06T08:56:04Z</time>
</trkpt>
<trkpt lat="48.8958520" lon="2.8451957">
<ele>85.43</ele>
<time>2020-12-06T08:56:13Z</time>
</trkpt>
<trkpt lat="48.8959284" lon="2.8454753">
<ele>85.95</ele>
<time>2020-12-06T08:56:23Z</time>
</trkpt>
<trkpt lat="48.8960781" lon="2.8456382">
<ele>88.00</ele>
<time>2020-12-06T08:56:29Z</time>
</trkpt>
<trkpt lat="48.8962472" lon="2.8458046">
<ele>86.86</ele>
<time>2020-12-06T08:56:35Z</time>
</trkpt>
<trkpt lat="48.8964106" lon="2.8460184">
<ele>85.96</ele>
<time>2020-12-06T08:56:41Z</time>
</trkpt>
<trkpt lat="48.8965404" lon="2.8462178">
<ele>87.29</ele>
<time>2020-12-06T08:56:46Z</time>
</trkpt>
<trkpt lat="48.8966822" lon="2.8464004">
<ele>87.19</ele>
<time>2020-12-06T08:56:52Z</time>
</trkpt>
<trkpt lat="48.8968288" lon="2.8465988">
<ele>84.53</ele>
<time>2020-12-06T08:56:59Z</time>
</trkpt>
<trkpt lat="48.8969908" lon="2.8467549">
<ele>83.86</ele>
<time>2020-12-06T08:57:05Z</time>
</trkpt>
<trkpt lat="48.8971388" lon="2.8469110">
<ele>85.06</ele>
<time>2020-12-06T08:57:11Z</time>
</trkpt>
<trkpt lat="48.8973266" lon="2.8470559">
<ele>84.95</ele>
<time>2020-12-06T08:57:18Z</time>
</trkpt>
<trkpt lat="48.8974681" lon="2.8472256">
<ele>84.50</ele>
<time>2020-12-06T08:57:24Z</time>
</trkpt>
<trkpt lat="48.8976214" lon="2.8473761">
<ele>82.94</ele>
<time>2020-12-06T08:57:30Z</time>
</trkpt>
<trkpt lat="48.8977613" lon="2.8475503">
<ele>82.86</ele>
<time>2020-12-06T08:57:36Z</time>
</trkpt>
<trkpt lat="48.8979235" lon="2.8477065">
<ele>85.14</ele>
<time>2020-12-06T08:57:43Z</time>
</trkpt>
<trkpt lat="48.8980860" lon="2.8478280">
<ele>88.47</ele>
<time>2020-12-06T08:57:50Z</time>
</trkpt>
<trkpt lat="48.8982554" lon="2.8479293">
<ele>89.06</ele>
<time>2020-12-06T08:57:57Z</time>
</trkpt>
<trkpt lat="48.8984161" lon="2.8480752">
<ele>90.40</ele>
<time>2020-12-06T08:58:03Z</time>
</trkpt>
<trkpt lat="48.8985812" lon="2.8481932">
<ele>88.39</ele>
<time>2020-12-06T08:58:09Z</time>
</trkpt>
<trkpt lat="48.8987464" lon="2.8483117">
<ele>87.96</ele>
<time>2020-12-06T08:58:14Z</time>
</trkpt>
<trkpt lat="48.8989029" lon="2.8484604">
<ele>89.46</ele>
<time>2020-12-06T08:58:19Z</time>
</trkpt>
<trkpt lat="48.8990648" lon="2.8486180">
<ele>90.47</ele>
<time>2020-12-06T08:58:25Z</time>
</trkpt>
<trkpt lat="48.8992369" lon="2.8487224">
<ele>91.75</ele>
<time>2020-12-06T08:58:32Z</time>
</trkpt>
<trkpt lat="48.8994034" lon="2.8488340">
<ele>92.30</ele>
<time>2020-12-06T08:58:39Z</time>
</trkpt>
<trkpt lat="48.8995439" lon="2.8490229">
<ele>91.47</ele>
<time>2020-12-06T08:58:51Z</time>
</trkpt>
<trkpt lat="48.8996430" lon="2.8487665">
<ele>92.21</ele>
<time>2020-12-06T08:59:01Z</time>
</trkpt>
<trkpt lat="48.8996790" lon="2.8484516">
<ele>90.92</ele>
<time>2020-12-06T08:59:05Z</time>
</trkpt>
<trkpt lat="48.8997125" lon="2.8481363">
<ele>89.66</ele>
<time>2020-12-06T08:59:09Z</time>
</trkpt>
<trkpt lat="48.8997468" lon="2.8478184">
<ele>87.84</ele>
<time>2020-12-06T08:59:13Z</time>
</trkpt>
<trkpt lat="48.8997277" lon="2.8475224">
<ele>86.98</ele>
<time>2020-12-06T08:59:17Z</time>
</trkpt>
<trkpt lat="48.8998925" lon="2.8473870">
<ele>85.98</ele>
<time>2020-12-06T08:59:22Z</time>
</trkpt>
<trkpt lat="48.9000697" lon="2.8474758">
<ele>84.75</ele>
<time>2020-12-06T08:59:26Z</time>
</trkpt>
<trkpt lat="48.9002637" lon="2.8476058">
<ele>84.64</ele>
<time>2020-12-06T08:59:31Z</time>
</trkpt>
<trkpt lat="48.9004509" lon="2.8477358">
<ele>84.75</ele>
<time>2020-12-06T08:59:36Z</time>
</trkpt>
<trkpt lat="48.9006243" lon="2.8478769">
<ele>85.47</ele>
<time>2020-12-06T08:59:41Z</time>
</trkpt>
<trkpt lat="48.9008078" lon="2.8480031">
<ele>85.56</ele>
<time>2020-12-06T08:59:46Z</time>
</trkpt>
<trkpt lat="48.9009767" lon="2.8481142">
<ele>85.91</ele>
<time>2020-12-06T08:59:51Z</time>
</trkpt>
<trkpt lat="48.9011449" lon="2.8482167">
<ele>85.81</ele>
<time>2020-12-06T08:59:56Z</time>
</trkpt>
<trkpt lat="48.9013554" lon="2.8483538">
<ele>85.98</ele>
<time>2020-12-06T09:00:01Z</time>
</trkpt>
<trkpt lat="48.9015733" lon="2.8484628">
<ele>82.95</ele>
<time>2020-12-06T09:00:06Z</time>
</trkpt>
<trkpt lat="48.9017446" lon="2.8485588">
<ele>82.15</ele>
<time>2020-12-06T09:00:10Z</time>
</trkpt>
<trkpt lat="48.9019283" lon="2.8486665">
<ele>82.61</ele>
<time>2020-12-06T09:00:15Z</time>
</trkpt>
<trkpt lat="48.9021182" lon="2.8487540">
<ele>80.54</ele>
<time>2020-12-06T09:00:35Z</time>
</trkpt>
<trkpt lat="48.9022952" lon="2.8488995">
<ele>83.84</ele>
<time>2020-12-06T09:00:42Z</time>
</trkpt>
<trkpt lat="48.9024663" lon="2.8490019">
<ele>83.99</ele>
<time>2020-12-06T09:00:46Z</time>
</trkpt>
<trkpt lat="48.9026399" lon="2.8490886">
<ele>84.49</ele>
<time>2020-12-06T09:00:51Z</time>
</trkpt>
<trkpt lat="48.9028380" lon="2.8492099">
<ele>84.62</ele>
<time>2020-12-06T09:00:54Z</time>
</trkpt>
<trkpt lat="48.9030089" lon="2.8493646">
<ele>79.17</ele>
<time>2020-12-06T09:01:03Z</time>
</trkpt>
<trkpt lat="48.9031592" lon="2.8495480">
<ele>67.36</ele>
<time>2020-12-06T09:01:20Z</time>
</trkpt>
<trkpt lat="48.9031601" lon="2.8498567">
<ele>67.11</ele>
<time>2020-12-06T09:01:30Z</time>
</trkpt>
<trkpt lat="48.9031329" lon="2.8501532">
<ele>70.03</ele>
<time>2020-12-06T09:01:38Z</time>
</trkpt>
<trkpt lat="48.9031330" lon="2.8504701">
<ele>72.33</ele>
<time>2020-12-06T09:01:45Z</time>
</trkpt>
<trkpt lat="48.9030950" lon="2.8507810">
<ele>72.12</ele>
<time>2020-12-06T09:01:51Z</time>
</trkpt>
<trkpt lat="48.9030267" lon="2.8510417">
<ele>77.13</ele>
<time>2020-12-06T09:01:57Z</time>
</trkpt>
<trkpt lat="48.9030367" lon="2.8513386">
<ele>80.51</ele>
<time>2020-12-06T09:02:03Z</time>
</trkpt>
<trkpt lat="48.9030169" lon="2.8516500">
<ele>82.13</ele>
<time>2020-12-06T09:02:09Z</time>
</trkpt>
<trkpt lat="48.9030099" lon="2.8519310">
<ele>75.78</ele>
<time>2020-12-06T09:02:16Z</time>
</trkpt>
<trkpt lat="48.9029886" lon="2.8522520">
<ele>73.36</ele>
<time>2020-12-06T09:02:23Z</time>
</trkpt>
<trkpt lat="48.9029418" lon="2.8525318">
<ele>74.79</ele>
<time>2020-12-06T09:02:28Z</time>
</trkpt>
<trkpt lat="48.9029091" lon="2.8528262">
<ele>74.38</ele>
<time>2020-12-06T09:02:34Z</time>
</trkpt>
<trkpt lat="48.9028404" lon="2.8530806">
<ele>75.94</ele>
<time>2020-12-06T09:02:39Z</time>
</trkpt>
<trkpt lat="48.9027808" lon="2.8533568">
<ele>75.87</ele>
<time>2020-12-06T09:02:46Z</time>
</trkpt>
<trkpt lat="48.9027433" lon="2.8536597">
<ele>76.54</ele>
<time>2020-12-06T09:02:52Z</time>
</trkpt>
<trkpt lat="48.9026999" lon="2.8539387">
<ele>76.66</ele>
<time>2020-12-06T09:03:01Z</time>
</trkpt>
<trkpt lat="48.9026522" lon="2.8542094">
<ele>77.44</ele>
<time>2020-12-06T09:03:09Z</time>
</trkpt>
<trkpt lat="48.9025361" lon="2.8544210">
<ele>77.44</ele>
<time>2020-12-06T09:03:18Z</time>
</trkpt>
<trkpt lat="48.9023591" lon="2.8545362">
<ele>78.21</ele>
<time>2020-12-06T09:03:28Z</time>
</trkpt>
<trkpt lat="48.9023190" lon="2.8548412">
<ele>80.21</ele>
<time>2020-12-06T09:03:47Z</time>
</trkpt>
<trkpt lat="48.9023021" lon="2.8551233">
<ele>80.47</ele>
<time>2020-12-06T09:03:58Z</time>
</trkpt>
<trkpt lat="48.9022592" lon="2.8553963">
<ele>81.25</ele>
<time>2020-12-06T09:04:06Z</time>
</trkpt>
<trkpt lat="48.9022699" lon="2.8556766">
<ele>82.03</ele>
<time>2020-12-06T09:04:12Z</time>
</trkpt>
<trkpt lat="48.9022936" lon="2.8559837">
<ele>82.09</ele>
<time>2020-12-06T09:04:19Z</time>
</trkpt>
<trkpt lat="48.9023205" lon="2.8562677">
<ele>82.49</ele>
<time>2020-12-06T09:04:26Z</time>
</trkpt>
<trkpt lat="48.9023539" lon="2.8565649">
<ele>83.08</ele>
<time>2020-12-06T09:04:33Z</time>
</trkpt>
<trkpt lat="48.9023836" lon="2.8568734">
<ele>83.50</ele>
<time>2020-12-06T09:04:41Z</time>
</trkpt>
<trkpt lat="48.9024222" lon="2.8571597">
<ele>84.10</ele>
<time>2020-12-06T09:04:48Z</time>
</trkpt>
<trkpt lat="48.9024644" lon="2.8574295">
<ele>83.44</ele>
<time>2020-12-06T09:04:54Z</time>
</trkpt>
<trkpt lat="48.9024952" lon="2.8577007">
<ele>83.40</ele>
<time>2020-12-06T09:05:00Z</time>
</trkpt>
<trkpt lat="48.9025450" lon="2.8579791">
<ele>85.03</ele>
<time>2020-12-06T09:05:06Z</time>
</trkpt>
<trkpt lat="48.9025852" lon="2.8582643">
<ele>85.44</ele>
<time>2020-12-06T09:05:12Z</time>
</trkpt>
<trkpt lat="48.9026283" lon="2.8585372">
<ele>86.11</ele>
<time>2020-12-06T09:05:18Z</time>
</trkpt>
<trkpt lat="48.9027245" lon="2.8587747">
<ele>86.31</ele>
<time>2020-12-06T09:05:26Z</time>
</trkpt>
<trkpt lat="48.9029141" lon="2.8587335">
<ele>84.39</ele>
<time>2020-12-06T09:05:31Z</time>
</trkpt>
<trkpt lat="48.9030996" lon="2.8587068">
<ele>82.27</ele>
<time>2020-12-06T09:05:35Z</time>
</trkpt>
<trkpt lat="48.9032835" lon="2.8586662">
<ele>81.30</ele>
<time>2020-12-06T09:05:41Z</time>
</trkpt>
<trkpt lat="48.9034932" lon="2.8586923">
<ele>82.01</ele>
<time>2020-12-06T09:05:46Z</time>
</trkpt>
<trkpt lat="48.9036787" lon="2.8587844">
<ele>82.13</ele>
<time>2020-12-06T09:05:49Z</time>
</trkpt>
<trkpt lat="48.9038717" lon="2.8588314">
<ele>77.00</ele>
<time>2020-12-06T09:05:52Z</time>
</trkpt>
<trkpt lat="48.9040486" lon="2.8589552">
<ele>73.79</ele>
<time>2020-12-06T09:05:55Z</time>
</trkpt>
<trkpt lat="48.9042867" lon="2.8590154">
<ele>71.75</ele>
<time>2020-12-06T09:05:59Z</time>
</trkpt>
<trkpt lat="48.9044714" lon="2.8590260">
<ele>70.47</ele>
<time>2020-12-06T09:06:02Z</time>
</trkpt>
<trkpt lat="48.9046660" lon="2.8589888">
<ele>69.08</ele>
<time>2020-12-06T09:06:05Z</time>
</trkpt>
<trkpt lat="48.9048562" lon="2.8589289">
<ele>67.41</ele>
<time>2020-12-06T09:06:08Z</time>
</trkpt>
<trkpt lat="48.9050312" lon="2.8588600">
<ele>66.91</ele>
<time>2020-12-06T09:06:11Z</time>
</trkpt>
<trkpt lat="48.9052520" lon="2.8587952">
<ele>65.98</ele>
<time>2020-12-06T09:06:15Z</time>
</trkpt>
<trkpt lat="48.9054424" lon="2.8588041">
<ele>65.17</ele>
<time>2020-12-06T09:06:21Z</time>
</trkpt>
<trkpt lat="48.9056384" lon="2.8588041">
<ele>62.25</ele>
<time>2020-12-06T09:06:58Z</time>
</trkpt>
<trkpt lat="48.9058437" lon="2.8587801">
<ele>62.48</ele>
<time>2020-12-06T09:07:05Z</time>
</trkpt>
<trkpt lat="48.9060272" lon="2.8586913">
<ele>69.90</ele>
<time>2020-12-06T09:07:14Z</time>
</trkpt>
<trkpt lat="48.9062281" lon="2.8586226">
<ele>70.09</ele>
<time>2020-12-06T09:07:22Z</time>
</trkpt>
<trkpt lat="48.9064047" lon="2.8585524">
<ele>71.94</ele>
<time>2020-12-06T09:07:59Z</time>
</trkpt>
<trkpt lat="48.9065828" lon="2.8585069">
<ele>76.96</ele>
<time>2020-12-06T09:09:12Z</time>
</trkpt>
<trkpt lat="48.9064034" lon="2.8585582">
<ele>72.98</ele>
<time>2020-12-06T09:10:51Z</time>
</trkpt>
<trkpt lat="48.9062230" lon="2.8586225">
<ele>67.98</ele>
<time>2020-12-06T09:11:14Z</time>
</trkpt>
<trkpt lat="48.9060364" lon="2.8586818">
<ele>69.26</ele>
<time>2020-12-06T09:11:31Z</time>
</trkpt>
<trkpt lat="48.9058473" lon="2.8587548">
<ele>66.02</ele>
<time>2020-12-06T09:11:39Z</time>
</trkpt>
<trkpt lat="48.9056600" lon="2.8587924">
<ele>66.50</ele>
<time>2020-12-06T09:11:51Z</time>
</trkpt>
<trkpt lat="48.9054749" lon="2.8588013">
<ele>64.08</ele>
<time>2020-12-06T09:12:18Z</time>
</trkpt>
<trkpt lat="48.9052742" lon="2.8587922">
<ele>64.90</ele>
<time>2020-12-06T09:12:27Z</time>
</trkpt>
<trkpt lat="48.9050873" lon="2.8588370">
<ele>64.79</ele>
<time>2020-12-06T09:12:35Z</time>
</trkpt>
<trkpt lat="48.9049079" lon="2.8589069">
<ele>64.05</ele>
<time>2020-12-06T09:12:42Z</time>
</trkpt>
<trkpt lat="48.9047140" lon="2.8589989">
<ele>65.32</ele>
<time>2020-12-06T09:12:50Z</time>
</trkpt>
<trkpt lat="48.9045224" lon="2.8590271">
<ele>68.23</ele>
<time>2020-12-06T09:12:57Z</time>
</trkpt>
<trkpt lat="48.9043377" lon="2.8589939">
<ele>68.49</ele>
<time>2020-12-06T09:13:05Z</time>
</trkpt>
<trkpt lat="48.9041398" lon="2.8589861">
<ele>70.01</ele>
<time>2020-12-06T09:13:12Z</time>
</trkpt>
<trkpt lat="48.9039421" lon="2.8588903">
<ele>71.83</ele>
<time>2020-12-06T09:13:20Z</time>
</trkpt>
<trkpt lat="48.9037692" lon="2.8588016">
<ele>74.46</ele>
<time>2020-12-06T09:13:26Z</time>
</trkpt>
<trkpt lat="48.9035821" lon="2.8587206">
<ele>76.81</ele>
<time>2020-12-06T09:13:34Z</time>
</trkpt>
<trkpt lat="48.9033822" lon="2.8586959">
<ele>77.97</ele>
<time>2020-12-06T09:13:43Z</time>
</trkpt>
<trkpt lat="48.9031932" lon="2.8586996">
<ele>82.04</ele>
<time>2020-12-06T09:13:51Z</time>
</trkpt>
<trkpt lat="48.9029833" lon="2.8587197">
<ele>82.34</ele>
<time>2020-12-06T09:13:56Z</time>
</trkpt>
<trkpt lat="48.9027881" lon="2.8587688">
<ele>80.88</ele>
<time>2020-12-06T09:14:01Z</time>
</trkpt>
<trkpt lat="48.9026055" lon="2.8586823">
<ele>85.19</ele>
<time>2020-12-06T09:14:11Z</time>
</trkpt>
<trkpt lat="48.9024363" lon="2.8588311">
<ele>87.94</ele>
<time>2020-12-06T09:14:23Z</time>
</trkpt>
<trkpt lat="48.9022702" lon="2.8589747">
<ele>89.85</ele>
<time>2020-12-06T09:14:33Z</time>
</trkpt>
<trkpt lat="48.9021187" lon="2.8591664">
<ele>88.46</ele>
<time>2020-12-06T09:14:42Z</time>
</trkpt>
<trkpt lat="48.9019575" lon="2.8593038">
<ele>91.12</ele>
<time>2020-12-06T09:14:52Z</time>
</trkpt>
<trkpt lat="48.9017870" lon="2.8594101">
<ele>92.59</ele>
<time>2020-12-06T09:15:01Z</time>
</trkpt>
<trkpt lat="48.9016207" lon="2.8595450">
<ele>93.86</ele>
<time>2020-12-06T09:15:10Z</time>
</trkpt>
<trkpt lat="48.9014354" lon="2.8596590">
<ele>95.27</ele>
<time>2020-12-06T09:15:18Z</time>
</trkpt>
<trkpt lat="48.9012843" lon="2.8598222">
<ele>95.36</ele>
<time>2020-12-06T09:15:27Z</time>
</trkpt>
<trkpt lat="48.9012238" lon="2.8601194">
<ele>97.41</ele>
<time>2020-12-06T09:15:34Z</time>
</trkpt>
<trkpt lat="48.9012338" lon="2.8603985">
<ele>98.10</ele>
<time>2020-12-06T09:15:45Z</time>
</trkpt>
<trkpt lat="48.9014040" lon="2.8602931">
<ele>99.21</ele>
<time>2020-12-06T09:15:55Z</time>
</trkpt>
<trkpt lat="48.9015403" lon="2.8605077">
<ele>98.73</ele>
<time>2020-12-06T09:16:04Z</time>
</trkpt>
<trkpt lat="48.9015824" lon="2.8607855">
<ele>98.04</ele>
<time>2020-12-06T09:16:13Z</time>
</trkpt>
<trkpt lat="48.9016405" lon="2.8610611">
<ele>99.87</ele>
<time>2020-12-06T09:16:21Z</time>
</trkpt>
<trkpt lat="48.9017012" lon="2.8613524">
<ele>98.74</ele>
<time>2020-12-06T09:16:28Z</time>
</trkpt>
<trkpt lat="48.9017635" lon="2.8616155">
<ele>98.72</ele>
<time>2020-12-06T09:16:34Z</time>
</trkpt>
<trkpt lat="48.9018063" lon="2.8618849">
<ele>100.80</ele>
<time>2020-12-06T09:16:51Z</time>
</trkpt>
<trkpt lat="48.9018545" lon="2.8621516">
<ele>100.28</ele>
<time>2020-12-06T09:17:01Z</time>
</trkpt>
<trkpt lat="48.9018332" lon="2.8624764">
<ele>98.56</ele>
<time>2020-12-06T09:17:08Z</time>
</trkpt>
<trkpt lat="48.9018196" lon="2.8628190">
<ele>99.46</ele>
<time>2020-12-06T09:17:13Z</time>
</trkpt>
<trkpt lat="48.9018222" lon="2.8631100">
<ele>100.06</ele>
<time>2020-12-06T09:17:17Z</time>
</trkpt>
<trkpt lat="48.9017854" lon="2.8634218">
<ele>101.27</ele>
<time>2020-12-06T09:17:21Z</time>
</trkpt>
<trkpt lat="48.9017616" lon="2.8637668">
<ele>101.51</ele>
<time>2020-12-06T09:17:25Z</time>
</trkpt>
<trkpt lat="48.9017568" lon="2.8640671">
<ele>101.77</ele>
<time>2020-12-06T09:17:29Z</time>
</trkpt>
<trkpt lat="48.9017785" lon="2.8643757">
<ele>101.97</ele>
<time>2020-12-06T09:17:35Z</time>
</trkpt>
<trkpt lat="48.9017620" lon="2.8646593">
<ele>101.77</ele>
<time>2020-12-06T09:17:42Z</time>
</trkpt>
<trkpt lat="48.9017323" lon="2.8649689">
<ele>101.99</ele>
<time>2020-12-06T09:17:49Z</time>
</trkpt>
<trkpt lat="48.9017217" lon="2.8652748">
<ele>102.32</ele>
<time>2020-12-06T09:17:57Z</time>
</trkpt>
<trkpt lat="48.9017116" lon="2.8655833">
<ele>101.83</ele>
<time>2020-12-06T09:18:04Z</time>
</trkpt>
<trkpt lat="48.9017257" lon="2.8658733">
<ele>101.48</ele>
<time>2020-12-06T09:18:10Z</time>
</trkpt>
<trkpt lat="48.9017447" lon="2.8661883">
<ele>102.21</ele>
<time>2020-12-06T09:18:17Z</time>
</trkpt>
<trkpt lat="48.9017758" lon="2.8665172">
<ele>101.77</ele>
<time>2020-12-06T09:18:23Z</time>
</trkpt>
<trkpt lat="48.9017791" lon="2.8668436">
<ele>101.40</ele>
<time>2020-12-06T09:18:29Z</time>
</trkpt>
<trkpt lat="48.9017670" lon="2.8671690">
<ele>101.35</ele>
<time>2020-12-06T09:18:35Z</time>
</trkpt>
<trkpt lat="48.9017888" lon="2.8674434">
<ele>100.90</ele>
<time>2020-12-06T09:18:40Z</time>
</trkpt>
<trkpt lat="48.9019813" lon="2.8673968">
<ele>100.26</ele>
<time>2020-12-06T09:19:50Z</time>
</trkpt>
<trkpt lat="48.9021756" lon="2.8673995">
<ele>99.54</ele>
<time>2020-12-06T09:19:56Z</time>
</trkpt>
<trkpt lat="48.9023833" lon="2.8673849">
<ele>97.42</ele>
<time>2020-12-06T09:20:02Z</time>
</trkpt>
<trkpt lat="48.9025744" lon="2.8674036">
<ele>96.74</ele>
<time>2020-12-06T09:20:09Z</time>
</trkpt>
<trkpt lat="48.9027898" lon="2.8673554">
<ele>94.10</ele>
<time>2020-12-06T09:20:12Z</time>
</trkpt>
<trkpt lat="48.9029867" lon="2.8673565">
<ele>90.36</ele>
<time>2020-12-06T09:20:15Z</time>
</trkpt>
<trkpt lat="48.9031781" lon="2.8673710">
<ele>89.60</ele>
<time>2020-12-06T09:20:18Z</time>
</trkpt>
<trkpt lat="48.9034248" lon="2.8673656">
<ele>88.14</ele>
<time>2020-12-06T09:20:21Z</time>
</trkpt>
<trkpt lat="48.9036653" lon="2.8673407">
<ele>85.12</ele>
<time>2020-12-06T09:20:24Z</time>
</trkpt>
<trkpt lat="48.9038775" lon="2.8673555">
<ele>82.82</ele>
<time>2020-12-06T09:20:27Z</time>
</trkpt>
<trkpt lat="48.9040563" lon="2.8672648">
<ele>81.70</ele>
<time>2020-12-06T09:20:32Z</time>
</trkpt>
<trkpt lat="48.9042237" lon="2.8673934">
<ele>80.13</ele>
<time>2020-12-06T09:21:36Z</time>
</trkpt>
<trkpt lat="48.9043937" lon="2.8675266">
<ele>81.16</ele>
<time>2020-12-06T09:22:26Z</time>
</trkpt>
<trkpt lat="48.9045648" lon="2.8676259">
<ele>81.84</ele>
<time>2020-12-06T09:22:45Z</time>
</trkpt>
<trkpt lat="48.9046584" lon="2.8673897">
<ele>90.32</ele>
<time>2020-12-06T09:23:11Z</time>
</trkpt>
<trkpt lat="48.9048034" lon="2.8671968">
<ele>91.24</ele>
<time>2020-12-06T09:23:22Z</time>
</trkpt>
<trkpt lat="48.9048823" lon="2.8669221">
<ele>95.07</ele>
<time>2020-12-06T09:24:32Z</time>
</trkpt>
<trkpt lat="48.9049666" lon="2.8666529">
<ele>93.52</ele>
<time>2020-12-06T09:24:40Z</time>
</trkpt>
<trkpt lat="48.9050454" lon="2.8664017">
<ele>94.86</ele>
<time>2020-12-06T09:24:54Z</time>
</trkpt>
<trkpt lat="48.9050952" lon="2.8661363">
<ele>89.89</ele>
<time>2020-12-06T09:25:10Z</time>
</trkpt>
<trkpt lat="48.9052849" lon="2.8661647">
<ele>93.43</ele>
<time>2020-12-06T09:26:13Z</time>
</trkpt>
<trkpt lat="48.9054658" lon="2.8662613">
<ele>92.13</ele>
<time>2020-12-06T09:26:24Z</time>
</trkpt>
<trkpt lat="48.9056513" lon="2.8663230">
<ele>92.99</ele>
<time>2020-12-06T09:26:33Z</time>
</trkpt>
<trkpt lat="48.9058293" lon="2.8664164">
<ele>96.38</ele>
<time>2020-12-06T09:26:42Z</time>
</trkpt>
<trkpt lat="48.9060141" lon="2.8664187">
<ele>98.89</ele>
<time>2020-12-06T09:26:52Z</time>
</trkpt>
<trkpt lat="48.9062032" lon="2.8664378">
<ele>110.39</ele>
<time>2020-12-06T09:29:46Z</time>
</trkpt>
<trkpt lat="48.9063826" lon="2.8664941">
<ele>114.89</ele>
<time>2020-12-06T09:29:55Z</time>
</trkpt>
<trkpt lat="48.9065654" lon="2.8665527">
<ele>116.52</ele>
<time>2020-12-06T09:30:01Z</time>
</trkpt>
<trkpt lat="48.9067493" lon="2.8665718">
<ele>117.27</ele>
<time>2020-12-06T09:30:09Z</time>
</trkpt>
<trkpt lat="48.9069460" lon="2.8665849">
<ele>118.88</ele>
<time>2020-12-06T09:30:18Z</time>
</trkpt>
<trkpt lat="48.9071325" lon="2.8665776">
<ele>122.68</ele>
<time>2020-12-06T09:30:28Z</time>
</trkpt>
<trkpt lat="48.9073341" lon="2.8666166">
<ele>126.10</ele>
<time>2020-12-06T09:30:36Z</time>
</trkpt>
<trkpt lat="48.9075122" lon="2.8666606">
<ele>129.85</ele>
<time>2020-12-06T09:30:46Z</time>
</trkpt>
<trkpt lat="48.9076992" lon="2.8667291">
<ele>130.34</ele>
<time>2020-12-06T09:30:55Z</time>
</trkpt>
<trkpt lat="48.9078798" lon="2.8667854">
<ele>134.40</ele>
<time>2020-12-06T09:31:04Z</time>
</trkpt>
<trkpt lat="48.9080657" lon="2.8668193">
<ele>130.75</ele>
<time>2020-12-06T09:31:17Z</time>
</trkpt>
<trkpt lat="48.9082479" lon="2.8668329">
<ele>135.80</ele>
<time>2020-12-06T09:31:58Z</time>
</trkpt>
<trkpt lat="48.9084183" lon="2.8669395">
<ele>133.11</ele>
<time>2020-12-06T09:32:07Z</time>
</trkpt>
<trkpt lat="48.9085882" lon="2.8670422">
<ele>132.36</ele>
<time>2020-12-06T09:32:14Z</time>
</trkpt>
<trkpt lat="48.9087668" lon="2.8671226">
<ele>132.34</ele>
<time>2020-12-06T09:32:18Z</time>
</trkpt>
<trkpt lat="48.9089674" lon="2.8671734">
<ele>134.86</ele>
<time>2020-12-06T09:32:22Z</time>
</trkpt>
<trkpt lat="48.9091583" lon="2.8672349">
<ele>137.20</ele>
<time>2020-12-06T09:32:28Z</time>
</trkpt>
<trkpt lat="48.9093390" lon="2.8673688">
<ele>140.23</ele>
<time>2020-12-06T09:32:35Z</time>
</trkpt>
<trkpt lat="48.9095514" lon="2.8674205">
<ele>141.47</ele>
<time>2020-12-06T09:32:41Z</time>
</trkpt>
<trkpt lat="48.9097387" lon="2.8675022">
<ele>142.39</ele>
<time>2020-12-06T09:32:51Z</time>
</trkpt>
<trkpt lat="48.9098987" lon="2.8673447">
<ele>140.73</ele>
<time>2020-12-06T09:33:06Z</time>
</trkpt>
<trkpt lat="48.9100825" lon="2.8674042">
<ele>139.05</ele>
<time>2020-12-06T09:33:18Z</time>
</trkpt>
<trkpt lat="48.9102642" lon="2.8674923">
<ele>141.31</ele>
<time>2020-12-06T09:33:24Z</time>
</trkpt>
<trkpt lat="48.9104558" lon="2.8675585">
<ele>140.34</ele>
<time>2020-12-06T09:33:30Z</time>
</trkpt>
<trkpt lat="48.9106305" lon="2.8676469">
<ele>137.85</ele>
<time>2020-12-06T09:33:36Z</time>
</trkpt>
<trkpt lat="48.9108071" lon="2.8677421">
<ele>139.81</ele>
<time>2020-12-06T09:33:43Z</time>
</trkpt>
<trkpt lat="48.9109975" lon="2.8678603">
<ele>140.25</ele>
<time>2020-12-06T09:33:50Z</time>
</trkpt>
<trkpt lat="48.9111755" lon="2.8679856">
<ele>142.78</ele>
<time>2020-12-06T09:33:58Z</time>
</trkpt>
<trkpt lat="48.9113446" lon="2.8680894">
<ele>143.56</ele>
<time>2020-12-06T09:34:05Z</time>
</trkpt>
<trkpt lat="48.9115300" lon="2.8682153">
<ele>142.23</ele>
<time>2020-12-06T09:34:13Z</time>
</trkpt>
<trkpt lat="48.9117096" lon="2.8683042">
<ele>141.47</ele>
<time>2020-12-06T09:34:20Z</time>
</trkpt>
<trkpt lat="48.9118634" lon="2.8681580">
<ele>139.89</ele>
<time>2020-12-06T09:34:26Z</time>
</trkpt>
<trkpt lat="48.9119897" lon="2.8679065">
<ele>138.37</ele>
<time>2020-12-06T09:34:32Z</time>
</trkpt>
<trkpt lat="48.9121079" lon="2.8676278">
<ele>138.13</ele>
<time>2020-12-06T09:34:36Z</time>
</trkpt>
<trkpt lat="48.9122186" lon="2.8673838">
<ele>134.68</ele>
<time>2020-12-06T09:34:43Z</time>
</trkpt>
<trkpt lat="48.9123267" lon="2.8671466">
<ele>136.17</ele>
<time>2020-12-06T09:34:48Z</time>
</trkpt>
<trkpt lat="48.9124269" lon="2.8668992">
<ele>135.43</ele>
<time>2020-12-06T09:34:54Z</time>
</trkpt>
<trkpt lat="48.9125210" lon="2.8666326">
<ele>135.15</ele>
<time>2020-12-06T09:35:01Z</time>
</trkpt>
<trkpt lat="48.9126094" lon="2.8663796">
<ele>131.76</ele>
<time>2020-12-06T09:35:10Z</time>
</trkpt>
<trkpt lat="48.9127845" lon="2.8664671">
<ele>133.77</ele>
<time>2020-12-06T09:35:32Z</time>
</trkpt>
<trkpt lat="48.9129444" lon="2.8665943">
<ele>133.23</ele>
<time>2020-12-06T09:35:38Z</time>
</trkpt>
<trkpt lat="48.9131115" lon="2.8667413">
<ele>132.74</ele>
<time>2020-12-06T09:35:44Z</time>
</trkpt>
<trkpt lat="48.9132871" lon="2.8669187">
<ele>133.84</ele>
<time>2020-12-06T09:35:50Z</time>
</trkpt>
<trkpt lat="48.9134699" lon="2.8670888">
<ele>134.09</ele>
<time>2020-12-06T09:35:56Z</time>
</trkpt>
<trkpt lat="48.9136548" lon="2.8672400">
<ele>134.43</ele>
<time>2020-12-06T09:36:01Z</time>
</trkpt>
<trkpt lat="48.9138338" lon="2.8673810">
<ele>134.41</ele>
<time>2020-12-06T09:36:06Z</time>
</trkpt>
<trkpt lat="48.9139988" lon="2.8675144">
<ele>134.36</ele>
<time>2020-12-06T09:36:11Z</time>
</trkpt>
<trkpt lat="48.9141640" lon="2.8676803">
<ele>134.84</ele>
<time>2020-12-06T09:36:17Z</time>
</trkpt>
<trkpt lat="48.9143199" lon="2.8678456">
<ele>135.04</ele>
<time>2020-12-06T09:36:24Z</time>
</trkpt>
<trkpt lat="48.9144877" lon="2.8679763">
<ele>135.07</ele>
<time>2020-12-06T09:36:29Z</time>
</trkpt>
<trkpt lat="48.9146634" lon="2.8681055">
<ele>135.42</ele>
<time>2020-12-06T09:36:34Z</time>
</trkpt>
<trkpt lat="48.9148523" lon="2.8682424">
<ele>136.06</ele>
<time>2020-12-06T09:36:39Z</time>
</trkpt>
<trkpt lat="48.9150394" lon="2.8683957">
<ele>136.53</ele>
<time>2020-12-06T09:36:44Z</time>
</trkpt>
<trkpt lat="48.9152410" lon="2.8685291">
<ele>136.38</ele>
<time>2020-12-06T09:36:49Z</time>
</trkpt>
<trkpt lat="48.9154399" lon="2.8686585">
<ele>135.85</ele>
<time>2020-12-06T09:36:54Z</time>
</trkpt>
<trkpt lat="48.9156129" lon="2.8687437">
<ele>135.57</ele>
<time>2020-12-06T09:36:58Z</time>
</trkpt>
<trkpt lat="48.9158224" lon="2.8688280">
<ele>135.29</ele>
<time>2020-12-06T09:37:03Z</time>
</trkpt>
<trkpt lat="48.9160028" lon="2.8689235">
<ele>135.07</ele>
<time>2020-12-06T09:37:08Z</time>
</trkpt>
<trkpt lat="48.9161271" lon="2.8691468">
<ele>134.50</ele>
<time>2020-12-06T09:37:14Z</time>
</trkpt>
<trkpt lat="48.9160433" lon="2.8694589">
<ele>134.72</ele>
<time>2020-12-06T09:37:20Z</time>
</trkpt>
<trkpt lat="48.9159955" lon="2.8697314">
<ele>134.61</ele>
<time>2020-12-06T09:37:24Z</time>
</trkpt>
<trkpt lat="48.9159626" lon="2.8700046">
<ele>134.38</ele>
<time>2020-12-06T09:37:28Z</time>
</trkpt>
<trkpt lat="48.9159367" lon="2.8703106">
<ele>134.44</ele>
<time>2020-12-06T09:37:33Z</time>
</trkpt>
<trkpt lat="48.9159152" lon="2.8705899">
<ele>134.49</ele>
<time>2020-12-06T09:37:38Z</time>
</trkpt>
<trkpt lat="48.9158832" lon="2.8709147">
<ele>135.06</ele>
<time>2020-12-06T09:37:44Z</time>
</trkpt>
<trkpt lat="48.9158539" lon="2.8712336">
<ele>135.28</ele>
<time>2020-12-06T09:37:50Z</time>
</trkpt>
<trkpt lat="48.9158362" lon="2.8715114">
<ele>134.67</ele>
<time>2020-12-06T09:37:55Z</time>
</trkpt>
<trkpt lat="48.9158173" lon="2.8718019">
<ele>134.41</ele>
<time>2020-12-06T09:38:00Z</time>
</trkpt>
<trkpt lat="48.9158097" lon="2.8720769">
<ele>133.98</ele>
<time>2020-12-06T09:38:05Z</time>
</trkpt>
<trkpt lat="48.9158173" lon="2.8723798">
<ele>134.41</ele>
<time>2020-12-06T09:38:11Z</time>
</trkpt>
<trkpt lat="48.9158097" lon="2.8726589">
<ele>134.05</ele>
<time>2020-12-06T09:38:16Z</time>
</trkpt>
<trkpt lat="48.9158163" lon="2.8729458">
<ele>134.53</ele>
<time>2020-12-06T09:38:21Z</time>
</trkpt>
<trkpt lat="48.9158211" lon="2.8732638">
<ele>134.77</ele>
<time>2020-12-06T09:38:26Z</time>
</trkpt>
<trkpt lat="48.9158269" lon="2.8735711">
<ele>135.04</ele>
<time>2020-12-06T09:38:31Z</time>
</trkpt>
<trkpt lat="48.9158258" lon="2.8738570">
<ele>134.87</ele>
<time>2020-12-06T09:38:36Z</time>
</trkpt>
<trkpt lat="48.9158269" lon="2.8741430">
<ele>134.57</ele>
<time>2020-12-06T09:38:42Z</time>
</trkpt>
<trkpt lat="48.9158614" lon="2.8744201">
<ele>135.39</ele>
<time>2020-12-06T09:38:54Z</time>
</trkpt>
<trkpt lat="48.9158458" lon="2.8747005">
<ele>135.99</ele>
<time>2020-12-06T09:39:03Z</time>
</trkpt>
<trkpt lat="48.9157428" lon="2.8749616">
<ele>138.05</ele>
<time>2020-12-06T09:40:02Z</time>
</trkpt>
<trkpt lat="48.9156483" lon="2.8752205">
<ele>138.16</ele>
<time>2020-12-06T09:40:08Z</time>
</trkpt>
<trkpt lat="48.9155569" lon="2.8754597">
<ele>137.89</ele>
<time>2020-12-06T09:40:13Z</time>
</trkpt>
<trkpt lat="48.9154621" lon="2.8757103">
<ele>137.69</ele>
<time>2020-12-06T09:40:18Z</time>
</trkpt>
<trkpt lat="48.9153551" lon="2.8759506">
<ele>137.07</ele>
<time>2020-12-06T09:40:23Z</time>
</trkpt>
<trkpt lat="48.9152547" lon="2.8761950">
<ele>137.21</ele>
<time>2020-12-06T09:40:28Z</time>
</trkpt>
<trkpt lat="48.9151481" lon="2.8764220">
<ele>137.71</ele>
<time>2020-12-06T09:40:33Z</time>
</trkpt>
<trkpt lat="48.9150457" lon="2.8766530">
<ele>137.54</ele>
<time>2020-12-06T09:40:38Z</time>
</trkpt>
<trkpt lat="48.9149371" lon="2.8768747">
<ele>137.60</ele>
<time>2020-12-06T09:40:43Z</time>
</trkpt>
<trkpt lat="48.9148293" lon="2.8771027">
<ele>137.54</ele>
<time>2020-12-06T09:40:48Z</time>
</trkpt>
<trkpt lat="48.9147156" lon="2.8773202">
<ele>137.90</ele>
<time>2020-12-06T09:40:53Z</time>
</trkpt>
<trkpt lat="48.9145973" lon="2.8775569">
<ele>137.52</ele>
<time>2020-12-06T09:40:59Z</time>
</trkpt>
<trkpt lat="48.9145831" lon="2.8778400">
<ele>137.12</ele>
<time>2020-12-06T09:41:08Z</time>
</trkpt>
<trkpt lat="48.9144643" lon="2.8780884">
<ele>136.03</ele>
<time>2020-12-06T09:41:18Z</time>
</trkpt>
<trkpt lat="48.9143732" lon="2.8783340">
<ele>135.23</ele>
<time>2020-12-06T09:41:26Z</time>
</trkpt>
<trkpt lat="48.9145765" lon="2.8781860">
<ele>134.59</ele>
<time>2020-12-06T09:41:35Z</time>
</trkpt>
<trkpt lat="48.9147323" lon="2.8779251">
<ele>134.41</ele>
<time>2020-12-06T09:41:39Z</time>
</trkpt>
<trkpt lat="48.9148620" lon="2.8776900">
<ele>133.80</ele>
<time>2020-12-06T09:41:43Z</time>
</trkpt>
<trkpt lat="48.9149953" lon="2.8774421">
<ele>132.66</ele>
<time>2020-12-06T09:41:47Z</time>
</trkpt>
<trkpt lat="48.9151131" lon="2.8772352">
<ele>131.79</ele>
<time>2020-12-06T09:41:50Z</time>
</trkpt>
<trkpt lat="48.9152415" lon="2.8770036">
<ele>131.23</ele>
<time>2020-12-06T09:41:53Z</time>
</trkpt>
<trkpt lat="48.9153732" lon="2.8767589">
<ele>130.58</ele>
<time>2020-12-06T09:41:56Z</time>
</trkpt>
<trkpt lat="48.9155013" lon="2.8765004">
<ele>130.16</ele>
<time>2020-12-06T09:41:59Z</time>
</trkpt>
<trkpt lat="48.9156418" lon="2.8762468">
<ele>130.00</ele>
<time>2020-12-06T09:42:02Z</time>
</trkpt>
<trkpt lat="48.9157638" lon="2.8760413">
<ele>129.80</ele>
<time>2020-12-06T09:42:05Z</time>
</trkpt>
<trkpt lat="48.9158737" lon="2.8758158">
<ele>129.29</ele>
<time>2020-12-06T09:42:08Z</time>
</trkpt>
<trkpt lat="48.9159996" lon="2.8755083">
<ele>128.06</ele>
<time>2020-12-06T09:42:12Z</time>
</trkpt>
<trkpt lat="48.9160925" lon="2.8752536">
<ele>127.63</ele>
<time>2020-12-06T09:42:15Z</time>
</trkpt>
<trkpt lat="48.9161815" lon="2.8749892">
<ele>127.47</ele>
<time>2020-12-06T09:42:18Z</time>
</trkpt>
<trkpt lat="48.9162597" lon="2.8747121">
<ele>127.47</ele>
<time>2020-12-06T09:42:21Z</time>
</trkpt>
<trkpt lat="48.9163371" lon="2.8744282">
<ele>127.05</ele>
<time>2020-12-06T09:42:24Z</time>
</trkpt>
<trkpt lat="48.9164076" lon="2.8741338">
<ele>126.36</ele>
<time>2020-12-06T09:42:27Z</time>
</trkpt>
<trkpt lat="48.9164596" lon="2.8738452">
<ele>126.04</ele>
<time>2020-12-06T09:42:30Z</time>
</trkpt>
<trkpt lat="48.9164898" lon="2.8735546">
<ele>126.06</ele>
<time>2020-12-06T09:42:33Z</time>
</trkpt>
<trkpt lat="48.9164870" lon="2.8732799">
<ele>126.22</ele>
<time>2020-12-06T09:42:36Z</time>
</trkpt>
<trkpt lat="48.9164614" lon="2.8730058">
<ele>126.58</ele>
<time>2020-12-06T09:42:39Z</time>
</trkpt>
<trkpt lat="48.9164224" lon="2.8726587">
<ele>125.58</ele>
<time>2020-12-06T09:42:43Z</time>
</trkpt>
<trkpt lat="48.9163720" lon="2.8723331">
<ele>125.93</ele>
<time>2020-12-06T09:42:47Z</time>
</trkpt>
<trkpt lat="48.9163328" lon="2.8720179">
<ele>126.05</ele>
<time>2020-12-06T09:42:51Z</time>
</trkpt>
<trkpt lat="48.9163409" lon="2.8717354">
<ele>126.64</ele>
<time>2020-12-06T09:42:55Z</time>
</trkpt>
<trkpt lat="48.9164894" lon="2.8714931">
<ele>127.37</ele>
<time>2020-12-06T09:43:00Z</time>
</trkpt>
<trkpt lat="48.9166960" lon="2.8714834">
<ele>128.37</ele>
<time>2020-12-06T09:43:05Z</time>
</trkpt>
<trkpt lat="48.9168998" lon="2.8715235">
<ele>128.98</ele>
<time>2020-12-06T09:43:10Z</time>
</trkpt>
<trkpt lat="48.9171152" lon="2.8715705">
<ele>129.52</ele>
<time>2020-12-06T09:43:15Z</time>
</trkpt>
<trkpt lat="48.9172997" lon="2.8716077">
<ele>129.77</ele>
<time>2020-12-06T09:43:19Z</time>
</trkpt>
<trkpt lat="48.9174932" lon="2.8716253">
<ele>129.29</ele>
<time>2020-12-06T09:43:23Z</time>
</trkpt>
<trkpt lat="48.9176759" lon="2.8717051">
<ele>129.25</ele>
<time>2020-12-06T09:43:27Z</time>
</trkpt>
<trkpt lat="48.9178477" lon="2.8718305">
<ele>130.13</ele>
<time>2020-12-06T09:43:31Z</time>
</trkpt>
<trkpt lat="48.9179986" lon="2.8716538">
<ele>130.18</ele>
<time>2020-12-06T09:43:37Z</time>
</trkpt>
<trkpt lat="48.9181254" lon="2.8714257">
<ele>129.00</ele>
<time>2020-12-06T09:43:47Z</time>
</trkpt>
<trkpt lat="48.9182549" lon="2.8712324">
<ele>128.92</ele>
<time>2020-12-06T09:43:53Z</time>
</trkpt>
<trkpt lat="48.9184190" lon="2.8710238">
<ele>127.82</ele>
<time>2020-12-06T09:43:58Z</time>
</trkpt>
<trkpt lat="48.9186320" lon="2.8708579">
<ele>126.14</ele>
<time>2020-12-06T09:44:02Z</time>
</trkpt>
<trkpt lat="48.9188467" lon="2.8707449">
<ele>124.53</ele>
<time>2020-12-06T09:44:06Z</time>
</trkpt>
<trkpt lat="48.9190676" lon="2.8707280">
<ele>122.96</ele>
<time>2020-12-06T09:44:10Z</time>
</trkpt>
<trkpt lat="48.9192570" lon="2.8707046">
<ele>122.35</ele>
<time>2020-12-06T09:44:13Z</time>
</trkpt>
<trkpt lat="48.9194593" lon="2.8706801">
<ele>121.63</ele>
<time>2020-12-06T09:44:16Z</time>
</trkpt>
<trkpt lat="48.9196707" lon="2.8706553">
<ele>120.20</ele>
<time>2020-12-06T09:44:19Z</time>
</trkpt>
<trkpt lat="48.9198764" lon="2.8706423">
<ele>119.35</ele>
<time>2020-12-06T09:44:22Z</time>
</trkpt>
<trkpt lat="48.9200642" lon="2.8706133">
<ele>119.31</ele>
<time>2020-12-06T09:44:25Z</time>
</trkpt>
<trkpt lat="48.9202579" lon="2.8705834">
<ele>118.48</ele>
<time>2020-12-06T09:44:28Z</time>
</trkpt>
<trkpt lat="48.9204408" lon="2.8705102">
<ele>117.63</ele>
<time>2020-12-06T09:44:31Z</time>
</trkpt>
<trkpt lat="48.9206167" lon="2.8703858">
<ele>116.27</ele>
<time>2020-12-06T09:44:34Z</time>
</trkpt>
<trkpt lat="48.9207701" lon="2.8702244">
<ele>115.13</ele>
<time>2020-12-06T09:44:43Z</time>
</trkpt>
<trkpt lat="48.9209396" lon="2.8700537">
<ele>114.35</ele>
<time>2020-12-06T09:44:52Z</time>
</trkpt>
<trkpt lat="48.9211155" lon="2.8699451">
<ele>124.22</ele>
<time>2020-12-06T10:02:34Z</time>
</trkpt>
<trkpt lat="48.9212895" lon="2.8697885">
<ele>122.22</ele>
<time>2020-12-06T10:02:39Z</time>
</trkpt>
<trkpt lat="48.9214607" lon="2.8696502">
<ele>119.24</ele>
<time>2020-12-06T10:02:43Z</time>
</trkpt>
<trkpt lat="48.9216379" lon="2.8695378">
<ele>116.27</ele>
<time>2020-12-06T10:02:47Z</time>
</trkpt>
<trkpt lat="48.9218221" lon="2.8694483">
<ele>115.33</ele>
<time>2020-12-06T10:02:52Z</time>
</trkpt>
<trkpt lat="48.9219953" lon="2.8693399">
<ele>114.04</ele>
<time>2020-12-06T10:02:57Z</time>
</trkpt>
<trkpt lat="48.9221485" lon="2.8691839">
<ele>114.23</ele>
<time>2020-12-06T10:03:24Z</time>
</trkpt>
<trkpt lat="48.9223357" lon="2.8690117">
<ele>107.82</ele>
<time>2020-12-06T10:07:25Z</time>
</trkpt>
<trkpt lat="48.9225002" lon="2.8688600">
<ele>104.73</ele>
<time>2020-12-06T10:07:29Z</time>
</trkpt>
<trkpt lat="48.9226312" lon="2.8686489">
<ele>102.87</ele>
<time>2020-12-06T10:07:33Z</time>
</trkpt>
<trkpt lat="48.9227508" lon="2.8683824">
<ele>101.18</ele>
<time>2020-12-06T10:07:37Z</time>
</trkpt>
<trkpt lat="48.9229076" lon="2.8681180">
<ele>96.88</ele>
<time>2020-12-06T10:07:41Z</time>
</trkpt>
<trkpt lat="48.9230599" lon="2.8678316">
<ele>92.64</ele>
<time>2020-12-06T10:07:45Z</time>
</trkpt>
<trkpt lat="48.9231781" lon="2.8675544">
<ele>90.99</ele>
<time>2020-12-06T10:07:48Z</time>
</trkpt>
<trkpt lat="48.9232824" lon="2.8672875">
<ele>88.34</ele>
<time>2020-12-06T10:07:51Z</time>
</trkpt>
<trkpt lat="48.9233966" lon="2.8670467">
<ele>85.36</ele>
<time>2020-12-06T10:07:54Z</time>
</trkpt>
<trkpt lat="48.9234878" lon="2.8668012">
<ele>83.08</ele>
<time>2020-12-06T10:07:58Z</time>
</trkpt>
<trkpt lat="48.9236175" lon="2.8665554">
<ele>80.33</ele>
<time>2020-12-06T10:08:02Z</time>
</trkpt>
<trkpt lat="48.9237384" lon="2.8663019">
<ele>77.13</ele>
<time>2020-12-06T10:08:05Z</time>
</trkpt>
<trkpt lat="48.9238699" lon="2.8660119">
<ele>74.16</ele>
<time>2020-12-06T10:08:08Z</time>
</trkpt>
<trkpt lat="48.9239681" lon="2.8657809">
<ele>72.13</ele>
<time>2020-12-06T10:08:11Z</time>
</trkpt>
<trkpt lat="48.9241119" lon="2.8656128">
<ele>70.40</ele>
<time>2020-12-06T10:08:18Z</time>
</trkpt>
<trkpt lat="48.9243091" lon="2.8656544">
<ele>72.17</ele>
<time>2020-12-06T10:08:24Z</time>
</trkpt>
<trkpt lat="48.9244895" lon="2.8657700">
<ele>71.92</ele>
<time>2020-12-06T10:08:29Z</time>
</trkpt>
<trkpt lat="48.9246522" lon="2.8659407">
<ele>72.17</ele>
<time>2020-12-06T10:08:34Z</time>
</trkpt>
<trkpt lat="48.9247935" lon="2.8661543">
<ele>72.47</ele>
<time>2020-12-06T10:08:38Z</time>
</trkpt>
<trkpt lat="48.9249295" lon="2.8663590">
<ele>72.74</ele>
<time>2020-12-06T10:08:43Z</time>
</trkpt>
<trkpt lat="48.9250522" lon="2.8666007">
<ele>74.57</ele>
<time>2020-12-06T10:08:49Z</time>
</trkpt>
<trkpt lat="48.9251699" lon="2.8668256">
<ele>74.90</ele>
<time>2020-12-06T10:08:56Z</time>
</trkpt>
<trkpt lat="48.9252669" lon="2.8670637">
<ele>76.91</ele>
<time>2020-12-06T10:09:03Z</time>
</trkpt>
<trkpt lat="48.9254016" lon="2.8673206">
<ele>77.50</ele>
<time>2020-12-06T10:09:09Z</time>
</trkpt>
<trkpt lat="48.9255260" lon="2.8675445">
<ele>78.71</ele>
<time>2020-12-06T10:09:18Z</time>
</trkpt>
<trkpt lat="48.9256386" lon="2.8677699">
<ele>79.10</ele>
<time>2020-12-06T10:09:34Z</time>
</trkpt>
<trkpt lat="48.9256904" lon="2.8680350">
<ele>80.65</ele>
<time>2020-12-06T10:09:42Z</time>
</trkpt>
<trkpt lat="48.9257928" lon="2.8682909">
<ele>84.45</ele>
<time>2020-12-06T10:09:52Z</time>
</trkpt>
<trkpt lat="48.9259072" lon="2.8685026">
<ele>84.50</ele>
<time>2020-12-06T10:10:01Z</time>
</trkpt>
<trkpt lat="48.9260458" lon="2.8686838">
<ele>86.65</ele>
<time>2020-12-06T10:10:12Z</time>
</trkpt>
<trkpt lat="48.9260843" lon="2.8689584">
<ele>88.01</ele>
<time>2020-12-06T10:10:51Z</time>
</trkpt>
<trkpt lat="48.9259784" lon="2.8692191">
<ele>88.84</ele>
<time>2020-12-06T10:11:00Z</time>
</trkpt>
<trkpt lat="48.9258837" lon="2.8694679">
<ele>90.23</ele>
<time>2020-12-06T10:11:06Z</time>
</trkpt>
<trkpt lat="48.9257849" lon="2.8697218">
<ele>91.16</ele>
<time>2020-12-06T10:11:13Z</time>
</trkpt>
<trkpt lat="48.9259201" lon="2.8699300">
<ele>91.52</ele>
<time>2020-12-06T10:11:19Z</time>
</trkpt>
<trkpt lat="48.9260664" lon="2.8701156">
<ele>92.59</ele>
<time>2020-12-06T10:11:25Z</time>
</trkpt>
<trkpt lat="48.9262231" lon="2.8703022">
<ele>93.43</ele>
<time>2020-12-06T10:11:33Z</time>
</trkpt>
<trkpt lat="48.9263567" lon="2.8704870">
<ele>93.54</ele>
<time>2020-12-06T10:11:41Z</time>
</trkpt>
<trkpt lat="48.9264754" lon="2.8706980">
<ele>93.97</ele>
<time>2020-12-06T10:11:49Z</time>
</trkpt>
<trkpt lat="48.9265769" lon="2.8709532">
<ele>94.80</ele>
<time>2020-12-06T10:11:57Z</time>
</trkpt>
<trkpt lat="48.9266673" lon="2.8711904">
<ele>94.97</ele>
<time>2020-12-06T10:12:04Z</time>
</trkpt>
<trkpt lat="48.9267470" lon="2.8714569">
<ele>94.18</ele>
<time>2020-12-06T10:12:12Z</time>
</trkpt>
<trkpt lat="48.9268321" lon="2.8717215">
<ele>95.84</ele>
<time>2020-12-06T10:12:21Z</time>
</trkpt>
<trkpt lat="48.9269243" lon="2.8719634">
<ele>96.26</ele>
<time>2020-12-06T10:12:29Z</time>
</trkpt>
<trkpt lat="48.9270459" lon="2.8722046">
<ele>97.33</ele>
<time>2020-12-06T10:12:38Z</time>
</trkpt>
<trkpt lat="48.9271676" lon="2.8724344">
<ele>99.23</ele>
<time>2020-12-06T10:12:47Z</time>
</trkpt>
<trkpt lat="48.9272738" lon="2.8726718">
<ele>99.71</ele>
<time>2020-12-06T10:12:56Z</time>
</trkpt>
<trkpt lat="48.9274021" lon="2.8729005">
<ele>100.38</ele>
<time>2020-12-06T10:13:07Z</time>
</trkpt>
<trkpt lat="48.9275452" lon="2.8731110">
<ele>102.32</ele>
<time>2020-12-06T10:13:17Z</time>
</trkpt>
<trkpt lat="48.9276729" lon="2.8733269">
<ele>103.89</ele>
<time>2020-12-06T10:13:26Z</time>
</trkpt>
<trkpt lat="48.9277791" lon="2.8735534">
<ele>102.89</ele>
<time>2020-12-06T10:13:35Z</time>
</trkpt>
<trkpt lat="48.9279276" lon="2.8737472">
<ele>102.97</ele>
<time>2020-12-06T10:13:45Z</time>
</trkpt>
<trkpt lat="48.9280843" lon="2.8739154">
<ele>103.13</ele>
<time>2020-12-06T10:13:54Z</time>
</trkpt>
<trkpt lat="48.9282548" lon="2.8740813">
<ele>100.48</ele>
<time>2020-12-06T10:14:02Z</time>
</trkpt>
<trkpt lat="48.9284365" lon="2.8742219">
<ele>98.66</ele>
<time>2020-12-06T10:14:09Z</time>
</trkpt>
<trkpt lat="48.9286005" lon="2.8743469">
<ele>98.58</ele>
<time>2020-12-06T10:14:15Z</time>
</trkpt>
<trkpt lat="48.9287805" lon="2.8744969">
<ele>99.18</ele>
<time>2020-12-06T10:14:22Z</time>
</trkpt>
<trkpt lat="48.9289512" lon="2.8746556">
<ele>99.14</ele>
<time>2020-12-06T10:14:31Z</time>
</trkpt>
<trkpt lat="48.9291151" lon="2.8748179">
<ele>97.18</ele>
<time>2020-12-06T10:14:39Z</time>
</trkpt>
<trkpt lat="48.9292860" lon="2.8749772">
<ele>95.50</ele>
<time>2020-12-06T10:14:46Z</time>
</trkpt>
<trkpt lat="48.9294560" lon="2.8751341">
<ele>94.81</ele>
<time>2020-12-06T10:14:52Z</time>
</trkpt>
<trkpt lat="48.9296538" lon="2.8752487">
<ele>93.79</ele>
<time>2020-12-06T10:14:59Z</time>
</trkpt>
<trkpt lat="48.9298547" lon="2.8753387">
<ele>92.82</ele>
<time>2020-12-06T10:15:07Z</time>
</trkpt>
<trkpt lat="48.9300464" lon="2.8754219">
<ele>94.48</ele>
<time>2020-12-06T10:15:14Z</time>
</trkpt>
<trkpt lat="48.9302200" lon="2.8755491">
<ele>96.64</ele>
<time>2020-12-06T10:15:21Z</time>
</trkpt>
<trkpt lat="48.9304059" lon="2.8756992">
<ele>96.08</ele>
<time>2020-12-06T10:15:28Z</time>
</trkpt>
<trkpt lat="48.9305815" lon="2.8758022">
<ele>95.56</ele>
<time>2020-12-06T10:15:34Z</time>
</trkpt>
<trkpt lat="48.9307763" lon="2.8758833">
<ele>95.78</ele>
<time>2020-12-06T10:15:40Z</time>
</trkpt>
<trkpt lat="48.9309703" lon="2.8759633">
<ele>94.65</ele>
<time>2020-12-06T10:15:47Z</time>
</trkpt>
<trkpt lat="48.9311565" lon="2.8760256">
<ele>95.79</ele>
<time>2020-12-06T10:15:54Z</time>
</trkpt>
<trkpt lat="48.9313411" lon="2.8761414">
<ele>92.44</ele>
<time>2020-12-06T10:16:02Z</time>
</trkpt>
<trkpt lat="48.9315173" lon="2.8762612">
<ele>90.75</ele>
<time>2020-12-06T10:16:08Z</time>
</trkpt>
<trkpt lat="48.9317027" lon="2.8764130">
<ele>90.98</ele>
<time>2020-12-06T10:16:14Z</time>
</trkpt>
<trkpt lat="48.9318596" lon="2.8765516">
<ele>91.16</ele>
<time>2020-12-06T10:16:19Z</time>
</trkpt>
<trkpt lat="48.9320420" lon="2.8766875">
<ele>90.97</ele>
<time>2020-12-06T10:16:26Z</time>
</trkpt>
<trkpt lat="48.9322294" lon="2.8767487">
<ele>94.79</ele>
<time>2020-12-06T10:16:42Z</time>
</trkpt>
<trkpt lat="48.9324272" lon="2.8767406">
<ele>95.10</ele>
<time>2020-12-06T10:16:50Z</time>
</trkpt>
<trkpt lat="48.9326206" lon="2.8767411">
<ele>95.01</ele>
<time>2020-12-06T10:17:00Z</time>
</trkpt>
<trkpt lat="48.9328279" lon="2.8767407">
<ele>95.04</ele>
<time>2020-12-06T10:17:08Z</time>
</trkpt>
<trkpt lat="48.9330089" lon="2.8767092">
<ele>95.29</ele>
<time>2020-12-06T10:17:13Z</time>
</trkpt>
<trkpt lat="48.9331765" lon="2.8765498">
<ele>95.64</ele>
<time>2020-12-06T10:17:22Z</time>
</trkpt>
<trkpt lat="48.9331736" lon="2.8762520">
<ele>94.95</ele>
<time>2020-12-06T10:17:28Z</time>
</trkpt>
<trkpt lat="48.9331837" lon="2.8759774">
<ele>94.08</ele>
<time>2020-12-06T10:17:35Z</time>
</trkpt>
<trkpt lat="48.9331994" lon="2.8756614">
<ele>93.46</ele>
<time>2020-12-06T10:17:42Z</time>
</trkpt>
<trkpt lat="48.9332204" lon="2.8753684">
<ele>91.49</ele>
<time>2020-12-06T10:17:48Z</time>
</trkpt>
<trkpt lat="48.9332394" lon="2.8750606">
<ele>89.83</ele>
<time>2020-12-06T10:17:54Z</time>
</trkpt>
<trkpt lat="48.9332602" lon="2.8747450">
<ele>88.63</ele>
<time>2020-12-06T10:18:02Z</time>
</trkpt>
<trkpt lat="48.9333001" lon="2.8744616">
<ele>87.52</ele>
<time>2020-12-06T10:18:09Z</time>
</trkpt>
<trkpt lat="48.9332872" lon="2.8741806">
<ele>86.65</ele>
<time>2020-12-06T10:18:14Z</time>
</trkpt>
<trkpt lat="48.9333457" lon="2.8738695">
<ele>85.83</ele>
<time>2020-12-06T10:18:18Z</time>
</trkpt>
<trkpt lat="48.9334063" lon="2.8736072">
<ele>84.78</ele>
<time>2020-12-06T10:18:22Z</time>
</trkpt>
<trkpt lat="48.9334541" lon="2.8732825">
<ele>83.22</ele>
<time>2020-12-06T10:18:27Z</time>
</trkpt>
<trkpt lat="48.9334839" lon="2.8729634">
<ele>81.23</ele>
<time>2020-12-06T10:18:32Z</time>
</trkpt>
<trkpt lat="48.9335270" lon="2.8726890">
<ele>80.09</ele>
<time>2020-12-06T10:18:36Z</time>
</trkpt>
<trkpt lat="48.9335820" lon="2.8723784">
<ele>79.25</ele>
<time>2020-12-06T10:18:40Z</time>
</trkpt>
<trkpt lat="48.9336410" lon="2.8720825">
<ele>77.15</ele>
<time>2020-12-06T10:18:44Z</time>
</trkpt>
<trkpt lat="48.9337008" lon="2.8717856">
<ele>75.96</ele>
<time>2020-12-06T10:18:48Z</time>
</trkpt>
<trkpt lat="48.9337456" lon="2.8715163">
<ele>75.49</ele>
<time>2020-12-06T10:18:54Z</time>
</trkpt>
<trkpt lat="48.9338374" lon="2.8712685">
<ele>76.02</ele>
<time>2020-12-06T10:19:01Z</time>
</trkpt>
<trkpt lat="48.9339082" lon="2.8709843">
<ele>74.60</ele>
<time>2020-12-06T10:19:12Z</time>
</trkpt>
<trkpt lat="48.9339844" lon="2.8707038">
<ele>73.15</ele>
<time>2020-12-06T10:19:24Z</time>
</trkpt>
<trkpt lat="48.9340942" lon="2.8704555">
<ele>73.32</ele>
<time>2020-12-06T10:19:32Z</time>
</trkpt>
<trkpt lat="48.9341947" lon="2.8702012">
<ele>73.64</ele>
<time>2020-12-06T10:19:40Z</time>
</trkpt>
<trkpt lat="48.9343037" lon="2.8699652">
<ele>73.60</ele>
<time>2020-12-06T10:19:48Z</time>
</trkpt>
<trkpt lat="48.9344058" lon="2.8697189">
<ele>73.09</ele>
<time>2020-12-06T10:19:55Z</time>
</trkpt>
<trkpt lat="48.9344971" lon="2.8694773">
<ele>72.27</ele>
<time>2020-12-06T10:20:01Z</time>
</trkpt>
<trkpt lat="48.9345926" lon="2.8692384">
<ele>71.81</ele>
<time>2020-12-06T10:20:07Z</time>
</trkpt>
<trkpt lat="48.9346860" lon="2.8689977">
<ele>71.24</ele>
<time>2020-12-06T10:20:14Z</time>
</trkpt>
<trkpt lat="48.9347868" lon="2.8687363">
<ele>70.10</ele>
<time>2020-12-06T10:20:21Z</time>
</trkpt>
<trkpt lat="48.9348951" lon="2.8684632">
<ele>68.55</ele>
<time>2020-12-06T10:20:27Z</time>
</trkpt>
<trkpt lat="48.9349871" lon="2.8682219">
<ele>67.39</ele>
<time>2020-12-06T10:20:32Z</time>
</trkpt>
<trkpt lat="48.9350879" lon="2.8679863">
<ele>66.51</ele>
<time>2020-12-06T10:20:39Z</time>
</trkpt>
<trkpt lat="48.9349714" lon="2.8677766">
<ele>67.12</ele>
<time>2020-12-06T10:22:51Z</time>
</trkpt>
<trkpt lat="48.9348258" lon="2.8675869">
<ele>67.49</ele>
<time>2020-12-06T10:23:02Z</time>
</trkpt>
<trkpt lat="48.9346851" lon="2.8673797">
<ele>67.26</ele>
<time>2020-12-06T10:23:10Z</time>
</trkpt>
<trkpt lat="48.9345558" lon="2.8671836">
<ele>65.78</ele>
<time>2020-12-06T10:23:17Z</time>
</trkpt>
<trkpt lat="48.9344101" lon="2.8669775">
<ele>64.35</ele>
<time>2020-12-06T10:23:25Z</time>
</trkpt>
<trkpt lat="48.9342693" lon="2.8667635">
<ele>62.56</ele>
<time>2020-12-06T10:23:32Z</time>
</trkpt>
<trkpt lat="48.9341344" lon="2.8665598">
<ele>61.51</ele>
<time>2020-12-06T10:23:37Z</time>
</trkpt>
<trkpt lat="48.9339968" lon="2.8663468">
<ele>61.14</ele>
<time>2020-12-06T10:23:41Z</time>
</trkpt>
<trkpt lat="48.9338451" lon="2.8661139">
<ele>59.46</ele>
<time>2020-12-06T10:23:45Z</time>
</trkpt>
<trkpt lat="48.9336888" lon="2.8658641">
<ele>58.08</ele>
<time>2020-12-06T10:23:49Z</time>
</trkpt>
<trkpt lat="48.9335525" lon="2.8655886">
<ele>56.88</ele>
<time>2020-12-06T10:23:53Z</time>
</trkpt>
<trkpt lat="48.9334374" lon="2.8652923">
<ele>55.36</ele>
<time>2020-12-06T10:23:57Z</time>
</trkpt>
<trkpt lat="48.9333378" lon="2.8649690">
<ele>53.56</ele>
<time>2020-12-06T10:24:01Z</time>
</trkpt>
<trkpt lat="48.9332623" lon="2.8646476">
<ele>51.99</ele>
<time>2020-12-06T10:24:05Z</time>
</trkpt>
<trkpt lat="48.9332042" lon="2.8643216">
<ele>50.87</ele>
<time>2020-12-06T10:24:09Z</time>
</trkpt>
<trkpt lat="48.9332421" lon="2.8640255">
<ele>48.24</ele>
<time>2020-12-06T10:24:16Z</time>
</trkpt>
<trkpt lat="48.9331399" lon="2.8637144">
<ele>42.16</ele>
<time>2020-12-06T10:24:21Z</time>
</trkpt>
<trkpt lat="48.9331190" lon="2.8634291">
<ele>47.34</ele>
<time>2020-12-06T10:24:30Z</time>
</trkpt>
<trkpt lat="48.9329711" lon="2.8632683">
<ele>47.03</ele>
<time>2020-12-06T10:24:42Z</time>
</trkpt>
<trkpt lat="48.9330926" lon="2.8630549">
<ele>53.86</ele>
<time>2020-12-06T10:24:48Z</time>
</trkpt>
<trkpt lat="48.9329151" lon="2.8630025">
<ele>55.27</ele>
<time>2020-12-06T10:24:59Z</time>
</trkpt>
<trkpt lat="48.9327245" lon="2.8629428">
<ele>65.72</ele>
<time>2020-12-06T10:25:03Z</time>
</trkpt>
<trkpt lat="48.9326690" lon="2.8626506">
<ele>66.61</ele>
<time>2020-12-06T10:25:06Z</time>
</trkpt>
<trkpt lat="48.9324738" lon="2.8625357">
<ele>49.12</ele>
<time>2020-12-06T10:25:11Z</time>
</trkpt>
<trkpt lat="48.9323006" lon="2.8623825">
<ele>49.56</ele>
<time>2020-12-06T10:25:16Z</time>
</trkpt>
<trkpt lat="48.9321189" lon="2.8621939">
<ele>49.61</ele>
<time>2020-12-06T10:25:21Z</time>
</trkpt>
<trkpt lat="48.9319388" lon="2.8620200">
<ele>49.56</ele>
<time>2020-12-06T10:25:26Z</time>
</trkpt>
<trkpt lat="48.9317695" lon="2.8618386">
<ele>49.51</ele>
<time>2020-12-06T10:25:31Z</time>
</trkpt>
<trkpt lat="48.9316243" lon="2.8616699">
<ele>49.79</ele>
<time>2020-12-06T10:25:35Z</time>
</trkpt>
<trkpt lat="48.9314432" lon="2.8615118">
<ele>49.22</ele>
<time>2020-12-06T10:25:40Z</time>
</trkpt>
<trkpt lat="48.9312862" lon="2.8613698">
<ele>49.37</ele>
<time>2020-12-06T10:25:44Z</time>
</trkpt>
<trkpt lat="48.9311059" lon="2.8611949">
<ele>49.47</ele>
<time>2020-12-06T10:25:49Z</time>
</trkpt>
<trkpt lat="48.9309569" lon="2.8610278">
<ele>48.78</ele>
<time>2020-12-06T10:25:53Z</time>
</trkpt>
<trkpt lat="48.9307774" lon="2.8608850">
<ele>48.66</ele>
<time>2020-12-06T10:25:57Z</time>
</trkpt>
<trkpt lat="48.9306038" lon="2.8606937">
<ele>46.60</ele>
<time>2020-12-06T10:26:01Z</time>
</trkpt>
<trkpt lat="48.9304474" lon="2.8605247">
<ele>46.28</ele>
<time>2020-12-06T10:26:05Z</time>
</trkpt>
<trkpt lat="48.9302883" lon="2.8603601">
<ele>47.04</ele>
<time>2020-12-06T10:26:09Z</time>
</trkpt>
<trkpt lat="48.9301312" lon="2.8601856">
<ele>45.73</ele>
<time>2020-12-06T10:26:13Z</time>
</trkpt>
<trkpt lat="48.9299616" lon="2.8600281">
<ele>44.68</ele>
<time>2020-12-06T10:26:17Z</time>
</trkpt>
<trkpt lat="48.9297870" lon="2.8598651">
<ele>44.02</ele>
<time>2020-12-06T10:26:21Z</time>
</trkpt>
<trkpt lat="48.9296161" lon="2.8597176">
<ele>43.81</ele>
<time>2020-12-06T10:26:25Z</time>
</trkpt>
<trkpt lat="48.9294253" lon="2.8595593">
<ele>45.36</ele>
<time>2020-12-06T10:26:30Z</time>
</trkpt>
<trkpt lat="48.9292294" lon="2.8594149">
<ele>45.71</ele>
<time>2020-12-06T10:26:35Z</time>
</trkpt>
<trkpt lat="48.9290496" lon="2.8592304">
<ele>46.08</ele>
<time>2020-12-06T10:26:40Z</time>
</trkpt>
<trkpt lat="48.9288889" lon="2.8590731">
<ele>46.71</ele>
<time>2020-12-06T10:26:45Z</time>
</trkpt>
<trkpt lat="48.9287301" lon="2.8589104">
<ele>46.87</ele>
<time>2020-12-06T10:26:50Z</time>
</trkpt>
<trkpt lat="48.9285611" lon="2.8587194">
<ele>46.29</ele>
<time>2020-12-06T10:26:56Z</time>
</trkpt>
<trkpt lat="48.9283985" lon="2.8585347">
<ele>47.34</ele>
<time>2020-12-06T10:27:02Z</time>
</trkpt>
<trkpt lat="48.9282358" lon="2.8583578">
<ele>45.91</ele>
<time>2020-12-06T10:27:08Z</time>
</trkpt>
<trkpt lat="48.9280783" lon="2.8581806">
<ele>45.87</ele>
<time>2020-12-06T10:27:13Z</time>
</trkpt>
<trkpt lat="48.9278963" lon="2.8580308">
<ele>46.33</ele>
<time>2020-12-06T10:27:18Z</time>
</trkpt>
<trkpt lat="48.9277279" lon="2.8578429">
<ele>46.58</ele>
<time>2020-12-06T10:27:23Z</time>
</trkpt>
<trkpt lat="48.9275810" lon="2.8576565">
<ele>46.31</ele>
<time>2020-12-06T10:27:28Z</time>
</trkpt>
<trkpt lat="48.9274217" lon="2.8574864">
<ele>48.21</ele>
<time>2020-12-06T10:27:35Z</time>
</trkpt>
<trkpt lat="48.9272347" lon="2.8573328">
<ele>47.63</ele>
<time>2020-12-06T10:27:55Z</time>
</trkpt>
<trkpt lat="48.9270944" lon="2.8571533">
<ele>47.45</ele>
<time>2020-12-06T10:27:59Z</time>
</trkpt>
<trkpt lat="48.9269343" lon="2.8569947">
<ele>47.11</ele>
<time>2020-12-06T10:28:03Z</time>
</trkpt>
<trkpt lat="48.9267472" lon="2.8568269">
<ele>46.72</ele>
<time>2020-12-06T10:28:08Z</time>
</trkpt>
<trkpt lat="48.9265497" lon="2.8566794">
<ele>46.54</ele>
<time>2020-12-06T10:28:13Z</time>
</trkpt>
<trkpt lat="48.9263599" lon="2.8565409">
<ele>46.32</ele>
<time>2020-12-06T10:28:18Z</time>
</trkpt>
<trkpt lat="48.9261641" lon="2.8564085">
<ele>46.00</ele>
<time>2020-12-06T10:28:23Z</time>
</trkpt>
<trkpt lat="48.9259788" lon="2.8562838">
<ele>46.13</ele>
<time>2020-12-06T10:28:28Z</time>
</trkpt>
<trkpt lat="48.9257824" lon="2.8561350">
<ele>46.08</ele>
<time>2020-12-06T10:28:33Z</time>
</trkpt>
<trkpt lat="48.9255938" lon="2.8560043">
<ele>46.67</ele>
<time>2020-12-06T10:28:38Z</time>
</trkpt>
<trkpt lat="48.9254056" lon="2.8559334">
<ele>48.82</ele>
<time>2020-12-06T10:28:44Z</time>
</trkpt>
<trkpt lat="48.9253645" lon="2.8556642">
<ele>50.57</ele>
<time>2020-12-06T10:28:54Z</time>
</trkpt>
<trkpt lat="48.9254074" lon="2.8553648">
<ele>49.48</ele>
<time>2020-12-06T10:29:00Z</time>
</trkpt>
<trkpt lat="48.9254637" lon="2.8550573">
<ele>47.39</ele>
<time>2020-12-06T10:29:04Z</time>
</trkpt>
<trkpt lat="48.9255258" lon="2.8547673">
<ele>46.04</ele>
<time>2020-12-06T10:29:07Z</time>
</trkpt>
<trkpt lat="48.9255606" lon="2.8544514">
<ele>44.81</ele>
<time>2020-12-06T10:29:10Z</time>
</trkpt>
<trkpt lat="48.9254523" lon="2.8541503">
<ele>43.08</ele>
<time>2020-12-06T10:29:14Z</time>
</trkpt>
<trkpt lat="48.9253185" lon="2.8539480">
<ele>43.65</ele>
<time>2020-12-06T10:29:18Z</time>
</trkpt>
<trkpt lat="48.9251975" lon="2.8537407">
<ele>43.64</ele>
<time>2020-12-06T10:29:22Z</time>
</trkpt>
<trkpt lat="48.9250548" lon="2.8535150">
<ele>42.79</ele>
<time>2020-12-06T10:29:27Z</time>
</trkpt>
<trkpt lat="48.9249230" lon="2.8533218">
<ele>43.11</ele>
<time>2020-12-06T10:29:32Z</time>
</trkpt>
<trkpt lat="48.9247324" lon="2.8531113">
<ele>43.27</ele>
<time>2020-12-06T10:29:37Z</time>
</trkpt>
<trkpt lat="48.9245469" lon="2.8529016">
<ele>43.59</ele>
<time>2020-12-06T10:29:41Z</time>
</trkpt>
<trkpt lat="48.9243920" lon="2.8527233">
<ele>43.34</ele>
<time>2020-12-06T10:29:45Z</time>
</trkpt>
<trkpt lat="48.9242205" lon="2.8525170">
<ele>44.42</ele>
<time>2020-12-06T10:29:50Z</time>
</trkpt>
<trkpt lat="48.9240673" lon="2.8523191">
<ele>44.63</ele>
<time>2020-12-06T10:29:55Z</time>
</trkpt>
<trkpt lat="48.9239118" lon="2.8521791">
<ele>45.26</ele>
<time>2020-12-06T10:29:59Z</time>
</trkpt>
<trkpt lat="48.9237394" lon="2.8520319">
<ele>46.62</ele>
<time>2020-12-06T10:30:04Z</time>
</trkpt>
<trkpt lat="48.9235746" lon="2.8518534">
<ele>45.37</ele>
<time>2020-12-06T10:30:10Z</time>
</trkpt>
<trkpt lat="48.9233970" lon="2.8516867">
<ele>44.72</ele>
<time>2020-12-06T10:30:16Z</time>
</trkpt>
<trkpt lat="48.9232188" lon="2.8515319">
<ele>44.45</ele>
<time>2020-12-06T10:30:21Z</time>
</trkpt>
<trkpt lat="48.9230259" lon="2.8514244">
<ele>43.50</ele>
<time>2020-12-06T10:30:26Z</time>
</trkpt>
<trkpt lat="48.9228504" lon="2.8513477">
<ele>42.33</ele>
<time>2020-12-06T10:30:30Z</time>
</trkpt>
<trkpt lat="48.9226427" lon="2.8512438">
<ele>42.23</ele>
<time>2020-12-06T10:30:35Z</time>
</trkpt>
<trkpt lat="48.9224313" lon="2.8511332">
<ele>42.20</ele>
<time>2020-12-06T10:30:40Z</time>
</trkpt>
<trkpt lat="48.9222446" lon="2.8510592">
<ele>41.39</ele>
<time>2020-12-06T10:30:44Z</time>
</trkpt>
<trkpt lat="48.9220367" lon="2.8509692">
<ele>40.68</ele>
<time>2020-12-06T10:30:49Z</time>
</trkpt>
<trkpt lat="48.9218453" lon="2.8508790">
<ele>40.17</ele>
<time>2020-12-06T10:30:54Z</time>
</trkpt>
<trkpt lat="48.9216473" lon="2.8507953">
<ele>40.80</ele>
<time>2020-12-06T10:30:59Z</time>
</trkpt>
<trkpt lat="48.9214307" lon="2.8507201">
<ele>40.57</ele>
<time>2020-12-06T10:31:04Z</time>
</trkpt>
<trkpt lat="48.9212106" lon="2.8506523">
<ele>40.67</ele>
<time>2020-12-06T10:31:09Z</time>
</trkpt>
<trkpt lat="48.9209973" lon="2.8506004">
<ele>40.44</ele>
<time>2020-12-06T10:31:14Z</time>
</trkpt>
<trkpt lat="48.9207736" lon="2.8505487">
<ele>40.49</ele>
<time>2020-12-06T10:31:19Z</time>
</trkpt>
<trkpt lat="48.9205485" lon="2.8504973">
<ele>40.33</ele>
<time>2020-12-06T10:31:24Z</time>
</trkpt>
<trkpt lat="48.9203264" lon="2.8504234">
<ele>40.48</ele>
<time>2020-12-06T10:31:29Z</time>
</trkpt>
<trkpt lat="48.9201028" lon="2.8503626">
<ele>40.64</ele>
<time>2020-12-06T10:31:34Z</time>
</trkpt>
<trkpt lat="48.9198937" lon="2.8502984">
<ele>41.53</ele>
<time>2020-12-06T10:31:39Z</time>
</trkpt>
<trkpt lat="48.9196767" lon="2.8502291">
<ele>41.53</ele>
<time>2020-12-06T10:31:44Z</time>
</trkpt>
<trkpt lat="48.9194985" lon="2.8501669">
<ele>42.06</ele>
<time>2020-12-06T10:31:48Z</time>
</trkpt>
<trkpt lat="48.9192937" lon="2.8500833">
<ele>42.05</ele>
<time>2020-12-06T10:31:53Z</time>
</trkpt>
<trkpt lat="48.9191190" lon="2.8500106">
<ele>42.59</ele>
<time>2020-12-06T10:31:57Z</time>
</trkpt>
<trkpt lat="48.9189151" lon="2.8499237">
<ele>43.27</ele>
<time>2020-12-06T10:32:02Z</time>
</trkpt>
<trkpt lat="48.9187255" lon="2.8498284">
<ele>43.48</ele>
<time>2020-12-06T10:32:07Z</time>
</trkpt>
<trkpt lat="48.9185225" lon="2.8497346">
<ele>43.28</ele>
<time>2020-12-06T10:32:12Z</time>
</trkpt>
<trkpt lat="48.9183418" lon="2.8496363">
<ele>42.57</ele>
<time>2020-12-06T10:32:16Z</time>
</trkpt>
<trkpt lat="48.9181457" lon="2.8495428">
<ele>42.03</ele>
<time>2020-12-06T10:32:21Z</time>
</trkpt>
<trkpt lat="48.9179366" lon="2.8494902">
<ele>41.48</ele>
<time>2020-12-06T10:32:26Z</time>
</trkpt>
<trkpt lat="48.9177553" lon="2.8494364">
<ele>42.11</ele>
<time>2020-12-06T10:32:30Z</time>
</trkpt>
<trkpt lat="48.9175697" lon="2.8493815">
<ele>41.55</ele>
<time>2020-12-06T10:32:34Z</time>
</trkpt>
<trkpt lat="48.9173683" lon="2.8493485">
<ele>40.95</ele>
<time>2020-12-06T10:32:39Z</time>
</trkpt>
<trkpt lat="48.9171609" lon="2.8493478">
<ele>40.55</ele>
<time>2020-12-06T10:32:44Z</time>
</trkpt>
<trkpt lat="48.9169382" lon="2.8493228">
<ele>40.63</ele>
<time>2020-12-06T10:32:49Z</time>
</trkpt>
<trkpt lat="48.9167319" lon="2.8493276">
<ele>40.46</ele>
<time>2020-12-06T10:32:54Z</time>
</trkpt>
<trkpt lat="48.9165452" lon="2.8493219">
<ele>40.06</ele>
<time>2020-12-06T10:32:59Z</time>
</trkpt>
<trkpt lat="48.9163176" lon="2.8492975">
<ele>39.59</ele>
<time>2020-12-06T10:33:04Z</time>
</trkpt>
<trkpt lat="48.9160902" lon="2.8492572">
<ele>39.57</ele>
<time>2020-12-06T10:33:09Z</time>
</trkpt>
<trkpt lat="48.9158805" lon="2.8492515">
<ele>39.26</ele>
<time>2020-12-06T10:33:14Z</time>
</trkpt>
<trkpt lat="48.9156660" lon="2.8492575">
<ele>39.51</ele>
<time>2020-12-06T10:33:19Z</time>
</trkpt>
<trkpt lat="48.9154773" lon="2.8492781">
<ele>41.96</ele>
<time>2020-12-06T10:33:24Z</time>
</trkpt>
<trkpt lat="48.9152890" lon="2.8492812">
<ele>42.81</ele>
<time>2020-12-06T10:33:29Z</time>
</trkpt>
<trkpt lat="48.9150836" lon="2.8492902">
<ele>43.35</ele>
<time>2020-12-06T10:33:34Z</time>
</trkpt>
<trkpt lat="48.9148702" lon="2.8492890">
<ele>43.85</ele>
<time>2020-12-06T10:33:39Z</time>
</trkpt>
<trkpt lat="48.9146511" lon="2.8492754">
<ele>43.27</ele>
<time>2020-12-06T10:33:44Z</time>
</trkpt>
<trkpt lat="48.9144416" lon="2.8492527">
<ele>42.87</ele>
<time>2020-12-06T10:33:50Z</time>
</trkpt>
<trkpt lat="48.9142531" lon="2.8491987">
<ele>42.02</ele>
<time>2020-12-06T10:33:55Z</time>
</trkpt>
<trkpt lat="48.9140343" lon="2.8491680">
<ele>41.51</ele>
<time>2020-12-06T10:34:00Z</time>
</trkpt>
<trkpt lat="48.9138229" lon="2.8491282">
<ele>41.50</ele>
<time>2020-12-06T10:34:05Z</time>
</trkpt>
<trkpt lat="48.9136096" lon="2.8491008">
<ele>42.36</ele>
<time>2020-12-06T10:34:11Z</time>
</trkpt>
<trkpt lat="48.9134094" lon="2.8490664">
<ele>42.07</ele>
<time>2020-12-06T10:34:16Z</time>
</trkpt>
<trkpt lat="48.9132145" lon="2.8490225">
<ele>41.96</ele>
<time>2020-12-06T10:34:21Z</time>
</trkpt>
<trkpt lat="48.9130152" lon="2.8489804">
<ele>42.57</ele>
<time>2020-12-06T10:34:26Z</time>
</trkpt>
<trkpt lat="48.9128077" lon="2.8489468">
<ele>42.81</ele>
<time>2020-12-06T10:34:31Z</time>
</trkpt>
<trkpt lat="48.9126157" lon="2.8489225">
<ele>43.90</ele>
<time>2020-12-06T10:34:35Z</time>
</trkpt>
<trkpt lat="48.9124182" lon="2.8488780">
<ele>43.85</ele>
<time>2020-12-06T10:34:39Z</time>
</trkpt>
<trkpt lat="48.9122425" lon="2.8488190">
<ele>42.88</ele>
<time>2020-12-06T10:34:43Z</time>
</trkpt>
<trkpt lat="48.9120408" lon="2.8487779">
<ele>43.16</ele>
<time>2020-12-06T10:34:49Z</time>
</trkpt>
<trkpt lat="48.9118504" lon="2.8487713">
<ele>43.30</ele>
<time>2020-12-06T10:34:53Z</time>
</trkpt>
<trkpt lat="48.9116252" lon="2.8487484">
<ele>43.36</ele>
<time>2020-12-06T10:34:57Z</time>
</trkpt>
<trkpt lat="48.9114141" lon="2.8486960">
<ele>43.89</ele>
<time>2020-12-06T10:35:02Z</time>
</trkpt>
<trkpt lat="48.9111983" lon="2.8487033">
<ele>43.24</ele>
<time>2020-12-06T10:35:08Z</time>
</trkpt>
<trkpt lat="48.9111502" lon="2.8489865">
<ele>44.71</ele>
<time>2020-12-06T10:35:13Z</time>
</trkpt>
<trkpt lat="48.9111414" lon="2.8493265">
<ele>45.17</ele>
<time>2020-12-06T10:35:19Z</time>
</trkpt>
<trkpt lat="48.9110879" lon="2.8496186">
<ele>44.98</ele>
<time>2020-12-06T10:35:24Z</time>
</trkpt>
<trkpt lat="48.9108772" lon="2.8496118">
<ele>44.95</ele>
<time>2020-12-06T10:35:31Z</time>
</trkpt>
<trkpt lat="48.9106972" lon="2.8495311">
<ele>45.25</ele>
<time>2020-12-06T10:35:35Z</time>
</trkpt>
<trkpt lat="48.9105017" lon="2.8494763">
<ele>44.45</ele>
<time>2020-12-06T10:35:40Z</time>
</trkpt>
<trkpt lat="48.9102817" lon="2.8493975">
<ele>43.10</ele>
<time>2020-12-06T10:35:45Z</time>
</trkpt>
<trkpt lat="48.9100857" lon="2.8493366">
<ele>44.11</ele>
<time>2020-12-06T10:35:50Z</time>
</trkpt>
<trkpt lat="48.9099055" lon="2.8492600">
<ele>45.54</ele>
<time>2020-12-06T10:35:55Z</time>
</trkpt>
<trkpt lat="48.9096586" lon="2.8491767">
<ele>46.99</ele>
<time>2020-12-06T10:36:00Z</time>
</trkpt>
<trkpt lat="48.9094705" lon="2.8490937">
<ele>44.57</ele>
<time>2020-12-06T10:36:05Z</time>
</trkpt>
<trkpt lat="48.9092899" lon="2.8490127">
<ele>45.82</ele>
<time>2020-12-06T10:36:10Z</time>
</trkpt>
<trkpt lat="48.9090803" lon="2.8489195">
<ele>43.33</ele>
<time>2020-12-06T10:36:15Z</time>
</trkpt>
<trkpt lat="48.9088879" lon="2.8488683">
<ele>42.97</ele>
<time>2020-12-06T10:36:21Z</time>
</trkpt>
<trkpt lat="48.9086921" lon="2.8488333">
<ele>42.28</ele>
<time>2020-12-06T10:36:27Z</time>
</trkpt>
<trkpt lat="48.9084782" lon="2.8488246">
<ele>45.08</ele>
<time>2020-12-06T10:36:33Z</time>
</trkpt>
<trkpt lat="48.9082955" lon="2.8489294">
<ele>46.82</ele>
<time>2020-12-06T10:36:44Z</time>
</trkpt>
<trkpt lat="48.9080744" lon="2.8489083">
<ele>47.69</ele>
<time>2020-12-06T10:36:49Z</time>
</trkpt>
<trkpt lat="48.9078661" lon="2.8488797">
<ele>47.25</ele>
<time>2020-12-06T10:36:53Z</time>
</trkpt>
<trkpt lat="48.9076925" lon="2.8487821">
<ele>47.05</ele>
<time>2020-12-06T10:36:58Z</time>
</trkpt>
<trkpt lat="48.9074633" lon="2.8487337">
<ele>47.65</ele>
<time>2020-12-06T10:37:03Z</time>
</trkpt>
<trkpt lat="48.9072708" lon="2.8486590">
<ele>49.99</ele>
<time>2020-12-06T10:37:08Z</time>
</trkpt>
<trkpt lat="48.9070889" lon="2.8485924">
<ele>48.66</ele>
<time>2020-12-06T10:37:12Z</time>
</trkpt>
<trkpt lat="48.9069134" lon="2.8485088">
<ele>50.42</ele>
<time>2020-12-06T10:37:16Z</time>
</trkpt>
<trkpt lat="48.9067160" lon="2.8483986">
<ele>51.48</ele>
<time>2020-12-06T10:37:20Z</time>
</trkpt>
<trkpt lat="48.9065389" lon="2.8482859">
<ele>51.46</ele>
<time>2020-12-06T10:37:24Z</time>
</trkpt>
<trkpt lat="48.9063774" lon="2.8481235">
<ele>49.45</ele>
<time>2020-12-06T10:37:28Z</time>
</trkpt>
<trkpt lat="48.9061798" lon="2.8479815">
<ele>48.03</ele>
<time>2020-12-06T10:37:32Z</time>
</trkpt>
<trkpt lat="48.9060072" lon="2.8478478">
<ele>48.09</ele>
<time>2020-12-06T10:37:36Z</time>
</trkpt>
<trkpt lat="48.9058045" lon="2.8476396">
<ele>45.69</ele>
<time>2020-12-06T10:37:39Z</time>
</trkpt>
<trkpt lat="48.9056218" lon="2.8474950">
<ele>43.23</ele>
<time>2020-12-06T10:37:45Z</time>
</trkpt>
<trkpt lat="48.9053910" lon="2.8473439">
<ele>45.34</ele>
<time>2020-12-06T10:37:49Z</time>
</trkpt>
<trkpt lat="48.9052087" lon="2.8472401">
<ele>43.56</ele>
<time>2020-12-06T10:37:53Z</time>
</trkpt>
<trkpt lat="48.9050250" lon="2.8470929">
<ele>42.22</ele>
<time>2020-12-06T10:37:57Z</time>
</trkpt>
<trkpt lat="48.9048328" lon="2.8469418">
<ele>43.91</ele>
<time>2020-12-06T10:38:01Z</time>
</trkpt>
<trkpt lat="48.9046677" lon="2.8468282">
<ele>44.78</ele>
<time>2020-12-06T10:38:05Z</time>
</trkpt>
<trkpt lat="48.9044712" lon="2.8466649">
<ele>46.79</ele>
<time>2020-12-06T10:38:10Z</time>
</trkpt>
<trkpt lat="48.9043190" lon="2.8464935">
<ele>48.30</ele>
<time>2020-12-06T10:38:14Z</time>
</trkpt>
<trkpt lat="48.9041186" lon="2.8463493">
<ele>48.12</ele>
<time>2020-12-06T10:38:19Z</time>
</trkpt>
<trkpt lat="48.9039517" lon="2.8462208">
<ele>45.87</ele>
<time>2020-12-06T10:38:23Z</time>
</trkpt>
<trkpt lat="48.9037498" lon="2.8460959">
<ele>44.54</ele>
<time>2020-12-06T10:38:27Z</time>
</trkpt>
<trkpt lat="48.9035685" lon="2.8459413">
<ele>46.36</ele>
<time>2020-12-06T10:38:31Z</time>
</trkpt>
<trkpt lat="48.9033709" lon="2.8457662">
<ele>45.43</ele>
<time>2020-12-06T10:38:35Z</time>
</trkpt>
<trkpt lat="48.9031724" lon="2.8455921">
<ele>47.37</ele>
<time>2020-12-06T10:38:39Z</time>
</trkpt>
<trkpt lat="48.9029607" lon="2.8454187">
<ele>46.61</ele>
<time>2020-12-06T10:38:43Z</time>
</trkpt>
<trkpt lat="48.9027816" lon="2.8452957">
<ele>46.04</ele>
<time>2020-12-06T10:38:46Z</time>
</trkpt>
<trkpt lat="48.9025765" lon="2.8451609">
<ele>45.22</ele>
<time>2020-12-06T10:38:50Z</time>
</trkpt>
<trkpt lat="48.9023764" lon="2.8450152">
<ele>44.59</ele>
<time>2020-12-06T10:38:54Z</time>
</trkpt>
<trkpt lat="48.9021768" lon="2.8448684">
<ele>44.28</ele>
<time>2020-12-06T10:38:58Z</time>
</trkpt>
<trkpt lat="48.9019786" lon="2.8447008">
<ele>44.40</ele>
<time>2020-12-06T10:39:02Z</time>
</trkpt>
<trkpt lat="48.9017897" lon="2.8445221">
<ele>44.52</ele>
<time>2020-12-06T10:39:06Z</time>
</trkpt>
<trkpt lat="48.9016213" lon="2.8443380">
<ele>44.42</ele>
<time>2020-12-06T10:39:10Z</time>
</trkpt>
<trkpt lat="48.9014654" lon="2.8441474">
<ele>44.18</ele>
<time>2020-12-06T10:39:15Z</time>
</trkpt>
<trkpt lat="48.9012983" lon="2.8439277">
<ele>43.29</ele>
<time>2020-12-06T10:39:20Z</time>
</trkpt>
<trkpt lat="48.9011565" lon="2.8437439">
<ele>43.80</ele>
<time>2020-12-06T10:39:24Z</time>
</trkpt>
<trkpt lat="48.9010156" lon="2.8435336">
<ele>43.47</ele>
<time>2020-12-06T10:39:29Z</time>
</trkpt>
<trkpt lat="48.9008609" lon="2.8432825">
<ele>43.62</ele>
<time>2020-12-06T10:39:33Z</time>
</trkpt>
<trkpt lat="48.9007259" lon="2.8430854">
<ele>43.49</ele>
<time>2020-12-06T10:39:36Z</time>
</trkpt>
<trkpt lat="48.9005907" lon="2.8428888">
<ele>43.74</ele>
<time>2020-12-06T10:39:39Z</time>
</trkpt>
<trkpt lat="48.9004724" lon="2.8426783">
<ele>44.32</ele>
<time>2020-12-06T10:39:42Z</time>
</trkpt>
<trkpt lat="48.9003530" lon="2.8424653">
<ele>44.35</ele>
<time>2020-12-06T10:39:45Z</time>
</trkpt>
<trkpt lat="48.9002344" lon="2.8422486">
<ele>45.29</ele>
<time>2020-12-06T10:39:48Z</time>
</trkpt>
<trkpt lat="48.9001047" lon="2.8419435">
<ele>45.37</ele>
<time>2020-12-06T10:39:52Z</time>
</trkpt>
<trkpt lat="48.8999947" lon="2.8417241">
<ele>45.81</ele>
<time>2020-12-06T10:39:55Z</time>
</trkpt>
<trkpt lat="48.8998975" lon="2.8414697">
<ele>46.13</ele>
<time>2020-12-06T10:39:58Z</time>
</trkpt>
<trkpt lat="48.8997773" lon="2.8411643">
<ele>46.59</ele>
<time>2020-12-06T10:40:02Z</time>
</trkpt>
<trkpt lat="48.8997037" lon="2.8409109">
<ele>46.64</ele>
<time>2020-12-06T10:40:05Z</time>
</trkpt>
<trkpt lat="48.8996068" lon="2.8405843">
<ele>46.26</ele>
<time>2020-12-06T10:40:09Z</time>
</trkpt>
<trkpt lat="48.8995285" lon="2.8403228">
<ele>46.56</ele>
<time>2020-12-06T10:40:12Z</time>
</trkpt>
<trkpt lat="48.8994322" lon="2.8399920">
<ele>46.89</ele>
<time>2020-12-06T10:40:16Z</time>
</trkpt>
<trkpt lat="48.8993491" lon="2.8397451">
<ele>46.09</ele>
<time>2020-12-06T10:40:19Z</time>
</trkpt>
<trkpt lat="48.8992762" lon="2.8394870">
<ele>44.96</ele>
<time>2020-12-06T10:40:22Z</time>
</trkpt>
<trkpt lat="48.8992275" lon="2.8392041">
<ele>44.82</ele>
<time>2020-12-06T10:40:26Z</time>
</trkpt>
<trkpt lat="48.8991710" lon="2.8389327">
<ele>44.34</ele>
<time>2020-12-06T10:40:32Z</time>
</trkpt>
<trkpt lat="48.8990901" lon="2.8386386">
<ele>44.30</ele>
<time>2020-12-06T10:40:40Z</time>
</trkpt>
<trkpt lat="48.8990432" lon="2.8383484">
<ele>45.78</ele>
<time>2020-12-06T10:40:46Z</time>
</trkpt>
<trkpt lat="48.8990144" lon="2.8380381">
<ele>45.37</ele>
<time>2020-12-06T10:40:53Z</time>
</trkpt>
<trkpt lat="48.8989705" lon="2.8377723">
<ele>45.49</ele>
<time>2020-12-06T10:40:58Z</time>
</trkpt>
<trkpt lat="48.8989285" lon="2.8374699">
<ele>46.68</ele>
<time>2020-12-06T10:41:04Z</time>
</trkpt>
<trkpt lat="48.8989076" lon="2.8371831">
<ele>46.19</ele>
<time>2020-12-06T10:41:08Z</time>
</trkpt>
<trkpt lat="48.8989001" lon="2.8368271">
<ele>46.20</ele>
<time>2020-12-06T10:41:12Z</time>
</trkpt>
<trkpt lat="48.8988881" lon="2.8365421">
<ele>46.50</ele>
<time>2020-12-06T10:41:15Z</time>
</trkpt>
<trkpt lat="48.8988865" lon="2.8362639">
<ele>45.73</ele>
<time>2020-12-06T10:41:18Z</time>
</trkpt>
<trkpt lat="48.8988645" lon="2.8359009">
<ele>45.28</ele>
<time>2020-12-06T10:41:22Z</time>
</trkpt>
<trkpt lat="48.8988957" lon="2.8355841">
<ele>45.91</ele>
<time>2020-12-06T10:41:25Z</time>
</trkpt>
<trkpt lat="48.8989097" lon="2.8353060">
<ele>45.59</ele>
<time>2020-12-06T10:41:28Z</time>
</trkpt>
<trkpt lat="48.8989136" lon="2.8349554">
<ele>45.46</ele>
<time>2020-12-06T10:41:32Z</time>
</trkpt>
<trkpt lat="48.8989541" lon="2.8346436">
<ele>45.35</ele>
<time>2020-12-06T10:41:36Z</time>
</trkpt>
<trkpt lat="48.8989715" lon="2.8342762">
<ele>45.41</ele>
<time>2020-12-06T10:41:40Z</time>
</trkpt>
<trkpt lat="48.8989988" lon="2.8340001">
<ele>46.30</ele>
<time>2020-12-06T10:41:43Z</time>
</trkpt>
<trkpt lat="48.8990299" lon="2.8337298">
<ele>46.42</ele>
<time>2020-12-06T10:41:46Z</time>
</trkpt>
<trkpt lat="48.8990768" lon="2.8333975">
<ele>45.96</ele>
<time>2020-12-06T10:41:50Z</time>
</trkpt>
<trkpt lat="48.8991262" lon="2.8330965">
<ele>46.03</ele>
<time>2020-12-06T10:41:55Z</time>
</trkpt>
<trkpt lat="48.8991623" lon="2.8327819">
<ele>47.09</ele>
<time>2020-12-06T10:42:02Z</time>
</trkpt>
<trkpt lat="48.8992099" lon="2.8325099">
<ele>47.86</ele>
<time>2020-12-06T10:42:07Z</time>
</trkpt>
<trkpt lat="48.8992917" lon="2.8322645">
<ele>48.12</ele>
<time>2020-12-06T10:42:13Z</time>
</trkpt>
<trkpt lat="48.8993086" lon="2.8319708">
<ele>48.75</ele>
<time>2020-12-06T10:47:55Z</time>
</trkpt>
<trkpt lat="48.8993673" lon="2.8316522">
<ele>47.53</ele>
<time>2020-12-06T10:48:01Z</time>
</trkpt>
<trkpt lat="48.8994397" lon="2.8313755">
<ele>46.38</ele>
<time>2020-12-06T10:48:06Z</time>
</trkpt>
<trkpt lat="48.8995149" lon="2.8311043">
<ele>45.60</ele>
<time>2020-12-06T10:48:12Z</time>
</trkpt>
<trkpt lat="48.8996016" lon="2.8308249">
<ele>45.54</ele>
<time>2020-12-06T10:48:19Z</time>
</trkpt>
<trkpt lat="48.8996856" lon="2.8305631">
<ele>44.71</ele>
<time>2020-12-06T10:48:25Z</time>
</trkpt>
<trkpt lat="48.8997587" lon="2.8303110">
<ele>44.75</ele>
<time>2020-12-06T10:48:30Z</time>
</trkpt>
<trkpt lat="48.8998496" lon="2.8300710">
<ele>45.11</ele>
<time>2020-12-06T10:48:36Z</time>
</trkpt>
<trkpt lat="48.8999535" lon="2.8298346">
<ele>45.11</ele>
<time>2020-12-06T10:48:42Z</time>
</trkpt>
<trkpt lat="48.9000928" lon="2.8295990">
<ele>44.87</ele>
<time>2020-12-06T10:48:48Z</time>
</trkpt>
<trkpt lat="48.9002375" lon="2.8293713">
<ele>45.26</ele>
<time>2020-12-06T10:48:54Z</time>
</trkpt>
<trkpt lat="48.9003531" lon="2.8291162">
<ele>46.34</ele>
<time>2020-12-06T10:49:00Z</time>
</trkpt>
<trkpt lat="48.9004605" lon="2.8288360">
<ele>47.08</ele>
<time>2020-12-06T10:49:06Z</time>
</trkpt>
<trkpt lat="48.9005529" lon="2.8285774">
<ele>49.15</ele>
<time>2020-12-06T10:49:13Z</time>
</trkpt>
<trkpt lat="48.9006453" lon="2.8283358">
<ele>47.39</ele>
<time>2020-12-06T10:49:19Z</time>
</trkpt>
<trkpt lat="48.9007316" lon="2.8280730">
<ele>48.15</ele>
<time>2020-12-06T10:49:24Z</time>
</trkpt>
<trkpt lat="48.9008023" lon="2.8277781">
<ele>47.94</ele>
<time>2020-12-06T10:49:30Z</time>
</trkpt>
<trkpt lat="48.9008864" lon="2.8274724">
<ele>48.81</ele>
<time>2020-12-06T10:49:36Z</time>
</trkpt>
<trkpt lat="48.9009496" lon="2.8271973">
<ele>48.99</ele>
<time>2020-12-06T10:49:40Z</time>
</trkpt>
<trkpt lat="48.9009940" lon="2.8269134">
<ele>45.52</ele>
<time>2020-12-06T10:49:45Z</time>
</trkpt>
<trkpt lat="48.9010267" lon="2.8266007">
<ele>45.33</ele>
<time>2020-12-06T10:49:51Z</time>
</trkpt>
<trkpt lat="48.9010234" lon="2.8262768">
<ele>46.35</ele>
<time>2020-12-06T10:49:57Z</time>
</trkpt>
<trkpt lat="48.9010968" lon="2.8260118">
<ele>45.54</ele>
<time>2020-12-06T10:50:03Z</time>
</trkpt>
<trkpt lat="48.9011556" lon="2.8257500">
<ele>49.03</ele>
<time>2020-12-06T10:50:06Z</time>
</trkpt>
<trkpt lat="48.9012025" lon="2.8254627">
<ele>49.00</ele>
<time>2020-12-06T10:50:10Z</time>
</trkpt>
<trkpt lat="48.9012289" lon="2.8251919">
<ele>48.26</ele>
<time>2020-12-06T10:50:14Z</time>
</trkpt>
<trkpt lat="48.9012360" lon="2.8248744">
<ele>46.50</ele>
<time>2020-12-06T10:50:19Z</time>
</trkpt>
<trkpt lat="48.9012257" lon="2.8245365">
<ele>47.98</ele>
<time>2020-12-06T10:50:24Z</time>
</trkpt>
<trkpt lat="48.9012263" lon="2.8242072">
<ele>46.18</ele>
<time>2020-12-06T10:50:29Z</time>
</trkpt>
<trkpt lat="48.9012128" lon="2.8239141">
<ele>43.72</ele>
<time>2020-12-06T10:50:33Z</time>
</trkpt>
<trkpt lat="48.9011761" lon="2.8235859">
<ele>45.64</ele>
<time>2020-12-06T10:50:38Z</time>
</trkpt>
<trkpt lat="48.9011186" lon="2.8233179">
<ele>44.96</ele>
<time>2020-12-06T10:50:43Z</time>
</trkpt>
<trkpt lat="48.9010356" lon="2.8230358">
<ele>45.56</ele>
<time>2020-12-06T10:50:47Z</time>
</trkpt>
<trkpt lat="48.9009774" lon="2.8227710">
<ele>44.55</ele>
<time>2020-12-06T10:50:52Z</time>
</trkpt>
<trkpt lat="48.9009158" lon="2.8224793">
<ele>45.17</ele>
<time>2020-12-06T10:50:57Z</time>
</trkpt>
<trkpt lat="48.9008661" lon="2.8221617">
<ele>46.09</ele>
<time>2020-12-06T10:51:04Z</time>
</trkpt>
<trkpt lat="48.9008138" lon="2.8218940">
<ele>46.38</ele>
<time>2020-12-06T10:51:09Z</time>
</trkpt>
<trkpt lat="48.9007679" lon="2.8216089">
<ele>46.63</ele>
<time>2020-12-06T10:51:14Z</time>
</trkpt>
<trkpt lat="48.9007196" lon="2.8212890">
<ele>46.54</ele>
<time>2020-12-06T10:51:20Z</time>
</trkpt>
<trkpt lat="48.9006984" lon="2.8209899">
<ele>46.25</ele>
<time>2020-12-06T10:51:26Z</time>
</trkpt>
<trkpt lat="48.9006657" lon="2.8206822">
<ele>46.43</ele>
<time>2020-12-06T10:51:32Z</time>
</trkpt>
<trkpt lat="48.9006208" lon="2.8204169">
<ele>46.35</ele>
<time>2020-12-06T10:51:37Z</time>
</trkpt>
<trkpt lat="48.9005600" lon="2.8201153">
<ele>46.47</ele>
<time>2020-12-06T10:51:42Z</time>
</trkpt>
<trkpt lat="48.9005078" lon="2.8198183">
<ele>46.73</ele>
<time>2020-12-06T10:51:48Z</time>
</trkpt>
<trkpt lat="48.9004527" lon="2.8195119">
<ele>46.34</ele>
<time>2020-12-06T10:51:54Z</time>
</trkpt>
<trkpt lat="48.9003860" lon="2.8192556">
<ele>46.96</ele>
<time>2020-12-06T10:51:59Z</time>
</trkpt>
<trkpt lat="48.9003146" lon="2.8189528">
<ele>46.30</ele>
<time>2020-12-06T10:52:05Z</time>
</trkpt>
<trkpt lat="48.9002879" lon="2.8186586">
<ele>47.04</ele>
<time>2020-12-06T10:52:11Z</time>
</trkpt>
<trkpt lat="48.9002986" lon="2.8183840">
<ele>46.58</ele>
<time>2020-12-06T10:52:16Z</time>
</trkpt>
<trkpt lat="48.9002714" lon="2.8180697">
<ele>47.74</ele>
<time>2020-12-06T10:52:22Z</time>
</trkpt>
<trkpt lat="48.9002413" lon="2.8177812">
<ele>47.78</ele>
<time>2020-12-06T10:52:29Z</time>
</trkpt>
<trkpt lat="48.9002312" lon="2.8175012">
<ele>46.25</ele>
<time>2020-12-06T10:52:39Z</time>
</trkpt>
<trkpt lat="48.9001460" lon="2.8172591">
<ele>44.65</ele>
<time>2020-12-06T10:52:45Z</time>
</trkpt>
<trkpt lat="48.9001091" lon="2.8169825">
<ele>43.74</ele>
<time>2020-12-06T10:52:49Z</time>
</trkpt>
<trkpt lat="48.9000811" lon="2.8166943">
<ele>43.43</ele>
<time>2020-12-06T10:52:53Z</time>
</trkpt>
<trkpt lat="48.9000301" lon="2.8163670">
<ele>44.12</ele>
<time>2020-12-06T10:52:58Z</time>
</trkpt>
<trkpt lat="48.8999861" lon="2.8160713">
<ele>44.59</ele>
<time>2020-12-06T10:53:03Z</time>
</trkpt>
<trkpt lat="48.8999198" lon="2.8157304">
<ele>44.49</ele>
<time>2020-12-06T10:53:08Z</time>
</trkpt>
<trkpt lat="48.8998733" lon="2.8154424">
<ele>44.78</ele>
<time>2020-12-06T10:53:13Z</time>
</trkpt>
<trkpt lat="48.8998263" lon="2.8151214">
<ele>45.39</ele>
<time>2020-12-06T10:53:20Z</time>
</trkpt>
<trkpt lat="48.8997861" lon="2.8148422">
<ele>45.66</ele>
<time>2020-12-06T10:53:23Z</time>
</trkpt>
<trkpt lat="48.8997456" lon="2.8145522">
<ele>45.59</ele>
<time>2020-12-06T10:53:29Z</time>
</trkpt>
<trkpt lat="48.8996987" lon="2.8142505">
<ele>45.37</ele>
<time>2020-12-06T10:53:33Z</time>
</trkpt>
<trkpt lat="48.8996606" lon="2.8139653">
<ele>45.79</ele>
<time>2020-12-06T10:53:38Z</time>
</trkpt>
<trkpt lat="48.8996191" lon="2.8136450">
<ele>45.84</ele>
<time>2020-12-06T10:53:43Z</time>
</trkpt>
<trkpt lat="48.8995855" lon="2.8133660">
<ele>45.89</ele>
<time>2020-12-06T10:53:48Z</time>
</trkpt>
<trkpt lat="48.8995419" lon="2.8130782">
<ele>45.87</ele>
<time>2020-12-06T10:53:53Z</time>
</trkpt>
<trkpt lat="48.8995044" lon="2.8127856">
<ele>46.60</ele>
<time>2020-12-06T10:53:58Z</time>
</trkpt>
<trkpt lat="48.8994646" lon="2.8124624">
<ele>47.03</ele>
<time>2020-12-06T10:54:03Z</time>
</trkpt>
<trkpt lat="48.8994221" lon="2.8121565">
<ele>47.23</ele>
<time>2020-12-06T10:54:08Z</time>
</trkpt>
<trkpt lat="48.8993853" lon="2.8118354">
<ele>47.00</ele>
<time>2020-12-06T10:54:13Z</time>
</trkpt>
<trkpt lat="48.8993492" lon="2.8115061">
<ele>49.14</ele>
<time>2020-12-06T10:54:18Z</time>
</trkpt>
<trkpt lat="48.8993257" lon="2.8112174">
<ele>51.02</ele>
<time>2020-12-06T10:54:31Z</time>
</trkpt>
<trkpt lat="48.8992979" lon="2.8108966">
<ele>49.97</ele>
<time>2020-12-06T10:54:59Z</time>
</trkpt>
<trkpt lat="48.8992590" lon="2.8106103">
<ele>49.26</ele>
<time>2020-12-06T10:55:03Z</time>
</trkpt>
<trkpt lat="48.8992315" lon="2.8102653">
<ele>48.27</ele>
<time>2020-12-06T10:55:07Z</time>
</trkpt>
<trkpt lat="48.8991941" lon="2.8099702">
<ele>47.77</ele>
<time>2020-12-06T10:55:11Z</time>
</trkpt>
<trkpt lat="48.8991487" lon="2.8096728">
<ele>47.27</ele>
<time>2020-12-06T10:55:16Z</time>
</trkpt>
<trkpt lat="48.8990994" lon="2.8094079">
<ele>45.58</ele>
<time>2020-12-06T10:55:21Z</time>
</trkpt>
<trkpt lat="48.8990644" lon="2.8091210">
<ele>45.26</ele>
<time>2020-12-06T10:55:26Z</time>
</trkpt>
<trkpt lat="48.8990296" lon="2.8088445">
<ele>45.53</ele>
<time>2020-12-06T10:55:30Z</time>
</trkpt>
<trkpt lat="48.8990144" lon="2.8085687">
<ele>45.45</ele>
<time>2020-12-06T10:55:34Z</time>
</trkpt>
<trkpt lat="48.8990005" lon="2.8082515">
<ele>45.46</ele>
<time>2020-12-06T10:55:38Z</time>
</trkpt>
<trkpt lat="48.8989608" lon="2.8079586">
<ele>46.90</ele>
<time>2020-12-06T10:55:42Z</time>
</trkpt>
<trkpt lat="48.8989211" lon="2.8076439">
<ele>46.98</ele>
<time>2020-12-06T10:55:46Z</time>
</trkpt>
<trkpt lat="48.8988741" lon="2.8073385">
<ele>46.98</ele>
<time>2020-12-06T10:55:50Z</time>
</trkpt>
<trkpt lat="48.8988375" lon="2.8070407">
<ele>47.00</ele>
<time>2020-12-06T10:55:54Z</time>
</trkpt>
<trkpt lat="48.8988019" lon="2.8067547">
<ele>46.97</ele>
<time>2020-12-06T10:55:58Z</time>
</trkpt>
<trkpt lat="48.8987520" lon="2.8064190">
<ele>47.61</ele>
<time>2020-12-06T10:56:04Z</time>
</trkpt>
<trkpt lat="48.8987084" lon="2.8060954">
<ele>47.54</ele>
<time>2020-12-06T10:56:09Z</time>
</trkpt>
<trkpt lat="48.8986542" lon="2.8057548">
<ele>47.60</ele>
<time>2020-12-06T10:56:15Z</time>
</trkpt>
<trkpt lat="48.8985762" lon="2.8054260">
<ele>47.25</ele>
<time>2020-12-06T10:56:19Z</time>
</trkpt>
<trkpt lat="48.8984945" lon="2.8050807">
<ele>47.11</ele>
<time>2020-12-06T10:56:23Z</time>
</trkpt>
<trkpt lat="48.8983993" lon="2.8047564">
<ele>45.73</ele>
<time>2020-12-06T10:56:27Z</time>
</trkpt>
<trkpt lat="48.8983523" lon="2.8044533">
<ele>45.48</ele>
<time>2020-12-06T10:56:35Z</time>
</trkpt>
<trkpt lat="48.8983099" lon="2.8041621">
<ele>45.33</ele>
<time>2020-12-06T10:56:41Z</time>
</trkpt>
<trkpt lat="48.8983087" lon="2.8038437">
<ele>46.15</ele>
<time>2020-12-06T10:56:47Z</time>
</trkpt>
<trkpt lat="48.8983224" lon="2.8035290">
<ele>47.01</ele>
<time>2020-12-06T10:56:52Z</time>
</trkpt>
<trkpt lat="48.8982737" lon="2.8032391">
<ele>47.71</ele>
<time>2020-12-06T10:56:56Z</time>
</trkpt>
<trkpt lat="48.8981996" lon="2.8029360">
<ele>47.06</ele>
<time>2020-12-06T10:57:00Z</time>
</trkpt>
<trkpt lat="48.8981101" lon="2.8026313">
<ele>46.66</ele>
<time>2020-12-06T10:57:04Z</time>
</trkpt>
<trkpt lat="48.8980457" lon="2.8023466">
<ele>46.49</ele>
<time>2020-12-06T10:57:08Z</time>
</trkpt>
<trkpt lat="48.8979865" lon="2.8020343">
<ele>44.98</ele>
<time>2020-12-06T10:57:13Z</time>
</trkpt>
<trkpt lat="48.8979187" lon="2.8017358">
<ele>45.71</ele>
<time>2020-12-06T10:57:20Z</time>
</trkpt>
<trkpt lat="48.8978763" lon="2.8014099">
<ele>48.07</ele>
<time>2020-12-06T10:57:27Z</time>
</trkpt>
<trkpt lat="48.8978056" lon="2.8011217">
<ele>48.09</ele>
<time>2020-12-06T10:57:32Z</time>
</trkpt>
<trkpt lat="48.8977870" lon="2.8008186">
<ele>47.01</ele>
<time>2020-12-06T10:57:39Z</time>
</trkpt>
<trkpt lat="48.8977485" lon="2.8004953">
<ele>47.42</ele>
<time>2020-12-06T10:57:45Z</time>
</trkpt>
<trkpt lat="48.8976828" lon="2.8002340">
<ele>48.93</ele>
<time>2020-12-06T10:57:53Z</time>
</trkpt>
<trkpt lat="48.8976146" lon="2.7999279">
<ele>49.75</ele>
<time>2020-12-06T10:58:00Z</time>
</trkpt>
<trkpt lat="48.8975668" lon="2.7996107">
<ele>51.23</ele>
<time>2020-12-06T10:58:05Z</time>
</trkpt>
<trkpt lat="48.8975400" lon="2.7992819">
<ele>51.78</ele>
<time>2020-12-06T10:58:10Z</time>
</trkpt>
<trkpt lat="48.8975181" lon="2.7989529">
<ele>52.03</ele>
<time>2020-12-06T10:58:14Z</time>
</trkpt>
<trkpt lat="48.8974937" lon="2.7986503">
<ele>51.97</ele>
<time>2020-12-06T10:58:18Z</time>
</trkpt>
<trkpt lat="48.8974371" lon="2.7983235">
<ele>52.26</ele>
<time>2020-12-06T10:58:23Z</time>
</trkpt>
<trkpt lat="48.8974103" lon="2.7980136">
<ele>51.37</ele>
<time>2020-12-06T10:58:27Z</time>
</trkpt>
<trkpt lat="48.8973313" lon="2.7977063">
<ele>51.72</ele>
<time>2020-12-06T10:58:32Z</time>
</trkpt>
<trkpt lat="48.8972905" lon="2.7974398">
<ele>53.60</ele>
<time>2020-12-06T10:58:36Z</time>
</trkpt>
<trkpt lat="48.8972551" lon="2.7971294">
<ele>53.89</ele>
<time>2020-12-06T10:58:40Z</time>
</trkpt>
<trkpt lat="48.8972211" lon="2.7968299">
<ele>51.83</ele>
<time>2020-12-06T10:58:44Z</time>
</trkpt>
<trkpt lat="48.8971645" lon="2.7965646">
<ele>49.99</ele>
<time>2020-12-06T10:58:48Z</time>
</trkpt>
<trkpt lat="48.8971307" lon="2.7962681">
<ele>50.05</ele>
<time>2020-12-06T10:58:53Z</time>
</trkpt>
<trkpt lat="48.8970813" lon="2.7959883">
<ele>51.31</ele>
<time>2020-12-06T10:58:58Z</time>
</trkpt>
<trkpt lat="48.8970425" lon="2.7956905">
<ele>52.16</ele>
<time>2020-12-06T10:59:03Z</time>
</trkpt>
<trkpt lat="48.8970238" lon="2.7953862">
<ele>51.82</ele>
<time>2020-12-06T10:59:08Z</time>
</trkpt>
<trkpt lat="48.8969798" lon="2.7951203">
<ele>52.70</ele>
<time>2020-12-06T10:59:13Z</time>
</trkpt>
<trkpt lat="48.8969373" lon="2.7948442">
<ele>49.51</ele>
<time>2020-12-06T10:59:20Z</time>
</trkpt>
<trkpt lat="48.8968877" lon="2.7945787">
<ele>48.23</ele>
<time>2020-12-06T10:59:27Z</time>
</trkpt>
<trkpt lat="48.8968492" lon="2.7942771">
<ele>48.00</ele>
<time>2020-12-06T10:59:37Z</time>
</trkpt>
<trkpt lat="48.8967959" lon="2.7939758">
<ele>46.69</ele>
<time>2020-12-06T10:59:44Z</time>
</trkpt>
<trkpt lat="48.8967559" lon="2.7936556">
<ele>47.11</ele>
<time>2020-12-06T10:59:50Z</time>
</trkpt>
<trkpt lat="48.8967208" lon="2.7933698">
<ele>48.14</ele>
<time>2020-12-06T10:59:55Z</time>
</trkpt>
<trkpt lat="48.8966852" lon="2.7930988">
<ele>49.97</ele>
<time>2020-12-06T11:00:00Z</time>
</trkpt>
<trkpt lat="48.8966420" lon="2.7928095">
<ele>50.62</ele>
<time>2020-12-06T11:00:06Z</time>
</trkpt>
<trkpt lat="48.8966122" lon="2.7925091">
<ele>50.68</ele>
<time>2020-12-06T11:00:12Z</time>
</trkpt>
<trkpt lat="48.8965833" lon="2.7922280">
<ele>50.27</ele>
<time>2020-12-06T11:00:18Z</time>
</trkpt>
<trkpt lat="48.8966181" lon="2.7919245">
<ele>48.99</ele>
<time>2020-12-06T11:00:26Z</time>
</trkpt>
<trkpt lat="48.8967687" lon="2.7917507">
<ele>49.72</ele>
<time>2020-12-06T11:00:33Z</time>
</trkpt>
<trkpt lat="48.8965848" lon="2.7918236">
<ele>49.94</ele>
<time>2020-12-06T11:00:55Z</time>
</trkpt>
<trkpt lat="48.8964290" lon="2.7919732">
<ele>50.97</ele>
<time>2020-12-06T11:01:04Z</time>
</trkpt>
<trkpt lat="48.8962704" lon="2.7921125">
<ele>53.01</ele>
<time>2020-12-06T11:01:11Z</time>
</trkpt>
<trkpt lat="48.8961163" lon="2.7922856">
<ele>54.35</ele>
<time>2020-12-06T11:01:20Z</time>
</trkpt>
<trkpt lat="48.8960475" lon="2.7925915">
<ele>50.08</ele>
<time>2020-12-06T11:01:30Z</time>
</trkpt>
<trkpt lat="48.8960312" lon="2.7929253">
<ele>48.03</ele>
<time>2020-12-06T11:01:35Z</time>
</trkpt>
<trkpt lat="48.8961396" lon="2.7931930">
<ele>46.63</ele>
<time>2020-12-06T11:01:40Z</time>
</trkpt>
<trkpt lat="48.8962063" lon="2.7934968">
<ele>46.93</ele>
<time>2020-12-06T11:01:46Z</time>
</trkpt>
<trkpt lat="48.8962421" lon="2.7937935">
<ele>46.64</ele>
<time>2020-12-06T11:01:51Z</time>
</trkpt>
<trkpt lat="48.8962901" lon="2.7940920">
<ele>46.68</ele>
<time>2020-12-06T11:01:55Z</time>
</trkpt>
<trkpt lat="48.8963275" lon="2.7943968">
<ele>47.10</ele>
<time>2020-12-06T11:01:59Z</time>
</trkpt>
<trkpt lat="48.8963654" lon="2.7947040">
<ele>47.05</ele>
<time>2020-12-06T11:02:03Z</time>
</trkpt>
<trkpt lat="48.8964180" lon="2.7950111">
<ele>46.85</ele>
<time>2020-12-06T11:02:07Z</time>
</trkpt>
<trkpt lat="48.8964763" lon="2.7952969">
<ele>47.42</ele>
<time>2020-12-06T11:02:11Z</time>
</trkpt>
<trkpt lat="48.8965302" lon="2.7956247">
<ele>48.12</ele>
<time>2020-12-06T11:02:16Z</time>
</trkpt>
<trkpt lat="48.8965673" lon="2.7958944">
<ele>47.67</ele>
<time>2020-12-06T11:02:20Z</time>
</trkpt>
<trkpt lat="48.8966030" lon="2.7961760">
<ele>47.11</ele>
<time>2020-12-06T11:02:24Z</time>
</trkpt>
<trkpt lat="48.8966471" lon="2.7964664">
<ele>47.61</ele>
<time>2020-12-06T11:02:30Z</time>
</trkpt>
<trkpt lat="48.8966190" lon="2.7967391">
<ele>47.82</ele>
<time>2020-12-06T11:02:35Z</time>
</trkpt>
<trkpt lat="48.8964610" lon="2.7969044">
<ele>49.17</ele>
<time>2020-12-06T11:02:42Z</time>
</trkpt>
<trkpt lat="48.8962811" lon="2.7970026">
<ele>49.54</ele>
<time>2020-12-06T11:02:49Z</time>
</trkpt>
<trkpt lat="48.8963036" lon="2.7966972">
<ele>47.10</ele>
<time>2020-12-06T11:03:28Z</time>
</trkpt>
<trkpt lat="48.8961158" lon="2.7966379">
<ele>47.61</ele>
<time>2020-12-06T11:03:38Z</time>
</trkpt>
<trkpt lat="48.8961611" lon="2.7969083">
<ele>47.28</ele>
<time>2020-12-06T11:03:51Z</time>
</trkpt>
<trkpt lat="48.8962386" lon="2.7971723">
<ele>44.99</ele>
<time>2020-12-06T11:04:06Z</time>
</trkpt>
<trkpt lat="48.8962772" lon="2.7974437">
<ele>46.02</ele>
<time>2020-12-06T11:04:17Z</time>
</trkpt>
<trkpt lat="48.8963873" lon="2.7976857">
<ele>48.28</ele>
<time>2020-12-06T11:04:28Z</time>
</trkpt>
<trkpt lat="48.8963601" lon="2.7979605">
<ele>48.32</ele>
<time>2020-12-06T11:04:38Z</time>
</trkpt>
<trkpt lat="48.8963428" lon="2.7982773">
<ele>46.83</ele>
<time>2020-12-06T11:04:45Z</time>
</trkpt>
<trkpt lat="48.8963603" lon="2.7985693">
<ele>46.66</ele>
<time>2020-12-06T11:04:52Z</time>
</trkpt>
<trkpt lat="48.8963418" lon="2.7988714">
<ele>48.56</ele>
<time>2020-12-06T11:05:01Z</time>
</trkpt>
<trkpt lat="48.8963530" lon="2.7991752">
<ele>49.14</ele>
<time>2020-12-06T11:05:08Z</time>
</trkpt>
<trkpt lat="48.8963774" lon="2.7994616">
<ele>48.54</ele>
<time>2020-12-06T11:05:14Z</time>
</trkpt>
<trkpt lat="48.8963995" lon="2.7997939">
<ele>48.43</ele>
<time>2020-12-06T11:05:19Z</time>
</trkpt>
<trkpt lat="48.8964232" lon="2.8000901">
<ele>48.27</ele>
<time>2020-12-06T11:05:23Z</time>
</trkpt>
<trkpt lat="48.8964342" lon="2.8003673">
<ele>47.82</ele>
<time>2020-12-06T11:05:27Z</time>
</trkpt>
<trkpt lat="48.8964700" lon="2.8006771">
<ele>47.13</ele>
<time>2020-12-06T11:05:32Z</time>
</trkpt>
<trkpt lat="48.8965047" lon="2.8009971">
<ele>47.80</ele>
<time>2020-12-06T11:05:37Z</time>
</trkpt>
<trkpt lat="48.8965256" lon="2.8012853">
<ele>47.35</ele>
<time>2020-12-06T11:05:42Z</time>
</trkpt>
<trkpt lat="48.8965983" lon="2.8015840">
<ele>48.50</ele>
<time>2020-12-06T11:05:48Z</time>
</trkpt>
<trkpt lat="48.8965140" lon="2.8018672">
<ele>47.95</ele>
<time>2020-12-06T11:05:54Z</time>
</trkpt>
<trkpt lat="48.8965981" lon="2.8021140">
<ele>47.32</ele>
<time>2020-12-06T11:05:59Z</time>
</trkpt>
<trkpt lat="48.8966493" lon="2.8023833">
<ele>47.10</ele>
<time>2020-12-06T11:06:04Z</time>
</trkpt>
<trkpt lat="48.8967111" lon="2.8026692">
<ele>48.40</ele>
<time>2020-12-06T11:06:11Z</time>
</trkpt>
<trkpt lat="48.8967818" lon="2.8029827">
<ele>48.91</ele>
<time>2020-12-06T11:06:16Z</time>
</trkpt>
<trkpt lat="48.8968359" lon="2.8032503">
<ele>50.04</ele>
<time>2020-12-06T11:06:20Z</time>
</trkpt>
<trkpt lat="48.8967977" lon="2.8035205">
<ele>47.64</ele>
<time>2020-12-06T11:06:47Z</time>
</trkpt>
<trkpt lat="48.8967713" lon="2.8037937">
<ele>48.37</ele>
<time>2020-12-06T11:07:00Z</time>
</trkpt>
<trkpt lat="48.8968108" lon="2.8040809">
<ele>48.56</ele>
<time>2020-12-06T11:07:08Z</time>
</trkpt>
<trkpt lat="48.8969176" lon="2.8043329">
<ele>49.22</ele>
<time>2020-12-06T11:07:15Z</time>
</trkpt>
<trkpt lat="48.8969778" lon="2.8046091">
<ele>49.53</ele>
<time>2020-12-06T11:07:22Z</time>
</trkpt>
<trkpt lat="48.8968795" lon="2.8048702">
<ele>49.90</ele>
<time>2020-12-06T11:07:29Z</time>
</trkpt>
<trkpt lat="48.8968046" lon="2.8051311">
<ele>49.15</ele>
<time>2020-12-06T11:07:36Z</time>
</trkpt>
<trkpt lat="48.8967038" lon="2.8053747">
<ele>49.30</ele>
<time>2020-12-06T11:07:43Z</time>
</trkpt>
<trkpt lat="48.8965880" lon="2.8056091">
<ele>50.84</ele>
<time>2020-12-06T11:07:50Z</time>
</trkpt>
<trkpt lat="48.8965605" lon="2.8058920">
<ele>52.02</ele>
<time>2020-12-06T11:07:59Z</time>
</trkpt>
<trkpt lat="48.8967368" lon="2.8060539">
<ele>51.37</ele>
<time>2020-12-06T11:08:06Z</time>
</trkpt>
<trkpt lat="48.8967054" lon="2.8063383">
<ele>52.18</ele>
<time>2020-12-06T11:08:14Z</time>
</trkpt>
<trkpt lat="48.8966816" lon="2.8066206">
<ele>53.88</ele>
<time>2020-12-06T11:08:25Z</time>
</trkpt>
<trkpt lat="48.8966153" lon="2.8069118">
<ele>54.34</ele>
<time>2020-12-06T11:08:37Z</time>
</trkpt>
<trkpt lat="48.8965549" lon="2.8071970">
<ele>54.70</ele>
<time>2020-12-06T11:08:44Z</time>
</trkpt>
<trkpt lat="48.8965049" lon="2.8074791">
<ele>55.58</ele>
<time>2020-12-06T11:08:54Z</time>
</trkpt>
<trkpt lat="48.8964149" lon="2.8077320">
<ele>57.39</ele>
<time>2020-12-06T11:09:08Z</time>
</trkpt>
<trkpt lat="48.8963396" lon="2.8079977">
<ele>56.10</ele>
<time>2020-12-06T11:09:17Z</time>
</trkpt>
<trkpt lat="48.8963851" lon="2.8083018">
<ele>54.48</ele>
<time>2020-12-06T11:09:25Z</time>
</trkpt>
<trkpt lat="48.8964035" lon="2.8085776">
<ele>54.12</ele>
<time>2020-12-06T11:09:31Z</time>
</trkpt>
<trkpt lat="48.8964344" lon="2.8088484">
<ele>54.77</ele>
<time>2020-12-06T11:09:37Z</time>
</trkpt>
<trkpt lat="48.8964553" lon="2.8091518">
<ele>53.04</ele>
<time>2020-12-06T11:09:44Z</time>
</trkpt>
<trkpt lat="48.8964702" lon="2.8094486">
<ele>51.70</ele>
<time>2020-12-06T11:09:50Z</time>
</trkpt>
<trkpt lat="48.8964933" lon="2.8097501">
<ele>51.95</ele>
<time>2020-12-06T11:09:56Z</time>
</trkpt>
<trkpt lat="48.8965084" lon="2.8100699">
<ele>51.79</ele>
<time>2020-12-06T11:10:02Z</time>
</trkpt>
<trkpt lat="48.8965280" lon="2.8103976">
<ele>51.72</ele>
<time>2020-12-06T11:10:08Z</time>
</trkpt>
<trkpt lat="48.8965537" lon="2.8107241">
<ele>53.43</ele>
<time>2020-12-06T11:10:14Z</time>
</trkpt>
<trkpt lat="48.8965758" lon="2.8110464">
<ele>53.72</ele>
<time>2020-12-06T11:10:20Z</time>
</trkpt>
<trkpt lat="48.8965860" lon="2.8113431">
<ele>53.17</ele>
<time>2020-12-06T11:10:25Z</time>
</trkpt>
<trkpt lat="48.8965828" lon="2.8116749">
<ele>53.37</ele>
<time>2020-12-06T11:10:31Z</time>
</trkpt>
<trkpt lat="48.8965515" lon="2.8119526">
<ele>52.96</ele>
<time>2020-12-06T11:10:36Z</time>
</trkpt>
<trkpt lat="48.8965183" lon="2.8122338">
<ele>51.56</ele>
<time>2020-12-06T11:10:41Z</time>
</trkpt>
<trkpt lat="48.8965156" lon="2.8125288">
<ele>52.56</ele>
<time>2020-12-06T11:10:47Z</time>
</trkpt>
<trkpt lat="48.8965163" lon="2.8128397">
<ele>53.36</ele>
<time>2020-12-06T11:10:54Z</time>
</trkpt>
<trkpt lat="48.8964973" lon="2.8131269">
<ele>53.57</ele>
<time>2020-12-06T11:11:00Z</time>
</trkpt>
<trkpt lat="48.8964693" lon="2.8134103">
<ele>52.52</ele>
<time>2020-12-06T11:11:06Z</time>
</trkpt>
<trkpt lat="48.8964257" lon="2.8137145">
<ele>52.37</ele>
<time>2020-12-06T11:11:12Z</time>
</trkpt>
<trkpt lat="48.8963854" lon="2.8139813">
<ele>52.63</ele>
<time>2020-12-06T11:11:17Z</time>
</trkpt>
<trkpt lat="48.8963275" lon="2.8142472">
<ele>53.18</ele>
<time>2020-12-06T11:11:23Z</time>
</trkpt>
<trkpt lat="48.8962596" lon="2.8145361">
<ele>54.89</ele>
<time>2020-12-06T11:11:30Z</time>
</trkpt>
<trkpt lat="48.8961911" lon="2.8147924">
<ele>55.62</ele>
<time>2020-12-06T11:11:43Z</time>
</trkpt>
<trkpt lat="48.8961127" lon="2.8150426">
<ele>55.56</ele>
<time>2020-12-06T11:11:50Z</time>
</trkpt>
<trkpt lat="48.8960406" lon="2.8152958">
<ele>55.80</ele>
<time>2020-12-06T11:11:57Z</time>
</trkpt>
<trkpt lat="48.8959678" lon="2.8155857">
<ele>56.36</ele>
<time>2020-12-06T11:12:05Z</time>
</trkpt>
<trkpt lat="48.8958945" lon="2.8158455">
<ele>56.46</ele>
<time>2020-12-06T11:12:12Z</time>
</trkpt>
<trkpt lat="48.8957983" lon="2.8161173">
<ele>54.48</ele>
<time>2020-12-06T11:12:19Z</time>
</trkpt>
<trkpt lat="48.8957221" lon="2.8163778">
<ele>53.39</ele>
<time>2020-12-06T11:12:25Z</time>
</trkpt>
<trkpt lat="48.8956310" lon="2.8166441">
<ele>51.01</ele>
<time>2020-12-06T11:12:31Z</time>
</trkpt>
<trkpt lat="48.8955344" lon="2.8169096">
<ele>49.87</ele>
<time>2020-12-06T11:12:37Z</time>
</trkpt>
<trkpt lat="48.8954266" lon="2.8171751">
<ele>50.26</ele>
<time>2020-12-06T11:12:44Z</time>
</trkpt>
<trkpt lat="48.8953039" lon="2.8174105">
<ele>50.34</ele>
<time>2020-12-06T11:12:52Z</time>
</trkpt>
<trkpt lat="48.8951561" lon="2.8176643">
<ele>49.78</ele>
<time>2020-12-06T11:12:58Z</time>
</trkpt>
<trkpt lat="48.8950069" lon="2.8178918">
<ele>47.22</ele>
<time>2020-12-06T11:13:04Z</time>
</trkpt>
<trkpt lat="48.8948893" lon="2.8181101">
<ele>48.11</ele>
<time>2020-12-06T11:13:10Z</time>
</trkpt>
<trkpt lat="48.8947417" lon="2.8182873">
<ele>43.42</ele>
<time>2020-12-06T11:13:16Z</time>
</trkpt>
<trkpt lat="48.8946460" lon="2.8185369">
<ele>45.57</ele>
<time>2020-12-06T11:13:20Z</time>
</trkpt>
<trkpt lat="48.8945137" lon="2.8187760">
<ele>48.25</ele>
<time>2020-12-06T11:13:26Z</time>
</trkpt>
<trkpt lat="48.8944169" lon="2.8190174">
<ele>51.94</ele>
<time>2020-12-06T11:13:29Z</time>
</trkpt>
<trkpt lat="48.8943155" lon="2.8192665">
<ele>52.86</ele>
<time>2020-12-06T11:13:33Z</time>
</trkpt>
<trkpt lat="48.8941864" lon="2.8194968">
<ele>50.60</ele>
<time>2020-12-06T11:13:37Z</time>
</trkpt>
<trkpt lat="48.8940507" lon="2.8197413">
<ele>48.27</ele>
<time>2020-12-06T11:13:41Z</time>
</trkpt>
<trkpt lat="48.8939219" lon="2.8199695">
<ele>49.35</ele>
<time>2020-12-06T11:13:45Z</time>
</trkpt>
<trkpt lat="48.8938032" lon="2.8201984">
<ele>50.56</ele>
<time>2020-12-06T11:13:50Z</time>
</trkpt>
<trkpt lat="48.8936819" lon="2.8204524">
<ele>50.15</ele>
<time>2020-12-06T11:13:56Z</time>
</trkpt>
<trkpt lat="48.8935791" lon="2.8206880">
<ele>49.33</ele>
<time>2020-12-06T11:14:00Z</time>
</trkpt>
<trkpt lat="48.8934660" lon="2.8209407">
<ele>47.96</ele>
<time>2020-12-06T11:14:04Z</time>
</trkpt>
<trkpt lat="48.8933522" lon="2.8211606">
<ele>48.21</ele>
<time>2020-12-06T11:14:08Z</time>
</trkpt>
<trkpt lat="48.8932087" lon="2.8214108">
<ele>48.94</ele>
<time>2020-12-06T11:14:13Z</time>
</trkpt>
<trkpt lat="48.8930835" lon="2.8216337">
<ele>49.20</ele>
<time>2020-12-06T11:14:17Z</time>
</trkpt>
<trkpt lat="48.8929758" lon="2.8218698">
<ele>50.01</ele>
<time>2020-12-06T11:14:21Z</time>
</trkpt>
<trkpt lat="48.8928512" lon="2.8221057">
<ele>49.82</ele>
<time>2020-12-06T11:14:25Z</time>
</trkpt>
<trkpt lat="48.8927337" lon="2.8223512">
<ele>50.26</ele>
<time>2020-12-06T11:14:29Z</time>
</trkpt>
<trkpt lat="48.8926041" lon="2.8225667">
<ele>50.02</ele>
<time>2020-12-06T11:14:33Z</time>
</trkpt>
<trkpt lat="48.8924754" lon="2.8227731">
<ele>49.63</ele>
<time>2020-12-06T11:14:37Z</time>
</trkpt>
<trkpt lat="48.8923310" lon="2.8230362">
<ele>48.74</ele>
<time>2020-12-06T11:14:42Z</time>
</trkpt>
<trkpt lat="48.8922189" lon="2.8232731">
<ele>49.51</ele>
<time>2020-12-06T11:14:46Z</time>
</trkpt>
<trkpt lat="48.8920834" lon="2.8235387">
<ele>49.78</ele>
<time>2020-12-06T11:14:51Z</time>
</trkpt>
<trkpt lat="48.8919739" lon="2.8237566">
<ele>49.42</ele>
<time>2020-12-06T11:14:54Z</time>
</trkpt>
<trkpt lat="48.8918313" lon="2.8240297">
<ele>48.67</ele>
<time>2020-12-06T11:14:58Z</time>
</trkpt>
<trkpt lat="48.8916797" lon="2.8243068">
<ele>47.62</ele>
<time>2020-12-06T11:15:02Z</time>
</trkpt>
<trkpt lat="48.8915415" lon="2.8245276">
<ele>46.53</ele>
<time>2020-12-06T11:15:06Z</time>
</trkpt>
<trkpt lat="48.8914072" lon="2.8247225">
<ele>46.18</ele>
<time>2020-12-06T11:15:10Z</time>
</trkpt>
<trkpt lat="48.8912698" lon="2.8249359">
<ele>47.19</ele>
<time>2020-12-06T11:15:18Z</time>
</trkpt>
<trkpt lat="48.8911500" lon="2.8251764">
<ele>47.46</ele>
<time>2020-12-06T11:15:24Z</time>
</trkpt>
<trkpt lat="48.8910142" lon="2.8253736">
<ele>46.50</ele>
<time>2020-12-06T11:15:29Z</time>
</trkpt>
<trkpt lat="48.8908920" lon="2.8255811">
<ele>47.46</ele>
<time>2020-12-06T11:15:34Z</time>
</trkpt>
<trkpt lat="48.8907618" lon="2.8257731">
<ele>48.66</ele>
<time>2020-12-06T11:15:39Z</time>
</trkpt>
<trkpt lat="48.8906421" lon="2.8260006">
<ele>48.95</ele>
<time>2020-12-06T11:15:45Z</time>
</trkpt>
<trkpt lat="48.8905406" lon="2.8262541">
<ele>49.22</ele>
<time>2020-12-06T11:15:51Z</time>
</trkpt>
<trkpt lat="48.8904264" lon="2.8264791">
<ele>49.28</ele>
<time>2020-12-06T11:16:00Z</time>
</trkpt>
<trkpt lat="48.8903053" lon="2.8262674">
<ele>47.77</ele>
<time>2020-12-06T11:16:14Z</time>
</trkpt>
<trkpt lat="48.8902461" lon="2.8259643">
<ele>48.35</ele>
<time>2020-12-06T11:16:21Z</time>
</trkpt>
<trkpt lat="48.8901802" lon="2.8256513">
<ele>47.55</ele>
<time>2020-12-06T11:16:27Z</time>
</trkpt>
<trkpt lat="48.8901265" lon="2.8253496">
<ele>49.04</ele>
<time>2020-12-06T11:16:32Z</time>
</trkpt>
<trkpt lat="48.8900554" lon="2.8250608">
<ele>49.68</ele>
<time>2020-12-06T11:16:37Z</time>
</trkpt>
<trkpt lat="48.8900040" lon="2.8247969">
<ele>49.92</ele>
<time>2020-12-06T11:16:43Z</time>
</trkpt>
<trkpt lat="48.8899415" lon="2.8245348">
<ele>52.84</ele>
<time>2020-12-06T11:16:50Z</time>
</trkpt>
<trkpt lat="48.8898528" lon="2.8242812">
<ele>55.39</ele>
<time>2020-12-06T11:16:58Z</time>
</trkpt>
<trkpt lat="48.8896922" lon="2.8244049">
<ele>54.43</ele>
<time>2020-12-06T11:17:06Z</time>
</trkpt>
<trkpt lat="48.8895162" lon="2.8245902">
<ele>54.81</ele>
<time>2020-12-06T11:17:12Z</time>
</trkpt>
<trkpt lat="48.8893618" lon="2.8247645">
<ele>56.34</ele>
<time>2020-12-06T11:17:17Z</time>
</trkpt>
<trkpt lat="48.8892012" lon="2.8249456">
<ele>55.88</ele>
<time>2020-12-06T11:17:23Z</time>
</trkpt>
<trkpt lat="48.8890560" lon="2.8251266">
<ele>56.97</ele>
<time>2020-12-06T11:17:28Z</time>
</trkpt>
<trkpt lat="48.8888980" lon="2.8253165">
<ele>56.02</ele>
<time>2020-12-06T11:17:33Z</time>
</trkpt>
<trkpt lat="48.8887501" lon="2.8255522">
<ele>55.56</ele>
<time>2020-12-06T11:17:38Z</time>
</trkpt>
<trkpt lat="48.8886231" lon="2.8258017">
<ele>56.14</ele>
<time>2020-12-06T11:17:43Z</time>
</trkpt>
<trkpt lat="48.8885107" lon="2.8260665">
<ele>56.39</ele>
<time>2020-12-06T11:17:48Z</time>
</trkpt>
<trkpt lat="48.8883982" lon="2.8262971">
<ele>56.19</ele>
<time>2020-12-06T11:17:52Z</time>
</trkpt>
<trkpt lat="48.8882737" lon="2.8265595">
<ele>53.72</ele>
<time>2020-12-06T11:17:57Z</time>
</trkpt>
<trkpt lat="48.8881536" lon="2.8268306">
<ele>52.58</ele>
<time>2020-12-06T11:18:02Z</time>
</trkpt>
<trkpt lat="48.8880142" lon="2.8270896">
<ele>53.07</ele>
<time>2020-12-06T11:18:07Z</time>
</trkpt>
<trkpt lat="48.8879041" lon="2.8273066">
<ele>51.85</ele>
<time>2020-12-06T11:18:11Z</time>
</trkpt>
<trkpt lat="48.8877821" lon="2.8275682">
<ele>52.09</ele>
<time>2020-12-06T11:18:16Z</time>
</trkpt>
<trkpt lat="48.8876663" lon="2.8278151">
<ele>51.75</ele>
<time>2020-12-06T11:18:21Z</time>
</trkpt>
<trkpt lat="48.8875650" lon="2.8280433">
<ele>51.99</ele>
<time>2020-12-06T11:18:26Z</time>
</trkpt>
<trkpt lat="48.8873939" lon="2.8281731">
<ele>52.23</ele>
<time>2020-12-06T11:18:34Z</time>
</trkpt>
<trkpt lat="48.8872370" lon="2.8279838">
<ele>52.69</ele>
<time>2020-12-06T11:18:41Z</time>
</trkpt>
<trkpt lat="48.8870827" lon="2.8278016">
<ele>55.08</ele>
<time>2020-12-06T11:18:49Z</time>
</trkpt>
<trkpt lat="48.8869480" lon="2.8280289">
<ele>55.00</ele>
<time>2020-12-06T11:19:05Z</time>
</trkpt>
<trkpt lat="48.8868317" lon="2.8282392">
<ele>54.74</ele>
<time>2020-12-06T11:19:12Z</time>
</trkpt>
<trkpt lat="48.8867236" lon="2.8284673">
<ele>55.40</ele>
<time>2020-12-06T11:19:17Z</time>
</trkpt>
<trkpt lat="48.8866138" lon="2.8287200">
<ele>56.35</ele>
<time>2020-12-06T11:19:22Z</time>
</trkpt>
<trkpt lat="48.8864936" lon="2.8289856">
<ele>57.34</ele>
<time>2020-12-06T11:19:27Z</time>
</trkpt>
<trkpt lat="48.8863781" lon="2.8292333">
<ele>57.78</ele>
<time>2020-12-06T11:19:32Z</time>
</trkpt>
<trkpt lat="48.8862448" lon="2.8294843">
<ele>56.45</ele>
<time>2020-12-06T11:19:39Z</time>
</trkpt>
<trkpt lat="48.8861409" lon="2.8297161">
<ele>56.33</ele>
<time>2020-12-06T11:19:43Z</time>
</trkpt>
<trkpt lat="48.8860061" lon="2.8300108">
<ele>57.02</ele>
<time>2020-12-06T11:19:47Z</time>
</trkpt>
<trkpt lat="48.8858923" lon="2.8302415">
<ele>57.99</ele>
<time>2020-12-06T11:19:50Z</time>
</trkpt>
<trkpt lat="48.8857836" lon="2.8304757">
<ele>58.79</ele>
<time>2020-12-06T11:19:53Z</time>
</trkpt>
<trkpt lat="48.8856752" lon="2.8307070">
<ele>59.01</ele>
<time>2020-12-06T11:19:56Z</time>
</trkpt>
<trkpt lat="48.8855693" lon="2.8309382">
<ele>59.54</ele>
<time>2020-12-06T11:19:59Z</time>
</trkpt>
<trkpt lat="48.8854518" lon="2.8311550">
<ele>58.63</ele>
<time>2020-12-06T11:20:02Z</time>
</trkpt>
<trkpt lat="48.8853287" lon="2.8314372">
<ele>59.89</ele>
<time>2020-12-06T11:20:06Z</time>
</trkpt>
<trkpt lat="48.8852122" lon="2.8317148">
<ele>61.23</ele>
<time>2020-12-06T11:20:10Z</time>
</trkpt>
<trkpt lat="48.8851047" lon="2.8319352">
<ele>60.56</ele>
<time>2020-12-06T11:20:14Z</time>
</trkpt>
<trkpt lat="48.8849839" lon="2.8321787">
<ele>60.19</ele>
<time>2020-12-06T11:20:19Z</time>
</trkpt>
<trkpt lat="48.8847990" lon="2.8322685">
<ele>58.44</ele>
<time>2020-12-06T11:20:27Z</time>
</trkpt>
<trkpt lat="48.8845977" lon="2.8322945">
<ele>57.62</ele>
<time>2020-12-06T11:20:33Z</time>
</trkpt>
<trkpt lat="48.8844702" lon="2.8324898">
<ele>58.43</ele>
<time>2020-12-06T11:20:39Z</time>
</trkpt>
<trkpt lat="48.8842774" lon="2.8325165">
<ele>58.59</ele>
<time>2020-12-06T11:20:45Z</time>
</trkpt>
<trkpt lat="48.8840736" lon="2.8325218">
<ele>58.07</ele>
<time>2020-12-06T11:20:51Z</time>
</trkpt>
<trkpt lat="48.8838830" lon="2.8325371">
<ele>56.98</ele>
<time>2020-12-06T11:20:56Z</time>
</trkpt>
<trkpt lat="48.8836789" lon="2.8325550">
<ele>56.72</ele>
<time>2020-12-06T11:21:01Z</time>
</trkpt>
<trkpt lat="48.8834819" lon="2.8326339">
<ele>56.08</ele>
<time>2020-12-06T11:21:06Z</time>
</trkpt>
<trkpt lat="48.8833025" lon="2.8327548">
<ele>55.73</ele>
<time>2020-12-06T11:21:11Z</time>
</trkpt>
<trkpt lat="48.8831425" lon="2.8328892">
<ele>55.12</ele>
<time>2020-12-06T11:21:16Z</time>
</trkpt>
<trkpt lat="48.8829842" lon="2.8330256">
<ele>54.92</ele>
<time>2020-12-06T11:21:21Z</time>
</trkpt>
<trkpt lat="48.8828338" lon="2.8331786">
<ele>54.41</ele>
<time>2020-12-06T11:21:26Z</time>
</trkpt>
<trkpt lat="48.8826612" lon="2.8333586">
<ele>52.17</ele>
<time>2020-12-06T11:21:32Z</time>
</trkpt>
<trkpt lat="48.8824913" lon="2.8335280">
<ele>53.22</ele>
<time>2020-12-06T11:21:38Z</time>
</trkpt>
<trkpt lat="48.8823429" lon="2.8337238">
<ele>53.34</ele>
<time>2020-12-06T11:21:44Z</time>
</trkpt>
<trkpt lat="48.8821867" lon="2.8339338">
<ele>54.33</ele>
<time>2020-12-06T11:21:50Z</time>
</trkpt>
<trkpt lat="48.8820362" lon="2.8341261">
<ele>54.75</ele>
<time>2020-12-06T11:21:56Z</time>
</trkpt>
<trkpt lat="48.8818878" lon="2.8343313">
<ele>54.30</ele>
<time>2020-12-06T11:22:06Z</time>
</trkpt>
<trkpt lat="48.8817617" lon="2.8345380">
<ele>53.65</ele>
<time>2020-12-06T11:22:16Z</time>
</trkpt>
<trkpt lat="48.8816258" lon="2.8347559">
<ele>52.46</ele>
<time>2020-12-06T11:22:24Z</time>
</trkpt>
<trkpt lat="48.8815376" lon="2.8350412">
<ele>52.81</ele>
<time>2020-12-06T11:22:31Z</time>
</trkpt>
<trkpt lat="48.8814520" lon="2.8353205">
<ele>53.45</ele>
<time>2020-12-06T11:22:37Z</time>
</trkpt>
<trkpt lat="48.8813619" lon="2.8355883">
<ele>54.35</ele>
<time>2020-12-06T11:22:43Z</time>
</trkpt>
<trkpt lat="48.8812730" lon="2.8358513">
<ele>54.70</ele>
<time>2020-12-06T11:22:49Z</time>
</trkpt>
<trkpt lat="48.8811860" lon="2.8361009">
<ele>56.27</ele>
<time>2020-12-06T11:22:55Z</time>
</trkpt>
<trkpt lat="48.8810900" lon="2.8363762">
<ele>58.25</ele>
<time>2020-12-06T11:23:03Z</time>
</trkpt>
<trkpt lat="48.8809888" lon="2.8366183">
<ele>58.20</ele>
<time>2020-12-06T11:23:10Z</time>
</trkpt>
<trkpt lat="48.8808976" lon="2.8368578">
<ele>58.26</ele>
<time>2020-12-06T11:23:16Z</time>
</trkpt>
<trkpt lat="48.8807426" lon="2.8370085">
<ele>56.97</ele>
<time>2020-12-06T11:23:24Z</time>
</trkpt>
<trkpt lat="48.8805658" lon="2.8368709">
<ele>57.05</ele>
<time>2020-12-06T11:23:31Z</time>
</trkpt>
<trkpt lat="48.8804024" lon="2.8367408">
<ele>57.53</ele>
<time>2020-12-06T11:23:36Z</time>
</trkpt>
<trkpt lat="48.8802430" lon="2.8365964">
<ele>57.89</ele>
<time>2020-12-06T11:23:41Z</time>
</trkpt>
<trkpt lat="48.8800723" lon="2.8364729">
<ele>57.74</ele>
<time>2020-12-06T11:23:46Z</time>
</trkpt>
<trkpt lat="48.8799011" lon="2.8363553">
<ele>57.60</ele>
<time>2020-12-06T11:23:51Z</time>
</trkpt>
<trkpt lat="48.8797207" lon="2.8362165">
<ele>57.77</ele>
<time>2020-12-06T11:23:56Z</time>
</trkpt>
<trkpt lat="48.8795361" lon="2.8360893">
<ele>58.27</ele>
<time>2020-12-06T11:24:01Z</time>
</trkpt>
<trkpt lat="48.8793689" lon="2.8359556">
<ele>58.71</ele>
<time>2020-12-06T11:24:06Z</time>
</trkpt>
<trkpt lat="48.8792100" lon="2.8358257">
<ele>59.11</ele>
<time>2020-12-06T11:24:11Z</time>
</trkpt>
<trkpt lat="48.8790250" lon="2.8356708">
<ele>60.05</ele>
<time>2020-12-06T11:24:17Z</time>
</trkpt>
<trkpt lat="48.8788331" lon="2.8355259">
<ele>60.66</ele>
<time>2020-12-06T11:24:23Z</time>
</trkpt>
<trkpt lat="48.8786465" lon="2.8353839">
<ele>61.23</ele>
<time>2020-12-06T11:24:29Z</time>
</trkpt>
<trkpt lat="48.8784718" lon="2.8352545">
<ele>60.79</ele>
<time>2020-12-06T11:24:36Z</time>
</trkpt>
<trkpt lat="48.8783477" lon="2.8355070">
<ele>60.40</ele>
<time>2020-12-06T11:24:43Z</time>
</trkpt>
<trkpt lat="48.8782468" lon="2.8357564">
<ele>60.57</ele>
<time>2020-12-06T11:24:48Z</time>
</trkpt>
<trkpt lat="48.8781433" lon="2.8360365">
<ele>59.81</ele>
<time>2020-12-06T11:24:53Z</time>
</trkpt>
<trkpt lat="48.8780456" lon="2.8363174">
<ele>59.60</ele>
<time>2020-12-06T11:24:58Z</time>
</trkpt>
<trkpt lat="48.8779537" lon="2.8365909">
<ele>58.42</ele>
<time>2020-12-06T11:25:03Z</time>
</trkpt>
<trkpt lat="48.8778564" lon="2.8368685">
<ele>57.17</ele>
<time>2020-12-06T11:25:09Z</time>
</trkpt>
<trkpt lat="48.8777746" lon="2.8371683">
<ele>57.17</ele>
<time>2020-12-06T11:25:18Z</time>
</trkpt>
<trkpt lat="48.8776777" lon="2.8374616">
<ele>57.18</ele>
<time>2020-12-06T11:25:23Z</time>
</trkpt>
<trkpt lat="48.8775967" lon="2.8377082">
<ele>57.20</ele>
<time>2020-12-06T11:25:27Z</time>
</trkpt>
<trkpt lat="48.8774997" lon="2.8379769">
<ele>57.97</ele>
<time>2020-12-06T11:25:32Z</time>
</trkpt>
<trkpt lat="48.8774043" lon="2.8382345">
<ele>57.45</ele>
<time>2020-12-06T11:25:36Z</time>
</trkpt>
<trkpt lat="48.8772995" lon="2.8384955">
<ele>56.93</ele>
<time>2020-12-06T11:25:41Z</time>
</trkpt>
<trkpt lat="48.8771879" lon="2.8387484">
<ele>56.70</ele>
<time>2020-12-06T11:25:46Z</time>
</trkpt>
<trkpt lat="48.8770478" lon="2.8389402">
<ele>56.36</ele>
<time>2020-12-06T11:25:51Z</time>
</trkpt>
<trkpt lat="48.8768836" lon="2.8390929">
<ele>57.52</ele>
<time>2020-12-06T11:25:57Z</time>
</trkpt>
<trkpt lat="48.8767195" lon="2.8392217">
<ele>57.88</ele>
<time>2020-12-06T11:26:01Z</time>
</trkpt>
<trkpt lat="48.8765417" lon="2.8393447">
<ele>58.68</ele>
<time>2020-12-06T11:26:07Z</time>
</trkpt>
<trkpt lat="48.8763451" lon="2.8394490">
<ele>60.93</ele>
<time>2020-12-06T11:26:13Z</time>
</trkpt>
<trkpt lat="48.8761619" lon="2.8395317">
<ele>61.60</ele>
<time>2020-12-06T11:26:19Z</time>
</trkpt>
<trkpt lat="48.8759681" lon="2.8395999">
<ele>63.01</ele>
<time>2020-12-06T11:26:25Z</time>
</trkpt>
<trkpt lat="48.8757797" lon="2.8397166">
<ele>64.61</ele>
<time>2020-12-06T11:26:32Z</time>
</trkpt>
<trkpt lat="48.8756435" lon="2.8399184">
<ele>68.96</ele>
<time>2020-12-06T11:26:40Z</time>
</trkpt>
<trkpt lat="48.8755734" lon="2.8401768">
<ele>68.89</ele>
<time>2020-12-06T11:26:46Z</time>
</trkpt>
<trkpt lat="48.8754285" lon="2.8403682">
<ele>69.89</ele>
<time>2020-12-06T11:26:52Z</time>
</trkpt>
<trkpt lat="48.8752944" lon="2.8405511">
<ele>71.56</ele>
<time>2020-12-06T11:26:58Z</time>
</trkpt>
<trkpt lat="48.8751199" lon="2.8406917">
<ele>72.51</ele>
<time>2020-12-06T11:27:05Z</time>
</trkpt>
<trkpt lat="48.8749428" lon="2.8408645">
<ele>74.37</ele>
<time>2020-12-06T11:27:12Z</time>
</trkpt>
<trkpt lat="48.8747585" lon="2.8410141">
<ele>76.24</ele>
<time>2020-12-06T11:27:19Z</time>
</trkpt>
<trkpt lat="48.8745960" lon="2.8411829">
<ele>79.51</ele>
<time>2020-12-06T11:27:25Z</time>
</trkpt>
<trkpt lat="48.8744639" lon="2.8413873">
<ele>81.66</ele>
<time>2020-12-06T11:27:31Z</time>
</trkpt>
<trkpt lat="48.8743122" lon="2.8415837">
<ele>82.06</ele>
<time>2020-12-06T11:27:37Z</time>
</trkpt>
<trkpt lat="48.8741561" lon="2.8417830">
<ele>81.82</ele>
<time>2020-12-06T11:27:43Z</time>
</trkpt>
<trkpt lat="48.8740321" lon="2.8420125">
<ele>83.63</ele>
<time>2020-12-06T11:27:50Z</time>
</trkpt>
<trkpt lat="48.8739414" lon="2.8422905">
<ele>83.65</ele>
<time>2020-12-06T11:27:56Z</time>
</trkpt>
<trkpt lat="48.8738323" lon="2.8425527">
<ele>84.88</ele>
<time>2020-12-06T11:28:02Z</time>
</trkpt>
<trkpt lat="48.8737334" lon="2.8427949">
<ele>86.29</ele>
<time>2020-12-06T11:28:08Z</time>
</trkpt>
<trkpt lat="48.8736391" lon="2.8430797">
<ele>86.68</ele>
<time>2020-12-06T11:28:14Z</time>
</trkpt>
<trkpt lat="48.8735395" lon="2.8433290">
<ele>87.11</ele>
<time>2020-12-06T11:28:20Z</time>
</trkpt>
<trkpt lat="48.8734370" lon="2.8435563">
<ele>88.89</ele>
<time>2020-12-06T11:28:28Z</time>
</trkpt>
<trkpt lat="48.8732597" lon="2.8436343">
<ele>87.80</ele>
<time>2020-12-06T11:29:59Z</time>
</trkpt>
</trkseg>
</trk>
</gpx>
